<?xml version="1.0" encoding="UTF-8" ?>
<gpx version="1.1" xmlns:xsi="http://www.w3.org/2001/XMLSchema-instance" 
    xmlns="http://www.topografix.com/GPX/1/1"
    xsi:schemaLocation="http://www.topografix.com/GPX/1/1 http://www.topografix.com/GPX/1/1/gpx.xsd" 
    creator="Openrunner - https://www.openrunner.com" >	<trk>
	                   <name>ECLA parcours 2 - 15 aout 2025-22197429</name>
						<trkseg>
					<trkpt lat="45.825520" lon="4.608610">
						<ele>229</ele>
						<time>2025-08-13T06:27:59Z</time>
					</trkpt>
					<trkpt lat="45.825520" lon="4.608510">
						<ele>229</ele>
						<time>2025-08-13T06:28:00Z</time>
					</trkpt>
					<trkpt lat="45.825480" lon="4.608420">
						<ele>229</ele>
						<time>2025-08-13T06:28:02Z</time>
					</trkpt>
					<trkpt lat="45.825370" lon="4.608340">
						<ele>230</ele>
						<time>2025-08-13T06:28:04Z</time>
					</trkpt>
					<trkpt lat="45.825300" lon="4.608380">
						<ele>230</ele>
						<time>2025-08-13T06:28:05Z</time>
					</trkpt>
					<trkpt lat="45.823760" lon="4.607050">
						<ele>232</ele>
						<time>2025-08-13T06:28:37Z</time>
					</trkpt>
					<trkpt lat="45.823460" lon="4.606660">
						<ele>233</ele>
						<time>2025-08-13T06:28:44Z</time>
					</trkpt>
					<trkpt lat="45.823440" lon="4.606530">
						<ele>233</ele>
						<time>2025-08-13T06:28:46Z</time>
					</trkpt>
					<trkpt lat="45.823350" lon="4.606510">
						<ele>233</ele>
						<time>2025-08-13T06:28:48Z</time>
					</trkpt>
					<trkpt lat="45.823140" lon="4.605980">
						<ele>233</ele>
						<time>2025-08-13T06:28:55Z</time>
					</trkpt>
					<trkpt lat="45.823120" lon="4.605760">
						<ele>233</ele>
						<time>2025-08-13T06:28:58Z</time>
					</trkpt>
					<trkpt lat="45.823140" lon="4.605460">
						<ele>233</ele>
						<time>2025-08-13T06:29:02Z</time>
					</trkpt>
					<trkpt lat="45.823250" lon="4.605180">
						<ele>233</ele>
						<time>2025-08-13T06:29:06Z</time>
					</trkpt>
					<trkpt lat="45.823330" lon="4.605100">
						<ele>233</ele>
						<time>2025-08-13T06:29:07Z</time>
					</trkpt>
					<trkpt lat="45.823370" lon="4.604880">
						<ele>235</ele>
						<time>2025-08-13T06:29:10Z</time>
					</trkpt>
					<trkpt lat="45.823270" lon="4.604710">
						<ele>238</ele>
						<time>2025-08-13T06:29:13Z</time>
					</trkpt>
					<trkpt lat="45.823140" lon="4.604690">
						<ele>238</ele>
						<time>2025-08-13T06:29:15Z</time>
					</trkpt>
					<trkpt lat="45.822920" lon="4.604860">
						<ele>237</ele>
						<time>2025-08-13T06:29:20Z</time>
					</trkpt>
					<trkpt lat="45.822770" lon="4.604880">
						<ele>237</ele>
						<time>2025-08-13T06:29:22Z</time>
					</trkpt>
					<trkpt lat="45.822670" lon="4.604920">
						<ele>236</ele>
						<time>2025-08-13T06:29:24Z</time>
					</trkpt>
					<trkpt lat="45.822260" lon="4.604950">
						<ele>239</ele>
						<time>2025-08-13T06:29:32Z</time>
					</trkpt>
					<trkpt lat="45.821760" lon="4.605070">
						<ele>243</ele>
						<time>2025-08-13T06:29:41Z</time>
					</trkpt>
					<trkpt lat="45.819850" lon="4.605780">
						<ele>243</ele>
						<time>2025-08-13T06:30:16Z</time>
					</trkpt>
					<trkpt lat="45.819400" lon="4.605850">
						<ele>245</ele>
						<time>2025-08-13T06:30:24Z</time>
					</trkpt>
					<trkpt lat="45.819100" lon="4.605760">
						<ele>246</ele>
						<time>2025-08-13T06:30:29Z</time>
					</trkpt>
					<trkpt lat="45.818820" lon="4.605550">
						<ele>246</ele>
						<time>2025-08-13T06:30:35Z</time>
					</trkpt>
					<trkpt lat="45.818670" lon="4.605330">
						<ele>246</ele>
						<time>2025-08-13T06:30:39Z</time>
					</trkpt>
					<trkpt lat="45.818120" lon="4.604300">
						<ele>244</ele>
						<time>2025-08-13T06:30:55Z</time>
					</trkpt>
					<trkpt lat="45.817950" lon="4.604070">
						<ele>245</ele>
						<time>2025-08-13T06:30:59Z</time>
					</trkpt>
					<trkpt lat="45.817730" lon="4.603850">
						<ele>245</ele>
						<time>2025-08-13T06:31:04Z</time>
					</trkpt>
					<trkpt lat="45.816460" lon="4.603210">
						<ele>242</ele>
						<time>2025-08-13T06:31:28Z</time>
					</trkpt>
					<trkpt lat="45.815310" lon="4.602670">
						<ele>240</ele>
						<time>2025-08-13T06:31:49Z</time>
					</trkpt>
					<trkpt lat="45.813980" lon="4.602180">
						<ele>242</ele>
						<time>2025-08-13T06:32:14Z</time>
					</trkpt>
					<trkpt lat="45.813740" lon="4.602010">
						<ele>243</ele>
						<time>2025-08-13T06:32:18Z</time>
					</trkpt>
					<trkpt lat="45.811810" lon="4.599990">
						<ele>248</ele>
						<time>2025-08-13T06:33:01Z</time>
					</trkpt>
					<trkpt lat="45.811460" lon="4.599800">
						<ele>247</ele>
						<time>2025-08-13T06:33:07Z</time>
					</trkpt>
					<trkpt lat="45.811190" lon="4.599710">
						<ele>245</ele>
						<time>2025-08-13T06:33:12Z</time>
					</trkpt>
					<trkpt lat="45.810800" lon="4.599730">
						<ele>242</ele>
						<time>2025-08-13T06:33:19Z</time>
					</trkpt>
					<trkpt lat="45.810780" lon="4.599750">
						<ele>242</ele>
						<time>2025-08-13T06:33:20Z</time>
					</trkpt>
					<trkpt lat="45.810650" lon="4.599750">
						<ele>242</ele>
						<time>2025-08-13T06:33:22Z</time>
					</trkpt>
					<trkpt lat="45.809640" lon="4.599900">
						<ele>243</ele>
						<time>2025-08-13T06:33:40Z</time>
					</trkpt>
					<trkpt lat="45.809190" lon="4.599820">
						<ele>245</ele>
						<time>2025-08-13T06:33:48Z</time>
					</trkpt>
					<trkpt lat="45.808700" lon="4.599670">
						<ele>248</ele>
						<time>2025-08-13T06:33:57Z</time>
					</trkpt>
					<trkpt lat="45.808290" lon="4.599430">
						<ele>248</ele>
						<time>2025-08-13T06:34:05Z</time>
					</trkpt>
					<trkpt lat="45.806620" lon="4.598190">
						<ele>249</ele>
						<time>2025-08-13T06:34:38Z</time>
					</trkpt>
					<trkpt lat="45.805820" lon="4.597350">
						<ele>248</ele>
						<time>2025-08-13T06:34:56Z</time>
					</trkpt>
					<trkpt lat="45.805690" lon="4.597090">
						<ele>248</ele>
						<time>2025-08-13T06:35:00Z</time>
					</trkpt>
					<trkpt lat="45.805630" lon="4.596900">
						<ele>248</ele>
						<time>2025-08-13T06:35:03Z</time>
					</trkpt>
					<trkpt lat="45.805610" lon="4.596640">
						<ele>246</ele>
						<time>2025-08-13T06:35:06Z</time>
					</trkpt>
					<trkpt lat="45.805690" lon="4.595330">
						<ele>253</ele>
						<time>2025-08-13T06:35:22Z</time>
					</trkpt>
					<trkpt lat="45.805670" lon="4.594950">
						<ele>258</ele>
						<time>2025-08-13T06:35:27Z</time>
					</trkpt>
					<trkpt lat="45.805540" lon="4.594500">
						<ele>261</ele>
						<time>2025-08-13T06:35:33Z</time>
					</trkpt>
					<trkpt lat="45.805390" lon="4.594260">
						<ele>260</ele>
						<time>2025-08-13T06:35:37Z</time>
					</trkpt>
					<trkpt lat="45.804900" lon="4.593680">
						<ele>258</ele>
						<time>2025-08-13T06:35:48Z</time>
					</trkpt>
					<trkpt lat="45.804600" lon="4.593250">
						<ele>259</ele>
						<time>2025-08-13T06:35:56Z</time>
					</trkpt>
					<trkpt lat="45.804300" lon="4.592560">
						<ele>259</ele>
						<time>2025-08-13T06:36:06Z</time>
					</trkpt>
					<trkpt lat="45.803650" lon="4.591620">
						<ele>258</ele>
						<time>2025-08-13T06:36:22Z</time>
					</trkpt>
					<trkpt lat="45.803250" lon="4.591300">
						<ele>258</ele>
						<time>2025-08-13T06:36:30Z</time>
					</trkpt>
					<trkpt lat="45.802880" lon="4.591080">
						<ele>258</ele>
						<time>2025-08-13T06:36:38Z</time>
					</trkpt>
					<trkpt lat="45.801790" lon="4.590590">
						<ele>255</ele>
						<time>2025-08-13T06:36:58Z</time>
					</trkpt>
					<trkpt lat="45.801570" lon="4.590550">
						<ele>255</ele>
						<time>2025-08-13T06:37:02Z</time>
					</trkpt>
					<trkpt lat="45.800860" lon="4.590530">
						<ele>254</ele>
						<time>2025-08-13T06:37:14Z</time>
					</trkpt>
					<trkpt lat="45.800520" lon="4.590420">
						<ele>254</ele>
						<time>2025-08-13T06:37:21Z</time>
					</trkpt>
					<trkpt lat="45.800330" lon="4.590310">
						<ele>254</ele>
						<time>2025-08-13T06:37:24Z</time>
					</trkpt>
					<trkpt lat="45.799380" lon="4.589520">
						<ele>253</ele>
						<time>2025-08-13T06:37:44Z</time>
					</trkpt>
					<trkpt lat="45.799080" lon="4.589240">
						<ele>253</ele>
						<time>2025-08-13T06:37:50Z</time>
					</trkpt>
					<trkpt lat="45.797110" lon="4.587610">
						<ele>263</ele>
						<time>2025-08-13T06:38:31Z</time>
					</trkpt>
					<trkpt lat="45.796510" lon="4.587240">
						<ele>262</ele>
						<time>2025-08-13T06:38:42Z</time>
					</trkpt>
					<trkpt lat="45.795670" lon="4.586900">
						<ele>260</ele>
						<time>2025-08-13T06:38:58Z</time>
					</trkpt>
					<trkpt lat="45.793610" lon="4.586170">
						<ele>268</ele>
						<time>2025-08-13T06:39:36Z</time>
					</trkpt>
					<trkpt lat="45.792470" lon="4.585800">
						<ele>269</ele>
						<time>2025-08-13T06:39:56Z</time>
					</trkpt>
					<trkpt lat="45.791620" lon="4.585680">
						<ele>271</ele>
						<time>2025-08-13T06:40:12Z</time>
					</trkpt>
					<trkpt lat="45.790440" lon="4.585440">
						<ele>269</ele>
						<time>2025-08-13T06:40:33Z</time>
					</trkpt>
					<trkpt lat="45.789560" lon="4.585120">
						<ele>268</ele>
						<time>2025-08-13T06:40:49Z</time>
					</trkpt>
					<trkpt lat="45.789130" lon="4.584900">
						<ele>265</ele>
						<time>2025-08-13T06:40:57Z</time>
					</trkpt>
					<trkpt lat="45.788330" lon="4.584280">
						<ele>258</ele>
						<time>2025-08-13T06:41:13Z</time>
					</trkpt>
					<trkpt lat="45.788200" lon="4.584150">
						<ele>259</ele>
						<time>2025-08-13T06:41:16Z</time>
					</trkpt>
					<trkpt lat="45.787880" lon="4.583720">
						<ele>261</ele>
						<time>2025-08-13T06:41:24Z</time>
					</trkpt>
					<trkpt lat="45.786570" lon="4.581660">
						<ele>263</ele>
						<time>2025-08-13T06:41:58Z</time>
					</trkpt>
					<trkpt lat="45.786170" lon="4.581190">
						<ele>267</ele>
						<time>2025-08-13T06:42:08Z</time>
					</trkpt>
					<trkpt lat="45.785740" lon="4.580810">
						<ele>268</ele>
						<time>2025-08-13T06:42:17Z</time>
					</trkpt>
					<trkpt lat="45.784560" lon="4.579600">
						<ele>270</ele>
						<time>2025-08-13T06:42:42Z</time>
					</trkpt>
					<trkpt lat="45.784190" lon="4.579070">
						<ele>270</ele>
						<time>2025-08-13T06:42:52Z</time>
					</trkpt>
					<trkpt lat="45.783440" lon="4.577540">
						<ele>273</ele>
						<time>2025-08-13T06:43:15Z</time>
					</trkpt>
					<trkpt lat="45.783120" lon="4.576960">
						<ele>275</ele>
						<time>2025-08-13T06:43:24Z</time>
					</trkpt>
					<trkpt lat="45.782880" lon="4.576660">
						<ele>274</ele>
						<time>2025-08-13T06:43:30Z</time>
					</trkpt>
					<trkpt lat="45.782650" lon="4.576430">
						<ele>274</ele>
						<time>2025-08-13T06:43:35Z</time>
					</trkpt>
					<trkpt lat="45.781300" lon="4.575440">
						<ele>276</ele>
						<time>2025-08-13T06:44:02Z</time>
					</trkpt>
					<trkpt lat="45.779150" lon="4.573980">
						<ele>279</ele>
						<time>2025-08-13T06:44:44Z</time>
					</trkpt>
					<trkpt lat="45.778780" lon="4.573660">
						<ele>279</ele>
						<time>2025-08-13T06:44:52Z</time>
					</trkpt>
					<trkpt lat="45.778310" lon="4.573170">
						<ele>279</ele>
						<time>2025-08-13T06:45:02Z</time>
					</trkpt>
					<trkpt lat="45.778210" lon="4.572990">
						<ele>280</ele>
						<time>2025-08-13T06:45:05Z</time>
					</trkpt>
					<trkpt lat="45.777430" lon="4.571990">
						<ele>278</ele>
						<time>2025-08-13T06:45:24Z</time>
					</trkpt>
					<trkpt lat="45.776940" lon="4.571390">
						<ele>280</ele>
						<time>2025-08-13T06:45:35Z</time>
					</trkpt>
					<trkpt lat="45.776100" lon="4.570440">
						<ele>282</ele>
						<time>2025-08-13T06:45:54Z</time>
					</trkpt>
					<trkpt lat="45.775780" lon="4.570140">
						<ele>281</ele>
						<time>2025-08-13T06:46:01Z</time>
					</trkpt>
					<trkpt lat="45.775390" lon="4.569880">
						<ele>282</ele>
						<time>2025-08-13T06:46:09Z</time>
					</trkpt>
					<trkpt lat="45.774920" lon="4.569690">
						<ele>281</ele>
						<time>2025-08-13T06:46:17Z</time>
					</trkpt>
					<trkpt lat="45.774770" lon="4.569560">
						<ele>282</ele>
						<time>2025-08-13T06:46:20Z</time>
					</trkpt>
					<trkpt lat="45.774660" lon="4.569390">
						<ele>283</ele>
						<time>2025-08-13T06:46:23Z</time>
					</trkpt>
					<trkpt lat="45.774450" lon="4.568790">
						<ele>287</ele>
						<time>2025-08-13T06:46:32Z</time>
					</trkpt>
					<trkpt lat="45.774360" lon="4.568700">
						<ele>287</ele>
						<time>2025-08-13T06:46:34Z</time>
					</trkpt>
					<trkpt lat="45.774210" lon="4.568600">
						<ele>286</ele>
						<time>2025-08-13T06:46:37Z</time>
					</trkpt>
					<trkpt lat="45.773980" lon="4.568640">
						<ele>286</ele>
						<time>2025-08-13T06:46:41Z</time>
					</trkpt>
					<trkpt lat="45.773530" lon="4.568870">
						<ele>284</ele>
						<time>2025-08-13T06:46:49Z</time>
					</trkpt>
					<trkpt lat="45.773270" lon="4.568900">
						<ele>284</ele>
						<time>2025-08-13T06:46:54Z</time>
					</trkpt>
					<trkpt lat="45.771530" lon="4.568790">
						<ele>287</ele>
						<time>2025-08-13T06:47:25Z</time>
					</trkpt>
					<trkpt lat="45.771120" lon="4.568680">
						<ele>287</ele>
						<time>2025-08-13T06:47:32Z</time>
					</trkpt>
					<trkpt lat="45.770420" lon="4.568420">
						<ele>289</ele>
						<time>2025-08-13T06:47:45Z</time>
					</trkpt>
					<trkpt lat="45.768160" lon="4.567140">
						<ele>293</ele>
						<time>2025-08-13T06:48:28Z</time>
					</trkpt>
					<trkpt lat="45.768010" lon="4.567030">
						<ele>292</ele>
						<time>2025-08-13T06:48:31Z</time>
					</trkpt>
					<trkpt lat="45.767710" lon="4.566580">
						<ele>293</ele>
						<time>2025-08-13T06:48:39Z</time>
					</trkpt>
					<trkpt lat="45.767540" lon="4.566280">
						<ele>294</ele>
						<time>2025-08-13T06:48:44Z</time>
					</trkpt>
					<trkpt lat="45.767330" lon="4.565810">
						<ele>296</ele>
						<time>2025-08-13T06:48:51Z</time>
					</trkpt>
					<trkpt lat="45.767070" lon="4.565380">
						<ele>298</ele>
						<time>2025-08-13T06:48:58Z</time>
					</trkpt>
					<trkpt lat="45.766150" lon="4.564820">
						<ele>297</ele>
						<time>2025-08-13T06:49:16Z</time>
					</trkpt>
					<trkpt lat="45.765590" lon="4.564240">
						<ele>299</ele>
						<time>2025-08-13T06:49:28Z</time>
					</trkpt>
					<trkpt lat="45.765370" lon="4.564050">
						<ele>299</ele>
						<time>2025-08-13T06:49:32Z</time>
					</trkpt>
					<trkpt lat="45.764940" lon="4.563850">
						<ele>297</ele>
						<time>2025-08-13T06:49:40Z</time>
					</trkpt>
					<trkpt lat="45.764640" lon="4.563660">
						<ele>298</ele>
						<time>2025-08-13T06:49:46Z</time>
					</trkpt>
					<trkpt lat="45.764040" lon="4.563100">
						<ele>300</ele>
						<time>2025-08-13T06:49:59Z</time>
					</trkpt>
					<trkpt lat="45.763740" lon="4.562520">
						<ele>302</ele>
						<time>2025-08-13T06:50:08Z</time>
					</trkpt>
					<trkpt lat="45.763360" lon="4.561620">
						<ele>301</ele>
						<time>2025-08-13T06:50:21Z</time>
					</trkpt>
					<trkpt lat="45.763190" lon="4.561280">
						<ele>306</ele>
						<time>2025-08-13T06:50:26Z</time>
					</trkpt>
					<trkpt lat="45.762950" lon="4.560960">
						<ele>307</ele>
						<time>2025-08-13T06:50:32Z</time>
					</trkpt>
					<trkpt lat="45.762030" lon="4.560080">
						<ele>303</ele>
						<time>2025-08-13T06:50:52Z</time>
					</trkpt>
					<trkpt lat="45.761470" lon="4.559430">
						<ele>303</ele>
						<time>2025-08-13T06:51:05Z</time>
					</trkpt>
					<trkpt lat="45.761100" lon="4.558620">
						<ele>303</ele>
						<time>2025-08-13T06:51:17Z</time>
					</trkpt>
					<trkpt lat="45.760850" lon="4.557870">
						<ele>307</ele>
						<time>2025-08-13T06:51:27Z</time>
					</trkpt>
					<trkpt lat="45.760670" lon="4.557480">
						<ele>310</ele>
						<time>2025-08-13T06:51:33Z</time>
					</trkpt>
					<trkpt lat="45.760250" lon="4.556820">
						<ele>315</ele>
						<time>2025-08-13T06:51:44Z</time>
					</trkpt>
					<trkpt lat="45.759880" lon="4.556450">
						<ele>316</ele>
						<time>2025-08-13T06:51:52Z</time>
					</trkpt>
					<trkpt lat="45.758830" lon="4.555790">
						<ele>311</ele>
						<time>2025-08-13T06:52:12Z</time>
					</trkpt>
					<trkpt lat="45.758340" lon="4.555310">
						<ele>305</ele>
						<time>2025-08-13T06:52:23Z</time>
					</trkpt>
					<trkpt lat="45.756920" lon="4.553580">
						<ele>308</ele>
						<time>2025-08-13T06:52:56Z</time>
					</trkpt>
					<trkpt lat="45.756360" lon="4.552870">
						<ele>308</ele>
						<time>2025-08-13T06:53:09Z</time>
					</trkpt>
					<trkpt lat="45.755440" lon="4.551190">
						<ele>308</ele>
						<time>2025-08-13T06:53:36Z</time>
					</trkpt>
					<trkpt lat="45.755270" lon="4.550810">
						<ele>308</ele>
						<time>2025-08-13T06:53:41Z</time>
					</trkpt>
					<trkpt lat="45.755050" lon="4.550210">
						<ele>312</ele>
						<time>2025-08-13T06:53:50Z</time>
					</trkpt>
					<trkpt lat="45.754800" lon="4.549910">
						<ele>313</ele>
						<time>2025-08-13T06:53:56Z</time>
					</trkpt>
					<trkpt lat="45.754450" lon="4.549670">
						<ele>310</ele>
						<time>2025-08-13T06:54:03Z</time>
					</trkpt>
					<trkpt lat="45.754190" lon="4.549430">
						<ele>309</ele>
						<time>2025-08-13T06:54:08Z</time>
					</trkpt>
					<trkpt lat="45.753850" lon="4.548770">
						<ele>311</ele>
						<time>2025-08-13T06:54:18Z</time>
					</trkpt>
					<trkpt lat="45.753290" lon="4.548230">
						<ele>310</ele>
						<time>2025-08-13T06:54:30Z</time>
					</trkpt>
					<trkpt lat="45.753010" lon="4.548150">
						<ele>309</ele>
						<time>2025-08-13T06:54:35Z</time>
					</trkpt>
					<trkpt lat="45.752630" lon="4.548100">
						<ele>306</ele>
						<time>2025-08-13T06:54:42Z</time>
					</trkpt>
					<trkpt lat="45.752460" lon="4.548000">
						<ele>306</ele>
						<time>2025-08-13T06:54:45Z</time>
					</trkpt>
					<trkpt lat="45.752090" lon="4.547500">
						<ele>307</ele>
						<time>2025-08-13T06:54:54Z</time>
					</trkpt>
					<trkpt lat="45.752280" lon="4.547010">
						<ele>309</ele>
						<time>2025-08-13T06:55:01Z</time>
					</trkpt>
					<trkpt lat="45.752560" lon="4.546710">
						<ele>309</ele>
						<time>2025-08-13T06:55:08Z</time>
					</trkpt>
					<trkpt lat="45.752610" lon="4.546470">
						<ele>312</ele>
						<time>2025-08-13T06:55:11Z</time>
					</trkpt>
					<trkpt lat="45.752560" lon="4.546370">
						<ele>313</ele>
						<time>2025-08-13T06:55:12Z</time>
					</trkpt>
					<trkpt lat="45.752430" lon="4.546280">
						<ele>315</ele>
						<time>2025-08-13T06:55:15Z</time>
					</trkpt>
					<trkpt lat="45.752240" lon="4.546340">
						<ele>315</ele>
						<time>2025-08-13T06:55:18Z</time>
					</trkpt>
					<trkpt lat="45.751860" lon="4.546410">
						<ele>316</ele>
						<time>2025-08-13T06:55:25Z</time>
					</trkpt>
					<trkpt lat="45.751770" lon="4.546370">
						<ele>317</ele>
						<time>2025-08-13T06:55:27Z</time>
					</trkpt>
					<trkpt lat="45.751280" lon="4.545850">
						<ele>321</ele>
						<time>2025-08-13T06:55:38Z</time>
					</trkpt>
					<trkpt lat="45.750910" lon="4.544560">
						<ele>331</ele>
						<time>2025-08-13T06:55:55Z</time>
					</trkpt>
					<trkpt lat="45.750520" lon="4.543770">
						<ele>334</ele>
						<time>2025-08-13T06:56:07Z</time>
					</trkpt>
					<trkpt lat="45.750160" lon="4.542830">
						<ele>339</ele>
						<time>2025-08-13T06:56:20Z</time>
					</trkpt>
					<trkpt lat="45.749990" lon="4.542120">
						<ele>347</ele>
						<time>2025-08-13T06:56:30Z</time>
					</trkpt>
					<trkpt lat="45.750010" lon="4.541920">
						<ele>351</ele>
						<time>2025-08-13T06:56:32Z</time>
					</trkpt>
					<trkpt lat="45.750050" lon="4.541860">
						<ele>352</ele>
						<time>2025-08-13T06:56:33Z</time>
					</trkpt>
					<trkpt lat="45.750160" lon="4.541840">
						<ele>354</ele>
						<time>2025-08-13T06:56:35Z</time>
					</trkpt>
					<trkpt lat="45.750290" lon="4.541920">
						<ele>354</ele>
						<time>2025-08-13T06:56:38Z</time>
					</trkpt>
					<trkpt lat="45.750570" lon="4.542290">
						<ele>354</ele>
						<time>2025-08-13T06:56:44Z</time>
					</trkpt>
					<trkpt lat="45.751190" lon="4.542800">
						<ele>357</ele>
						<time>2025-08-13T06:56:57Z</time>
					</trkpt>
					<trkpt lat="45.751660" lon="4.543080">
						<ele>360</ele>
						<time>2025-08-13T06:57:06Z</time>
					</trkpt>
					<trkpt lat="45.752130" lon="4.543190">
						<ele>362</ele>
						<time>2025-08-13T06:57:15Z</time>
					</trkpt>
					<trkpt lat="45.752520" lon="4.543150">
						<ele>365</ele>
						<time>2025-08-13T06:57:22Z</time>
					</trkpt>
					<trkpt lat="45.752950" lon="4.543000">
						<ele>366</ele>
						<time>2025-08-13T06:57:29Z</time>
					</trkpt>
					<trkpt lat="45.753310" lon="4.542830">
						<ele>368</ele>
						<time>2025-08-13T06:57:36Z</time>
					</trkpt>
					<trkpt lat="45.753510" lon="4.542610">
						<ele>367</ele>
						<time>2025-08-13T06:57:41Z</time>
					</trkpt>
					<trkpt lat="45.753590" lon="4.542400">
						<ele>368</ele>
						<time>2025-08-13T06:57:44Z</time>
					</trkpt>
					<trkpt lat="45.753610" lon="4.541920">
						<ele>372</ele>
						<time>2025-08-13T06:57:50Z</time>
					</trkpt>
					<trkpt lat="45.753680" lon="4.541490">
						<ele>376</ele>
						<time>2025-08-13T06:57:55Z</time>
					</trkpt>
					<trkpt lat="45.753870" lon="4.540870">
						<ele>378</ele>
						<time>2025-08-13T06:58:04Z</time>
					</trkpt>
					<trkpt lat="45.753830" lon="4.540530">
						<ele>380</ele>
						<time>2025-08-13T06:58:08Z</time>
					</trkpt>
					<trkpt lat="45.753720" lon="4.540400">
						<ele>383</ele>
						<time>2025-08-13T06:58:10Z</time>
					</trkpt>
					<trkpt lat="45.753610" lon="4.540340">
						<ele>386</ele>
						<time>2025-08-13T06:58:12Z</time>
					</trkpt>
					<trkpt lat="45.753210" lon="4.540250">
						<ele>392</ele>
						<time>2025-08-13T06:58:20Z</time>
					</trkpt>
					<trkpt lat="45.752540" lon="4.539820">
						<ele>398</ele>
						<time>2025-08-13T06:58:33Z</time>
					</trkpt>
					<trkpt lat="45.752310" lon="4.539610">
						<ele>400</ele>
						<time>2025-08-13T06:58:38Z</time>
					</trkpt>
					<trkpt lat="45.751750" lon="4.538830">
						<ele>408</ele>
						<time>2025-08-13T06:58:51Z</time>
					</trkpt>
					<trkpt lat="45.751550" lon="4.538280">
						<ele>411</ele>
						<time>2025-08-13T06:58:59Z</time>
					</trkpt>
					<trkpt lat="45.751400" lon="4.537610">
						<ele>414</ele>
						<time>2025-08-13T06:59:08Z</time>
					</trkpt>
					<trkpt lat="45.751080" lon="4.536670">
						<ele>414</ele>
						<time>2025-08-13T06:59:21Z</time>
					</trkpt>
					<trkpt lat="45.751130" lon="4.536320">
						<ele>414</ele>
						<time>2025-08-13T06:59:25Z</time>
					</trkpt>
					<trkpt lat="45.751660" lon="4.534840">
						<ele>419</ele>
						<time>2025-08-13T06:59:46Z</time>
					</trkpt>
					<trkpt lat="45.751710" lon="4.534630">
						<ele>419</ele>
						<time>2025-08-13T06:59:49Z</time>
					</trkpt>
					<trkpt lat="45.751730" lon="4.533980">
						<ele>420</ele>
						<time>2025-08-13T06:59:57Z</time>
					</trkpt>
					<trkpt lat="45.751710" lon="4.533810">
						<ele>420</ele>
						<time>2025-08-13T06:59:59Z</time>
					</trkpt>
					<trkpt lat="45.751380" lon="4.533150">
						<ele>418</ele>
						<time>2025-08-13T07:00:09Z</time>
					</trkpt>
					<trkpt lat="45.751340" lon="4.532910">
						<ele>418</ele>
						<time>2025-08-13T07:00:12Z</time>
					</trkpt>
					<trkpt lat="45.751300" lon="4.532610">
						<ele>419</ele>
						<time>2025-08-13T07:00:16Z</time>
					</trkpt>
					<trkpt lat="45.751210" lon="4.530620">
						<ele>418</ele>
						<time>2025-08-13T07:00:41Z</time>
					</trkpt>
					<trkpt lat="45.751170" lon="4.530400">
						<ele>419</ele>
						<time>2025-08-13T07:00:43Z</time>
					</trkpt>
					<trkpt lat="45.750800" lon="4.529500">
						<ele>419</ele>
						<time>2025-08-13T07:00:56Z</time>
					</trkpt>
					<trkpt lat="45.750680" lon="4.529090">
						<ele>421</ele>
						<time>2025-08-13T07:01:02Z</time>
					</trkpt>
					<trkpt lat="45.750630" lon="4.528810">
						<ele>421</ele>
						<time>2025-08-13T07:01:06Z</time>
					</trkpt>
					<trkpt lat="45.750630" lon="4.528510">
						<ele>421</ele>
						<time>2025-08-13T07:01:09Z</time>
					</trkpt>
					<trkpt lat="45.750760" lon="4.527460">
						<ele>426</ele>
						<time>2025-08-13T07:01:22Z</time>
					</trkpt>
					<trkpt lat="45.750720" lon="4.527250">
						<ele>428</ele>
						<time>2025-08-13T07:01:25Z</time>
					</trkpt>
					<trkpt lat="45.750350" lon="4.525940">
						<ele>435</ele>
						<time>2025-08-13T07:01:43Z</time>
					</trkpt>
					<trkpt lat="45.750100" lon="4.525170">
						<ele>437</ele>
						<time>2025-08-13T07:01:53Z</time>
					</trkpt>
					<trkpt lat="45.749690" lon="4.524260">
						<ele>442</ele>
						<time>2025-08-13T07:02:07Z</time>
					</trkpt>
					<trkpt lat="45.749540" lon="4.523000">
						<ele>446</ele>
						<time>2025-08-13T07:02:23Z</time>
					</trkpt>
					<trkpt lat="45.749500" lon="4.522810">
						<ele>447</ele>
						<time>2025-08-13T07:02:25Z</time>
					</trkpt>
					<trkpt lat="45.749390" lon="4.522570">
						<ele>447</ele>
						<time>2025-08-13T07:02:29Z</time>
					</trkpt>
					<trkpt lat="45.749600" lon="4.522180">
						<ele>449</ele>
						<time>2025-08-13T07:02:35Z</time>
					</trkpt>
					<trkpt lat="45.749710" lon="4.521690">
						<ele>452</ele>
						<time>2025-08-13T07:02:41Z</time>
					</trkpt>
					<trkpt lat="45.749920" lon="4.521070">
						<ele>459</ele>
						<time>2025-08-13T07:02:50Z</time>
					</trkpt>
					<trkpt lat="45.750010" lon="4.520340">
						<ele>466</ele>
						<time>2025-08-13T07:02:59Z</time>
					</trkpt>
					<trkpt lat="45.750500" lon="4.517930">
						<ele>488</ele>
						<time>2025-08-13T07:03:30Z</time>
					</trkpt>
					<trkpt lat="45.750570" lon="4.517680">
						<ele>490</ele>
						<time>2025-08-13T07:03:33Z</time>
					</trkpt>
					<trkpt lat="45.751040" lon="4.516880">
						<ele>499</ele>
						<time>2025-08-13T07:03:46Z</time>
					</trkpt>
					<trkpt lat="45.751250" lon="4.516370">
						<ele>503</ele>
						<time>2025-08-13T07:03:54Z</time>
					</trkpt>
					<trkpt lat="45.751380" lon="4.515900">
						<ele>506</ele>
						<time>2025-08-13T07:04:00Z</time>
					</trkpt>
					<trkpt lat="45.751620" lon="4.515300">
						<ele>512</ele>
						<time>2025-08-13T07:04:09Z</time>
					</trkpt>
					<trkpt lat="45.751660" lon="4.515080">
						<ele>513</ele>
						<time>2025-08-13T07:04:11Z</time>
					</trkpt>
					<trkpt lat="45.751620" lon="4.513880">
						<ele>516</ele>
						<time>2025-08-13T07:04:26Z</time>
					</trkpt>
					<trkpt lat="45.751490" lon="4.513040">
						<ele>518</ele>
						<time>2025-08-13T07:04:37Z</time>
					</trkpt>
					<trkpt lat="45.751280" lon="4.512510">
						<ele>519</ele>
						<time>2025-08-13T07:04:45Z</time>
					</trkpt>
					<trkpt lat="45.751060" lon="4.512140">
						<ele>517</ele>
						<time>2025-08-13T07:04:51Z</time>
					</trkpt>
					<trkpt lat="45.750870" lon="4.511930">
						<ele>517</ele>
						<time>2025-08-13T07:04:55Z</time>
					</trkpt>
					<trkpt lat="45.750350" lon="4.511450">
						<ele>518</ele>
						<time>2025-08-13T07:05:06Z</time>
					</trkpt>
					<trkpt lat="45.749580" lon="4.510980">
						<ele>516</ele>
						<time>2025-08-13T07:05:21Z</time>
					</trkpt>
					<trkpt lat="45.749320" lon="4.510750">
						<ele>514</ele>
						<time>2025-08-13T07:05:26Z</time>
					</trkpt>
					<trkpt lat="45.748870" lon="4.510120">
						<ele>513</ele>
						<time>2025-08-13T07:05:37Z</time>
					</trkpt>
					<trkpt lat="45.748720" lon="4.509720">
						<ele>514</ele>
						<time>2025-08-13T07:05:43Z</time>
					</trkpt>
					<trkpt lat="45.748830" lon="4.506930">
						<ele>534</ele>
						<time>2025-08-13T07:06:18Z</time>
					</trkpt>
					<trkpt lat="45.749000" lon="4.505040">
						<ele>544</ele>
						<time>2025-08-13T07:06:41Z</time>
					</trkpt>
					<trkpt lat="45.748980" lon="4.504630">
						<ele>546</ele>
						<time>2025-08-13T07:06:47Z</time>
					</trkpt>
					<trkpt lat="45.748920" lon="4.504290">
						<ele>548</ele>
						<time>2025-08-13T07:06:51Z</time>
					</trkpt>
					<trkpt lat="45.748510" lon="4.503040">
						<ele>552</ele>
						<time>2025-08-13T07:07:08Z</time>
					</trkpt>
					<trkpt lat="45.748250" lon="4.502330">
						<ele>554</ele>
						<time>2025-08-13T07:07:18Z</time>
					</trkpt>
					<trkpt lat="45.747650" lon="4.500900">
						<ele>556</ele>
						<time>2025-08-13T07:07:39Z</time>
					</trkpt>
					<trkpt lat="45.747110" lon="4.499090">
						<ele>555</ele>
						<time>2025-08-13T07:08:03Z</time>
					</trkpt>
					<trkpt lat="45.746980" lon="4.498750">
						<ele>556</ele>
						<time>2025-08-13T07:08:08Z</time>
					</trkpt>
					<trkpt lat="45.746710" lon="4.498190">
						<ele>556</ele>
						<time>2025-08-13T07:08:16Z</time>
					</trkpt>
					<trkpt lat="45.745740" lon="4.496540">
						<ele>556</ele>
						<time>2025-08-13T07:08:43Z</time>
					</trkpt>
					<trkpt lat="45.745550" lon="4.496070">
						<ele>557</ele>
						<time>2025-08-13T07:08:50Z</time>
					</trkpt>
					<trkpt lat="45.745290" lon="4.495170">
						<ele>555</ele>
						<time>2025-08-13T07:09:02Z</time>
					</trkpt>
					<trkpt lat="45.745200" lon="4.494670">
						<ele>553</ele>
						<time>2025-08-13T07:09:08Z</time>
					</trkpt>
					<trkpt lat="45.744620" lon="4.489610">
						<ele>530</ele>
						<time>2025-08-13T07:10:12Z</time>
					</trkpt>
					<trkpt lat="45.744540" lon="4.487010">
						<ele>528</ele>
						<time>2025-08-13T07:10:44Z</time>
					</trkpt>
					<trkpt lat="45.744390" lon="4.485980">
						<ele>530</ele>
						<time>2025-08-13T07:10:57Z</time>
					</trkpt>
					<trkpt lat="45.743680" lon="4.484070">
						<ele>545</ele>
						<time>2025-08-13T07:11:24Z</time>
					</trkpt>
					<trkpt lat="45.743660" lon="4.483950">
						<ele>546</ele>
						<time>2025-08-13T07:11:26Z</time>
					</trkpt>
					<trkpt lat="45.743720" lon="4.482680">
						<ele>553</ele>
						<time>2025-08-13T07:11:42Z</time>
					</trkpt>
					<trkpt lat="45.743850" lon="4.482310">
						<ele>556</ele>
						<time>2025-08-13T07:11:47Z</time>
					</trkpt>
					<trkpt lat="45.743940" lon="4.482140">
						<ele>557</ele>
						<time>2025-08-13T07:11:49Z</time>
					</trkpt>
					<trkpt lat="45.744190" lon="4.481800">
						<ele>560</ele>
						<time>2025-08-13T07:11:56Z</time>
					</trkpt>
					<trkpt lat="45.746000" lon="4.479780">
						<ele>565</ele>
						<time>2025-08-13T07:12:36Z</time>
					</trkpt>
					<trkpt lat="45.746230" lon="4.479370">
						<ele>565</ele>
						<time>2025-08-13T07:12:43Z</time>
					</trkpt>
					<trkpt lat="45.746770" lon="4.478130">
						<ele>566</ele>
						<time>2025-08-13T07:13:01Z</time>
					</trkpt>
					<trkpt lat="45.747070" lon="4.477380">
						<ele>567</ele>
						<time>2025-08-13T07:13:12Z</time>
					</trkpt>
					<trkpt lat="45.747370" lon="4.476760">
						<ele>568</ele>
						<time>2025-08-13T07:13:21Z</time>
					</trkpt>
					<trkpt lat="45.747520" lon="4.476520">
						<ele>569</ele>
						<time>2025-08-13T07:13:25Z</time>
					</trkpt>
					<trkpt lat="45.747860" lon="4.475770">
						<ele>571</ele>
						<time>2025-08-13T07:13:36Z</time>
					</trkpt>
					<trkpt lat="45.748570" lon="4.474700">
						<ele>572</ele>
						<time>2025-08-13T07:13:55Z</time>
					</trkpt>
					<trkpt lat="45.748830" lon="4.474350">
						<ele>571</ele>
						<time>2025-08-13T07:14:01Z</time>
					</trkpt>
					<trkpt lat="45.749260" lon="4.473540">
						<ele>569</ele>
						<time>2025-08-13T07:14:14Z</time>
					</trkpt>
					<trkpt lat="45.750030" lon="4.471260">
						<ele>573</ele>
						<time>2025-08-13T07:14:45Z</time>
					</trkpt>
					<trkpt lat="45.750200" lon="4.470980">
						<ele>574</ele>
						<time>2025-08-13T07:14:50Z</time>
					</trkpt>
					<trkpt lat="45.751490" lon="4.469720">
						<ele>580</ele>
						<time>2025-08-13T07:15:17Z</time>
					</trkpt>
					<trkpt lat="45.751730" lon="4.469610">
						<ele>581</ele>
						<time>2025-08-13T07:15:22Z</time>
					</trkpt>
					<trkpt lat="45.752220" lon="4.469480">
						<ele>581</ele>
						<time>2025-08-13T07:15:31Z</time>
					</trkpt>
					<trkpt lat="45.753490" lon="4.469630">
						<ele>587</ele>
						<time>2025-08-13T07:15:54Z</time>
					</trkpt>
					<trkpt lat="45.753490" lon="4.469270">
						<ele>587</ele>
						<time>2025-08-13T07:15:58Z</time>
					</trkpt>
					<trkpt lat="45.753570" lon="4.468600">
						<ele>589</ele>
						<time>2025-08-13T07:16:06Z</time>
					</trkpt>
					<trkpt lat="45.754090" lon="4.467530">
						<ele>593</ele>
						<time>2025-08-13T07:16:23Z</time>
					</trkpt>
					<trkpt lat="45.754430" lon="4.467080">
						<ele>596</ele>
						<time>2025-08-13T07:16:31Z</time>
					</trkpt>
					<trkpt lat="45.754920" lon="4.466630">
						<ele>599</ele>
						<time>2025-08-13T07:16:41Z</time>
					</trkpt>
					<trkpt lat="45.755140" lon="4.466540">
						<ele>599</ele>
						<time>2025-08-13T07:16:45Z</time>
					</trkpt>
					<trkpt lat="45.755310" lon="4.466350">
						<ele>599</ele>
						<time>2025-08-13T07:16:49Z</time>
					</trkpt>
					<trkpt lat="45.755780" lon="4.465640">
						<ele>599</ele>
						<time>2025-08-13T07:17:01Z</time>
					</trkpt>
					<trkpt lat="45.755930" lon="4.465320">
						<ele>599</ele>
						<time>2025-08-13T07:17:06Z</time>
					</trkpt>
					<trkpt lat="45.756000" lon="4.465130">
						<ele>600</ele>
						<time>2025-08-13T07:17:09Z</time>
					</trkpt>
					<trkpt lat="45.755800" lon="4.464760">
						<ele>603</ele>
						<time>2025-08-13T07:17:15Z</time>
					</trkpt>
					<trkpt lat="45.755760" lon="4.464590">
						<ele>604</ele>
						<time>2025-08-13T07:17:17Z</time>
					</trkpt>
					<trkpt lat="45.755760" lon="4.464330">
						<ele>605</ele>
						<time>2025-08-13T07:17:20Z</time>
					</trkpt>
					<trkpt lat="45.755720" lon="4.464050">
						<ele>606</ele>
						<time>2025-08-13T07:17:24Z</time>
					</trkpt>
					<trkpt lat="45.755100" lon="4.463540">
						<ele>611</ele>
						<time>2025-08-13T07:17:36Z</time>
					</trkpt>
					<trkpt lat="45.754900" lon="4.463450">
						<ele>611</ele>
						<time>2025-08-13T07:17:40Z</time>
					</trkpt>
					<trkpt lat="45.752910" lon="4.461800">
						<ele>616</ele>
						<time>2025-08-13T07:18:21Z</time>
					</trkpt>
					<trkpt lat="45.752650" lon="4.461390">
						<ele>620</ele>
						<time>2025-08-13T07:18:28Z</time>
					</trkpt>
					<trkpt lat="45.752130" lon="4.460790">
						<ele>629</ele>
						<time>2025-08-13T07:18:40Z</time>
					</trkpt>
					<trkpt lat="45.751640" lon="4.460600">
						<ele>634</ele>
						<time>2025-08-13T07:18:49Z</time>
					</trkpt>
					<trkpt lat="45.751080" lon="4.460490">
						<ele>638</ele>
						<time>2025-08-13T07:18:59Z</time>
					</trkpt>
					<trkpt lat="45.750630" lon="4.460580">
						<ele>642</ele>
						<time>2025-08-13T07:19:07Z</time>
					</trkpt>
					<trkpt lat="45.749840" lon="4.460840">
						<ele>645</ele>
						<time>2025-08-13T07:19:21Z</time>
					</trkpt>
					<trkpt lat="45.749540" lon="4.460860">
						<ele>645</ele>
						<time>2025-08-13T07:19:27Z</time>
					</trkpt>
					<trkpt lat="45.749130" lon="4.460790">
						<ele>646</ele>
						<time>2025-08-13T07:19:34Z</time>
					</trkpt>
					<trkpt lat="45.747860" lon="4.460770">
						<ele>652</ele>
						<time>2025-08-13T07:19:57Z</time>
					</trkpt>
					<trkpt lat="45.747520" lon="4.460690">
						<ele>653</ele>
						<time>2025-08-13T07:20:03Z</time>
					</trkpt>
					<trkpt lat="45.747440" lon="4.460580">
						<ele>653</ele>
						<time>2025-08-13T07:20:05Z</time>
					</trkpt>
					<trkpt lat="45.747410" lon="4.460450">
						<ele>654</ele>
						<time>2025-08-13T07:20:06Z</time>
					</trkpt>
					<trkpt lat="45.745890" lon="4.460410">
						<ele>654</ele>
						<time>2025-08-13T07:20:33Z</time>
					</trkpt>
					<trkpt lat="45.745200" lon="4.460540">
						<ele>659</ele>
						<time>2025-08-13T07:20:46Z</time>
					</trkpt>
					<trkpt lat="45.744110" lon="4.460920">
						<ele>663</ele>
						<time>2025-08-13T07:21:06Z</time>
					</trkpt>
					<trkpt lat="45.743830" lon="4.461050">
						<ele>661</ele>
						<time>2025-08-13T07:21:11Z</time>
					</trkpt>
					<trkpt lat="45.743640" lon="4.461180">
						<ele>661</ele>
						<time>2025-08-13T07:21:15Z</time>
					</trkpt>
					<trkpt lat="45.743470" lon="4.461240">
						<ele>660</ele>
						<time>2025-08-13T07:21:18Z</time>
					</trkpt>
					<trkpt lat="45.743340" lon="4.461390">
						<ele>660</ele>
						<time>2025-08-13T07:21:21Z</time>
					</trkpt>
					<trkpt lat="45.741040" lon="4.463020">
						<ele>646</ele>
						<time>2025-08-13T07:22:06Z</time>
					</trkpt>
					<trkpt lat="45.740610" lon="4.463300">
						<ele>645</ele>
						<time>2025-08-13T07:22:15Z</time>
					</trkpt>
					<trkpt lat="45.740460" lon="4.463370">
						<ele>645</ele>
						<time>2025-08-13T07:22:18Z</time>
					</trkpt>
					<trkpt lat="45.738900" lon="4.463240">
						<ele>637</ele>
						<time>2025-08-13T07:22:45Z</time>
					</trkpt>
					<trkpt lat="45.738550" lon="4.463260">
						<ele>636</ele>
						<time>2025-08-13T07:22:52Z</time>
					</trkpt>
					<trkpt lat="45.738550" lon="4.463000">
						<ele>635</ele>
						<time>2025-08-13T07:22:55Z</time>
					</trkpt>
					<trkpt lat="45.739170" lon="4.461090">
						<ele>629</ele>
						<time>2025-08-13T07:23:21Z</time>
					</trkpt>
					<trkpt lat="45.738790" lon="4.460110">
						<ele>619</ele>
						<time>2025-08-13T07:23:35Z</time>
					</trkpt>
					<trkpt lat="45.738790" lon="4.459270">
						<ele>612</ele>
						<time>2025-08-13T07:23:45Z</time>
					</trkpt>
					<trkpt lat="45.738830" lon="4.458880">
						<ele>610</ele>
						<time>2025-08-13T07:23:50Z</time>
					</trkpt>
					<trkpt lat="45.739000" lon="4.458220">
						<ele>609</ele>
						<time>2025-08-13T07:23:59Z</time>
					</trkpt>
					<trkpt lat="45.739000" lon="4.458050">
						<ele>608</ele>
						<time>2025-08-13T07:24:01Z</time>
					</trkpt>
					<trkpt lat="45.738960" lon="4.457770">
						<ele>607</ele>
						<time>2025-08-13T07:24:05Z</time>
					</trkpt>
					<trkpt lat="45.739500" lon="4.456970">
						<ele>607</ele>
						<time>2025-08-13T07:24:19Z</time>
					</trkpt>
					<trkpt lat="45.739670" lon="4.456650">
						<ele>607</ele>
						<time>2025-08-13T07:24:24Z</time>
					</trkpt>
					<trkpt lat="45.739840" lon="4.456140">
						<ele>611</ele>
						<time>2025-08-13T07:24:31Z</time>
					</trkpt>
					<trkpt lat="45.739990" lon="4.455340">
						<ele>615</ele>
						<time>2025-08-13T07:24:41Z</time>
					</trkpt>
					<trkpt lat="45.739860" lon="4.454890">
						<ele>616</ele>
						<time>2025-08-13T07:24:47Z</time>
					</trkpt>
					<trkpt lat="45.739600" lon="4.454510">
						<ele>617</ele>
						<time>2025-08-13T07:24:53Z</time>
					</trkpt>
					<trkpt lat="45.739500" lon="4.454230">
						<ele>618</ele>
						<time>2025-08-13T07:24:57Z</time>
					</trkpt>
					<trkpt lat="45.739150" lon="4.453970">
						<ele>618</ele>
						<time>2025-08-13T07:25:04Z</time>
					</trkpt>
					<trkpt lat="45.738770" lon="4.453730">
						<ele>620</ele>
						<time>2025-08-13T07:25:12Z</time>
					</trkpt>
					<trkpt lat="45.738170" lon="4.453450">
						<ele>623</ele>
						<time>2025-08-13T07:25:23Z</time>
					</trkpt>
					<trkpt lat="45.736380" lon="4.453300">
						<ele>627</ele>
						<time>2025-08-13T07:25:55Z</time>
					</trkpt>
					<trkpt lat="45.735570" lon="4.453200">
						<ele>624</ele>
						<time>2025-08-13T07:26:09Z</time>
					</trkpt>
					<trkpt lat="45.733940" lon="4.452640">
						<ele>635</ele>
						<time>2025-08-13T07:26:39Z</time>
					</trkpt>
					<trkpt lat="45.733570" lon="4.452680">
						<ele>636</ele>
						<time>2025-08-13T07:26:46Z</time>
					</trkpt>
					<trkpt lat="45.733080" lon="4.452830">
						<ele>634</ele>
						<time>2025-08-13T07:26:55Z</time>
					</trkpt>
					<trkpt lat="45.732930" lon="4.452900">
						<ele>633</ele>
						<time>2025-08-13T07:26:58Z</time>
					</trkpt>
					<trkpt lat="45.732260" lon="4.452620">
						<ele>635</ele>
						<time>2025-08-13T07:27:10Z</time>
					</trkpt>
					<trkpt lat="45.732050" lon="4.452450">
						<ele>636</ele>
						<time>2025-08-13T07:27:14Z</time>
					</trkpt>
					<trkpt lat="45.731690" lon="4.451650">
						<ele>643</ele>
						<time>2025-08-13T07:27:26Z</time>
					</trkpt>
					<trkpt lat="45.731470" lon="4.451610">
						<ele>645</ele>
						<time>2025-08-13T07:27:30Z</time>
					</trkpt>
					<trkpt lat="45.729200" lon="4.453090">
						<ele>655</ele>
						<time>2025-08-13T07:28:14Z</time>
					</trkpt>
					<trkpt lat="45.729070" lon="4.453220">
						<ele>656</ele>
						<time>2025-08-13T07:28:17Z</time>
					</trkpt>
					<trkpt lat="45.728960" lon="4.453520">
						<ele>656</ele>
						<time>2025-08-13T07:28:21Z</time>
					</trkpt>
					<trkpt lat="45.728570" lon="4.454980">
						<ele>654</ele>
						<time>2025-08-13T07:28:41Z</time>
					</trkpt>
					<trkpt lat="45.728360" lon="4.455040">
						<ele>656</ele>
						<time>2025-08-13T07:28:45Z</time>
					</trkpt>
					<trkpt lat="45.726640" lon="4.455080">
						<ele>654</ele>
						<time>2025-08-13T07:29:15Z</time>
					</trkpt>
					<trkpt lat="45.726150" lon="4.454930">
						<ele>652</ele>
						<time>2025-08-13T07:29:24Z</time>
					</trkpt>
					<trkpt lat="45.725660" lon="4.454530">
						<ele>652</ele>
						<time>2025-08-13T07:29:34Z</time>
					</trkpt>
					<trkpt lat="45.725100" lon="4.454420">
						<ele>648</ele>
						<time>2025-08-13T07:29:44Z</time>
					</trkpt>
					<trkpt lat="45.724710" lon="4.454270">
						<ele>646</ele>
						<time>2025-08-13T07:29:51Z</time>
					</trkpt>
					<trkpt lat="45.724430" lon="4.453930">
						<ele>645</ele>
						<time>2025-08-13T07:29:58Z</time>
					</trkpt>
					<trkpt lat="45.724260" lon="4.453540">
						<ele>644</ele>
						<time>2025-08-13T07:30:04Z</time>
					</trkpt>
					<trkpt lat="45.723980" lon="4.452450">
						<ele>638</ele>
						<time>2025-08-13T07:30:18Z</time>
					</trkpt>
					<trkpt lat="45.723870" lon="4.452270">
						<ele>636</ele>
						<time>2025-08-13T07:30:21Z</time>
					</trkpt>
					<trkpt lat="45.723300" lon="4.451690">
						<ele>629</ele>
						<time>2025-08-13T07:30:34Z</time>
					</trkpt>
					<trkpt lat="45.722180" lon="4.451160">
						<ele>622</ele>
						<time>2025-08-13T07:30:55Z</time>
					</trkpt>
					<trkpt lat="45.721660" lon="4.450640">
						<ele>620</ele>
						<time>2025-08-13T07:31:06Z</time>
					</trkpt>
					<trkpt lat="45.721510" lon="4.450560">
						<ele>620</ele>
						<time>2025-08-13T07:31:09Z</time>
					</trkpt>
					<trkpt lat="45.720850" lon="4.450470">
						<ele>617</ele>
						<time>2025-08-13T07:31:20Z</time>
					</trkpt>
					<trkpt lat="45.720630" lon="4.450320">
						<ele>616</ele>
						<time>2025-08-13T07:31:25Z</time>
					</trkpt>
					<trkpt lat="45.720360" lon="4.449810">
						<ele>617</ele>
						<time>2025-08-13T07:31:33Z</time>
					</trkpt>
					<trkpt lat="45.720270" lon="4.449700">
						<ele>616</ele>
						<time>2025-08-13T07:31:35Z</time>
					</trkpt>
					<trkpt lat="45.720140" lon="4.449660">
						<ele>616</ele>
						<time>2025-08-13T07:31:37Z</time>
					</trkpt>
					<trkpt lat="45.719630" lon="4.449740">
						<ele>616</ele>
						<time>2025-08-13T07:31:46Z</time>
					</trkpt>
					<trkpt lat="45.719070" lon="4.449980">
						<ele>617</ele>
						<time>2025-08-13T07:31:57Z</time>
					</trkpt>
					<trkpt lat="45.718900" lon="4.450110">
						<ele>616</ele>
						<time>2025-08-13T07:32:00Z</time>
					</trkpt>
					<trkpt lat="45.718360" lon="4.450170">
						<ele>614</ele>
						<time>2025-08-13T07:32:10Z</time>
					</trkpt>
					<trkpt lat="45.718120" lon="4.450260">
						<ele>612</ele>
						<time>2025-08-13T07:32:14Z</time>
					</trkpt>
					<trkpt lat="45.717950" lon="4.450360">
						<ele>611</ele>
						<time>2025-08-13T07:32:17Z</time>
					</trkpt>
					<trkpt lat="45.717760" lon="4.450580">
						<ele>610</ele>
						<time>2025-08-13T07:32:22Z</time>
					</trkpt>
					<trkpt lat="45.717500" lon="4.450940">
						<ele>609</ele>
						<time>2025-08-13T07:32:28Z</time>
					</trkpt>
					<trkpt lat="45.717270" lon="4.451140">
						<ele>609</ele>
						<time>2025-08-13T07:32:33Z</time>
					</trkpt>
					<trkpt lat="45.717050" lon="4.451270">
						<ele>610</ele>
						<time>2025-08-13T07:32:37Z</time>
					</trkpt>
					<trkpt lat="45.716640" lon="4.451290">
						<ele>609</ele>
						<time>2025-08-13T07:32:45Z</time>
					</trkpt>
					<trkpt lat="45.716300" lon="4.451220">
						<ele>611</ele>
						<time>2025-08-13T07:32:51Z</time>
					</trkpt>
					<trkpt lat="45.715660" lon="4.450900">
						<ele>613</ele>
						<time>2025-08-13T07:33:03Z</time>
					</trkpt>
					<trkpt lat="45.715360" lon="4.450900">
						<ele>613</ele>
						<time>2025-08-13T07:33:08Z</time>
					</trkpt>
					<trkpt lat="45.714930" lon="4.450770">
						<ele>611</ele>
						<time>2025-08-13T07:33:16Z</time>
					</trkpt>
					<trkpt lat="45.713880" lon="4.450320">
						<ele>603</ele>
						<time>2025-08-13T07:33:35Z</time>
					</trkpt>
					<trkpt lat="45.712140" lon="4.449440">
						<ele>595</ele>
						<time>2025-08-13T07:34:08Z</time>
					</trkpt>
					<trkpt lat="45.711620" lon="4.449080">
						<ele>593</ele>
						<time>2025-08-13T07:34:19Z</time>
					</trkpt>
					<trkpt lat="45.710460" lon="4.447960">
						<ele>580</ele>
						<time>2025-08-13T07:34:43Z</time>
					</trkpt>
					<trkpt lat="45.710080" lon="4.447680">
						<ele>578</ele>
						<time>2025-08-13T07:34:51Z</time>
					</trkpt>
					<trkpt lat="45.709670" lon="4.447570">
						<ele>576</ele>
						<time>2025-08-13T07:34:58Z</time>
					</trkpt>
					<trkpt lat="45.709130" lon="4.447640">
						<ele>571</ele>
						<time>2025-08-13T07:35:08Z</time>
					</trkpt>
					<trkpt lat="45.708580" lon="4.447810">
						<ele>565</ele>
						<time>2025-08-13T07:35:18Z</time>
					</trkpt>
					<trkpt lat="45.706240" lon="4.448050">
						<ele>531</ele>
						<time>2025-08-13T07:36:00Z</time>
					</trkpt>
					<trkpt lat="45.705420" lon="4.448540">
						<ele>518</ele>
						<time>2025-08-13T07:36:16Z</time>
					</trkpt>
					<trkpt lat="45.705310" lon="4.448630">
						<ele>516</ele>
						<time>2025-08-13T07:36:18Z</time>
					</trkpt>
					<trkpt lat="45.705270" lon="4.448690">
						<ele>515</ele>
						<time>2025-08-13T07:36:19Z</time>
					</trkpt>
					<trkpt lat="45.705250" lon="4.448820">
						<ele>514</ele>
						<time>2025-08-13T07:36:21Z</time>
					</trkpt>
					<trkpt lat="45.705290" lon="4.449080">
						<ele>512</ele>
						<time>2025-08-13T07:36:24Z</time>
					</trkpt>
					<trkpt lat="45.705400" lon="4.449270">
						<ele>511</ele>
						<time>2025-08-13T07:36:27Z</time>
					</trkpt>
					<trkpt lat="45.705550" lon="4.449330">
						<ele>512</ele>
						<time>2025-08-13T07:36:30Z</time>
					</trkpt>
					<trkpt lat="45.705850" lon="4.449290">
						<ele>515</ele>
						<time>2025-08-13T07:36:35Z</time>
					</trkpt>
					<trkpt lat="45.706040" lon="4.449420">
						<ele>516</ele>
						<time>2025-08-13T07:36:39Z</time>
					</trkpt>
					<trkpt lat="45.706060" lon="4.449480">
						<ele>516</ele>
						<time>2025-08-13T07:36:40Z</time>
					</trkpt>
					<trkpt lat="45.706020" lon="4.449680">
						<ele>513</ele>
						<time>2025-08-13T07:36:42Z</time>
					</trkpt>
					<trkpt lat="45.705810" lon="4.449960">
						<ele>504</ele>
						<time>2025-08-13T07:36:47Z</time>
					</trkpt>
					<trkpt lat="45.705570" lon="4.450540">
						<ele>500</ele>
						<time>2025-08-13T07:36:56Z</time>
					</trkpt>
					<trkpt lat="45.705270" lon="4.451720">
						<ele>492</ele>
						<time>2025-08-13T07:37:11Z</time>
					</trkpt>
					<trkpt lat="45.705100" lon="4.452040">
						<ele>488</ele>
						<time>2025-08-13T07:37:16Z</time>
					</trkpt>
					<trkpt lat="45.704880" lon="4.452270">
						<ele>484</ele>
						<time>2025-08-13T07:37:21Z</time>
					</trkpt>
					<trkpt lat="45.704910" lon="4.452570">
						<ele>483</ele>
						<time>2025-08-13T07:37:25Z</time>
					</trkpt>
					<trkpt lat="45.704800" lon="4.452570">
						<ele>482</ele>
						<time>2025-08-13T07:37:27Z</time>
					</trkpt>
					<trkpt lat="45.704330" lon="4.452380">
						<ele>475</ele>
						<time>2025-08-13T07:37:36Z</time>
					</trkpt>
					<trkpt lat="45.704150" lon="4.452360">
						<ele>473</ele>
						<time>2025-08-13T07:37:39Z</time>
					</trkpt>
					<trkpt lat="45.703980" lon="4.452420">
						<ele>471</ele>
						<time>2025-08-13T07:37:42Z</time>
					</trkpt>
					<trkpt lat="45.703770" lon="4.452620">
						<ele>469</ele>
						<time>2025-08-13T07:37:46Z</time>
					</trkpt>
					<trkpt lat="45.702930" lon="4.453540">
						<ele>459</ele>
						<time>2025-08-13T07:38:05Z</time>
					</trkpt>
					<trkpt lat="45.702010" lon="4.454250">
						<ele>453</ele>
						<time>2025-08-13T07:38:24Z</time>
					</trkpt>
					<trkpt lat="45.701450" lon="4.454570">
						<ele>448</ele>
						<time>2025-08-13T07:38:35Z</time>
					</trkpt>
					<trkpt lat="45.700870" lon="4.454740">
						<ele>446</ele>
						<time>2025-08-13T07:38:45Z</time>
					</trkpt>
					<trkpt lat="45.699630" lon="4.455170">
						<ele>440</ele>
						<time>2025-08-13T07:39:08Z</time>
					</trkpt>
					<trkpt lat="45.699330" lon="4.455170">
						<ele>439</ele>
						<time>2025-08-13T07:39:13Z</time>
					</trkpt>
					<trkpt lat="45.699160" lon="4.455280">
						<ele>438</ele>
						<time>2025-08-13T07:39:16Z</time>
					</trkpt>
					<trkpt lat="45.699090" lon="4.455190">
						<ele>437</ele>
						<time>2025-08-13T07:39:18Z</time>
					</trkpt>
					<trkpt lat="45.698980" lon="4.455210">
						<ele>437</ele>
						<time>2025-08-13T07:39:20Z</time>
					</trkpt>
					<trkpt lat="45.698920" lon="4.455340">
						<ele>436</ele>
						<time>2025-08-13T07:39:22Z</time>
					</trkpt>
					<trkpt lat="45.698940" lon="4.455430">
						<ele>436</ele>
						<time>2025-08-13T07:39:23Z</time>
					</trkpt>
					<trkpt lat="45.698830" lon="4.455470">
						<ele>435</ele>
						<time>2025-08-13T07:39:25Z</time>
					</trkpt>
					<trkpt lat="45.698770" lon="4.455430">
						<ele>435</ele>
						<time>2025-08-13T07:39:26Z</time>
					</trkpt>
					<trkpt lat="45.698380" lon="4.455300">
						<ele>432</ele>
						<time>2025-08-13T07:39:34Z</time>
					</trkpt>
					<trkpt lat="45.696540" lon="4.455150">
						<ele>432</ele>
						<time>2025-08-13T07:40:06Z</time>
					</trkpt>
					<trkpt lat="45.695920" lon="4.455190">
						<ele>434</ele>
						<time>2025-08-13T07:40:17Z</time>
					</trkpt>
					<trkpt lat="45.695790" lon="4.455300">
						<ele>435</ele>
						<time>2025-08-13T07:40:20Z</time>
					</trkpt>
					<trkpt lat="45.695770" lon="4.455450">
						<ele>435</ele>
						<time>2025-08-13T07:40:22Z</time>
					</trkpt>
					<trkpt lat="45.695850" lon="4.456180">
						<ele>436</ele>
						<time>2025-08-13T07:40:31Z</time>
					</trkpt>
					<trkpt lat="45.695770" lon="4.456330">
						<ele>437</ele>
						<time>2025-08-13T07:40:33Z</time>
					</trkpt>
					<trkpt lat="45.695680" lon="4.456370">
						<ele>437</ele>
						<time>2025-08-13T07:40:35Z</time>
					</trkpt>
					<trkpt lat="45.695610" lon="4.456350">
						<ele>438</ele>
						<time>2025-08-13T07:40:36Z</time>
					</trkpt>
					<trkpt lat="45.695210" lon="4.456030">
						<ele>440</ele>
						<time>2025-08-13T07:40:45Z</time>
					</trkpt>
					<trkpt lat="45.695100" lon="4.455990">
						<ele>440</ele>
						<time>2025-08-13T07:40:47Z</time>
					</trkpt>
					<trkpt lat="45.694410" lon="4.456110">
						<ele>447</ele>
						<time>2025-08-13T07:40:59Z</time>
					</trkpt>
					<trkpt lat="45.694110" lon="4.456110">
						<ele>450</ele>
						<time>2025-08-13T07:41:04Z</time>
					</trkpt>
					<trkpt lat="45.693750" lon="4.455920">
						<ele>453</ele>
						<time>2025-08-13T07:41:11Z</time>
					</trkpt>
					<trkpt lat="45.693280" lon="4.455430">
						<ele>455</ele>
						<time>2025-08-13T07:41:21Z</time>
					</trkpt>
					<trkpt lat="45.693040" lon="4.455340">
						<ele>456</ele>
						<time>2025-08-13T07:41:26Z</time>
					</trkpt>
					<trkpt lat="45.691410" lon="4.455080">
						<ele>469</ele>
						<time>2025-08-13T07:41:55Z</time>
					</trkpt>
					<trkpt lat="45.691320" lon="4.455040">
						<ele>469</ele>
						<time>2025-08-13T07:41:57Z</time>
					</trkpt>
					<trkpt lat="45.690700" lon="4.454960">
						<ele>473</ele>
						<time>2025-08-13T07:42:08Z</time>
					</trkpt>
					<trkpt lat="45.690440" lon="4.455130">
						<ele>476</ele>
						<time>2025-08-13T07:42:13Z</time>
					</trkpt>
					<trkpt lat="45.690250" lon="4.455320">
						<ele>479</ele>
						<time>2025-08-13T07:42:17Z</time>
					</trkpt>
					<trkpt lat="45.690140" lon="4.455490">
						<ele>481</ele>
						<time>2025-08-13T07:42:20Z</time>
					</trkpt>
					<trkpt lat="45.690080" lon="4.455640">
						<ele>483</ele>
						<time>2025-08-13T07:42:22Z</time>
					</trkpt>
					<trkpt lat="45.690040" lon="4.456440">
						<ele>488</ele>
						<time>2025-08-13T07:42:32Z</time>
					</trkpt>
					<trkpt lat="45.689890" lon="4.456990">
						<ele>489</ele>
						<time>2025-08-13T07:42:39Z</time>
					</trkpt>
					<trkpt lat="45.689370" lon="4.457490">
						<ele>496</ele>
						<time>2025-08-13T07:42:51Z</time>
					</trkpt>
					<trkpt lat="45.689070" lon="4.457980">
						<ele>497</ele>
						<time>2025-08-13T07:42:59Z</time>
					</trkpt>
					<trkpt lat="45.688450" lon="4.458300">
						<ele>503</ele>
						<time>2025-08-13T07:43:10Z</time>
					</trkpt>
					<trkpt lat="45.688250" lon="4.458260">
						<ele>507</ele>
						<time>2025-08-13T07:43:14Z</time>
					</trkpt>
					<trkpt lat="45.688340" lon="4.457940">
						<ele>507</ele>
						<time>2025-08-13T07:43:18Z</time>
					</trkpt>
					<trkpt lat="45.688410" lon="4.457450">
						<ele>508</ele>
						<time>2025-08-13T07:43:24Z</time>
					</trkpt>
					<trkpt lat="45.688320" lon="4.456930">
						<ele>508</ele>
						<time>2025-08-13T07:43:31Z</time>
					</trkpt>
					<trkpt lat="45.688100" lon="4.456480">
						<ele>510</ele>
						<time>2025-08-13T07:43:38Z</time>
					</trkpt>
					<trkpt lat="45.687630" lon="4.455940">
						<ele>514</ele>
						<time>2025-08-13T07:43:49Z</time>
					</trkpt>
					<trkpt lat="45.687480" lon="4.455730">
						<ele>514</ele>
						<time>2025-08-13T07:43:52Z</time>
					</trkpt>
					<trkpt lat="45.687160" lon="4.454980">
						<ele>512</ele>
						<time>2025-08-13T07:44:03Z</time>
					</trkpt>
					<trkpt lat="45.686900" lon="4.454590">
						<ele>514</ele>
						<time>2025-08-13T07:44:10Z</time>
					</trkpt>
					<trkpt lat="45.685420" lon="4.453150">
						<ele>524</ele>
						<time>2025-08-13T07:44:42Z</time>
					</trkpt>
					<trkpt lat="45.685080" lon="4.452510">
						<ele>523</ele>
						<time>2025-08-13T07:44:52Z</time>
					</trkpt>
					<trkpt lat="45.684910" lon="4.452320">
						<ele>523</ele>
						<time>2025-08-13T07:44:56Z</time>
					</trkpt>
					<trkpt lat="45.684690" lon="4.452190">
						<ele>524</ele>
						<time>2025-08-13T07:45:00Z</time>
					</trkpt>
					<trkpt lat="45.684200" lon="4.452020">
						<ele>527</ele>
						<time>2025-08-13T07:45:09Z</time>
					</trkpt>
					<trkpt lat="45.683620" lon="4.451990">
						<ele>530</ele>
						<time>2025-08-13T07:45:19Z</time>
					</trkpt>
					<trkpt lat="45.681750" lon="4.452150">
						<ele>542</ele>
						<time>2025-08-13T07:45:53Z</time>
					</trkpt>
					<trkpt lat="45.681240" lon="4.452300">
						<ele>550</ele>
						<time>2025-08-13T07:46:02Z</time>
					</trkpt>
					<trkpt lat="45.681130" lon="4.452300">
						<ele>551</ele>
						<time>2025-08-13T07:46:04Z</time>
					</trkpt>
					<trkpt lat="45.680980" lon="4.452170">
						<ele>552</ele>
						<time>2025-08-13T07:46:07Z</time>
					</trkpt>
					<trkpt lat="45.680960" lon="4.451950">
						<ele>552</ele>
						<time>2025-08-13T07:46:10Z</time>
					</trkpt>
					<trkpt lat="45.681130" lon="4.451440">
						<ele>549</ele>
						<time>2025-08-13T07:46:17Z</time>
					</trkpt>
					<trkpt lat="45.681200" lon="4.450920">
						<ele>550</ele>
						<time>2025-08-13T07:46:23Z</time>
					</trkpt>
					<trkpt lat="45.681350" lon="4.450360">
						<ele>549</ele>
						<time>2025-08-13T07:46:31Z</time>
					</trkpt>
					<trkpt lat="45.681320" lon="4.449510">
						<ele>557</ele>
						<time>2025-08-13T07:46:41Z</time>
					</trkpt>
					<trkpt lat="45.681430" lon="4.449330">
						<ele>557</ele>
						<time>2025-08-13T07:46:44Z</time>
					</trkpt>
					<trkpt lat="45.681860" lon="4.449270">
						<ele>551</ele>
						<time>2025-08-13T07:46:52Z</time>
					</trkpt>
					<trkpt lat="45.682120" lon="4.449140">
						<ele>550</ele>
						<time>2025-08-13T07:46:57Z</time>
					</trkpt>
					<trkpt lat="45.682250" lon="4.448950">
						<ele>551</ele>
						<time>2025-08-13T07:47:00Z</time>
					</trkpt>
					<trkpt lat="45.682400" lon="4.448600">
						<ele>552</ele>
						<time>2025-08-13T07:47:05Z</time>
					</trkpt>
					<trkpt lat="45.682440" lon="4.448370">
						<ele>554</ele>
						<time>2025-08-13T07:47:08Z</time>
					</trkpt>
					<trkpt lat="45.682400" lon="4.447980">
						<ele>553</ele>
						<time>2025-08-13T07:47:13Z</time>
					</trkpt>
					<trkpt lat="45.682270" lon="4.447700">
						<ele>554</ele>
						<time>2025-08-13T07:47:17Z</time>
					</trkpt>
					<trkpt lat="45.681300" lon="4.446570">
						<ele>561</ele>
						<time>2025-08-13T07:47:40Z</time>
					</trkpt>
					<trkpt lat="45.680980" lon="4.446240">
						<ele>563</ele>
						<time>2025-08-13T07:47:47Z</time>
					</trkpt>
					<trkpt lat="45.680740" lon="4.446070">
						<ele>565</ele>
						<time>2025-08-13T07:47:51Z</time>
					</trkpt>
					<trkpt lat="45.680400" lon="4.446070">
						<ele>566</ele>
						<time>2025-08-13T07:47:57Z</time>
					</trkpt>
					<trkpt lat="45.680140" lon="4.446180">
						<ele>568</ele>
						<time>2025-08-13T07:48:02Z</time>
					</trkpt>
					<trkpt lat="45.679950" lon="4.446350">
						<ele>570</ele>
						<time>2025-08-13T07:48:06Z</time>
					</trkpt>
					<trkpt lat="45.679630" lon="4.446890">
						<ele>574</ele>
						<time>2025-08-13T07:48:15Z</time>
					</trkpt>
					<trkpt lat="45.679390" lon="4.447040">
						<ele>575</ele>
						<time>2025-08-13T07:48:20Z</time>
					</trkpt>
					<trkpt lat="45.678560" lon="4.447000">
						<ele>579</ele>
						<time>2025-08-13T07:48:34Z</time>
					</trkpt>
					<trkpt lat="45.678300" lon="4.446870">
						<ele>580</ele>
						<time>2025-08-13T07:48:39Z</time>
					</trkpt>
					<trkpt lat="45.678060" lon="4.446500">
						<ele>582</ele>
						<time>2025-08-13T07:48:46Z</time>
					</trkpt>
					<trkpt lat="45.677960" lon="4.446270">
						<ele>581</ele>
						<time>2025-08-13T07:48:49Z</time>
					</trkpt>
					<trkpt lat="45.677890" lon="4.445790">
						<ele>577</ele>
						<time>2025-08-13T07:48:55Z</time>
					</trkpt>
					<trkpt lat="45.677780" lon="4.445510">
						<ele>575</ele>
						<time>2025-08-13T07:48:59Z</time>
					</trkpt>
					<trkpt lat="45.677550" lon="4.445210">
						<ele>575</ele>
						<time>2025-08-13T07:49:05Z</time>
					</trkpt>
					<trkpt lat="45.677350" lon="4.445090">
						<ele>576</ele>
						<time>2025-08-13T07:49:08Z</time>
					</trkpt>
					<trkpt lat="45.677050" lon="4.444960">
						<ele>578</ele>
						<time>2025-08-13T07:49:14Z</time>
					</trkpt>
					<trkpt lat="45.676410" lon="4.444870">
						<ele>579</ele>
						<time>2025-08-13T07:49:25Z</time>
					</trkpt>
					<trkpt lat="45.676130" lon="4.444940">
						<ele>579</ele>
						<time>2025-08-13T07:49:31Z</time>
					</trkpt>
					<trkpt lat="45.675960" lon="4.445130">
						<ele>582</ele>
						<time>2025-08-13T07:49:34Z</time>
					</trkpt>
					<trkpt lat="45.675720" lon="4.445600">
						<ele>594</ele>
						<time>2025-08-13T07:49:42Z</time>
					</trkpt>
					<trkpt lat="45.675590" lon="4.445660">
						<ele>597</ele>
						<time>2025-08-13T07:49:44Z</time>
					</trkpt>
					<trkpt lat="45.675510" lon="4.445640">
						<ele>598</ele>
						<time>2025-08-13T07:49:45Z</time>
					</trkpt>
					<trkpt lat="45.674760" lon="4.444870">
						<ele>586</ele>
						<time>2025-08-13T07:50:02Z</time>
					</trkpt>
					<trkpt lat="45.674460" lon="4.444760">
						<ele>584</ele>
						<time>2025-08-13T07:50:07Z</time>
					</trkpt>
					<trkpt lat="45.674290" lon="4.444790">
						<ele>585</ele>
						<time>2025-08-13T07:50:10Z</time>
					</trkpt>
					<trkpt lat="45.674070" lon="4.444870">
						<ele>588</ele>
						<time>2025-08-13T07:50:14Z</time>
					</trkpt>
					<trkpt lat="45.673940" lon="4.444980">
						<ele>591</ele>
						<time>2025-08-13T07:50:17Z</time>
					</trkpt>
					<trkpt lat="45.673750" lon="4.445190">
						<ele>596</ele>
						<time>2025-08-13T07:50:21Z</time>
					</trkpt>
					<trkpt lat="45.673490" lon="4.445580">
						<ele>603</ele>
						<time>2025-08-13T07:50:28Z</time>
					</trkpt>
					<trkpt lat="45.673210" lon="4.445860">
						<ele>610</ele>
						<time>2025-08-13T07:50:34Z</time>
					</trkpt>
					<trkpt lat="45.672980" lon="4.445920">
						<ele>615</ele>
						<time>2025-08-13T07:50:38Z</time>
					</trkpt>
					<trkpt lat="45.672910" lon="4.445880">
						<ele>616</ele>
						<time>2025-08-13T07:50:40Z</time>
					</trkpt>
					<trkpt lat="45.672810" lon="4.445710">
						<ele>615</ele>
						<time>2025-08-13T07:50:42Z</time>
					</trkpt>
					<trkpt lat="45.672810" lon="4.445090">
						<ele>606</ele>
						<time>2025-08-13T07:50:50Z</time>
					</trkpt>
					<trkpt lat="45.672660" lon="4.444630">
						<ele>606</ele>
						<time>2025-08-13T07:50:57Z</time>
					</trkpt>
					<trkpt lat="45.672700" lon="4.443970">
						<ele>601</ele>
						<time>2025-08-13T07:51:05Z</time>
					</trkpt>
					<trkpt lat="45.672570" lon="4.443600">
						<ele>603</ele>
						<time>2025-08-13T07:51:10Z</time>
					</trkpt>
					<trkpt lat="45.672380" lon="4.443280">
						<ele>608</ele>
						<time>2025-08-13T07:51:15Z</time>
					</trkpt>
					<trkpt lat="45.672310" lon="4.443030">
						<ele>612</ele>
						<time>2025-08-13T07:51:18Z</time>
					</trkpt>
					<trkpt lat="45.672330" lon="4.442900">
						<ele>612</ele>
						<time>2025-08-13T07:51:20Z</time>
					</trkpt>
					<trkpt lat="45.672460" lon="4.442620">
						<ele>610</ele>
						<time>2025-08-13T07:51:24Z</time>
					</trkpt>
					<trkpt lat="45.673060" lon="4.442060">
						<ele>600</ele>
						<time>2025-08-13T07:51:37Z</time>
					</trkpt>
					<trkpt lat="45.673150" lon="4.441930">
						<ele>599</ele>
						<time>2025-08-13T07:51:39Z</time>
					</trkpt>
					<trkpt lat="45.673170" lon="4.441650">
						<ele>601</ele>
						<time>2025-08-13T07:51:43Z</time>
					</trkpt>
					<trkpt lat="45.673130" lon="4.441480">
						<ele>600</ele>
						<time>2025-08-13T07:51:45Z</time>
					</trkpt>
					<trkpt lat="45.673060" lon="4.441330">
						<ele>599</ele>
						<time>2025-08-13T07:51:47Z</time>
					</trkpt>
					<trkpt lat="45.672830" lon="4.441050">
						<ele>601</ele>
						<time>2025-08-13T07:51:53Z</time>
					</trkpt>
					<trkpt lat="45.671470" lon="4.440020">
						<ele>617</ele>
						<time>2025-08-13T07:52:20Z</time>
					</trkpt>
					<trkpt lat="45.670380" lon="4.438910">
						<ele>619</ele>
						<time>2025-08-13T07:52:44Z</time>
					</trkpt>
					<trkpt lat="45.669720" lon="4.438480">
						<ele>628</ele>
						<time>2025-08-13T07:52:57Z</time>
					</trkpt>
					<trkpt lat="45.669440" lon="4.438110">
						<ele>628</ele>
						<time>2025-08-13T07:53:04Z</time>
					</trkpt>
					<trkpt lat="45.667810" lon="4.436310">
						<ele>626</ele>
						<time>2025-08-13T07:53:40Z</time>
					</trkpt>
					<trkpt lat="45.667360" lon="4.436010">
						<ele>627</ele>
						<time>2025-08-13T07:53:49Z</time>
					</trkpt>
					<trkpt lat="45.666500" lon="4.435580">
						<ele>635</ele>
						<time>2025-08-13T07:54:05Z</time>
					</trkpt>
					<trkpt lat="45.666390" lon="4.435410">
						<ele>638</ele>
						<time>2025-08-13T07:54:08Z</time>
					</trkpt>
					<trkpt lat="45.666370" lon="4.435210">
						<ele>639</ele>
						<time>2025-08-13T07:54:11Z</time>
					</trkpt>
					<trkpt lat="45.666430" lon="4.434680">
						<ele>640</ele>
						<time>2025-08-13T07:54:17Z</time>
					</trkpt>
					<trkpt lat="45.666560" lon="4.433990">
						<ele>643</ele>
						<time>2025-08-13T07:54:26Z</time>
					</trkpt>
					<trkpt lat="45.666560" lon="4.433820">
						<ele>645</ele>
						<time>2025-08-13T07:54:28Z</time>
					</trkpt>
					<trkpt lat="45.666600" lon="4.433610">
						<ele>646</ele>
						<time>2025-08-13T07:54:31Z</time>
					</trkpt>
					<trkpt lat="45.666930" lon="4.432600">
						<ele>645</ele>
						<time>2025-08-13T07:54:45Z</time>
					</trkpt>
					<trkpt lat="45.667010" lon="4.431570">
						<ele>645</ele>
						<time>2025-08-13T07:54:58Z</time>
					</trkpt>
					<trkpt lat="45.666990" lon="4.431180">
						<ele>646</ele>
						<time>2025-08-13T07:55:03Z</time>
					</trkpt>
					<trkpt lat="45.666750" lon="4.430170">
						<ele>651</ele>
						<time>2025-08-13T07:55:16Z</time>
					</trkpt>
					<trkpt lat="45.666730" lon="4.429910">
						<ele>650</ele>
						<time>2025-08-13T07:55:19Z</time>
					</trkpt>
					<trkpt lat="45.666780" lon="4.428280">
						<ele>641</ele>
						<time>2025-08-13T07:55:39Z</time>
					</trkpt>
					<trkpt lat="45.666710" lon="4.427940">
						<ele>639</ele>
						<time>2025-08-13T07:55:44Z</time>
					</trkpt>
					<trkpt lat="45.666600" lon="4.427770">
						<ele>640</ele>
						<time>2025-08-13T07:55:47Z</time>
					</trkpt>
					<trkpt lat="45.666370" lon="4.427530">
						<ele>641</ele>
						<time>2025-08-13T07:55:52Z</time>
					</trkpt>
					<trkpt lat="45.665660" lon="4.427080">
						<ele>646</ele>
						<time>2025-08-13T07:56:06Z</time>
					</trkpt>
					<trkpt lat="45.664200" lon="4.425950">
						<ele>642</ele>
						<time>2025-08-13T07:56:35Z</time>
					</trkpt>
					<trkpt lat="45.664030" lon="4.425860">
						<ele>642</ele>
						<time>2025-08-13T07:56:38Z</time>
					</trkpt>
					<trkpt lat="45.663190" lon="4.425640">
						<ele>652</ele>
						<time>2025-08-13T07:56:54Z</time>
					</trkpt>
					<trkpt lat="45.663110" lon="4.425520">
						<ele>652</ele>
						<time>2025-08-13T07:56:56Z</time>
					</trkpt>
					<trkpt lat="45.663080" lon="4.425260">
						<ele>649</ele>
						<time>2025-08-13T07:56:59Z</time>
					</trkpt>
					<trkpt lat="45.663080" lon="4.424870">
						<ele>645</ele>
						<time>2025-08-13T07:57:04Z</time>
					</trkpt>
					<trkpt lat="45.663060" lon="4.424700">
						<ele>644</ele>
						<time>2025-08-13T07:57:06Z</time>
					</trkpt>
					<trkpt lat="45.663000" lon="4.424510">
						<ele>644</ele>
						<time>2025-08-13T07:57:08Z</time>
					</trkpt>
					<trkpt lat="45.661930" lon="4.422510">
						<ele>650</ele>
						<time>2025-08-13T07:57:40Z</time>
					</trkpt>
					<trkpt lat="45.661710" lon="4.422280">
						<ele>650</ele>
						<time>2025-08-13T07:57:45Z</time>
					</trkpt>
					<trkpt lat="45.661500" lon="4.422150">
						<ele>651</ele>
						<time>2025-08-13T07:57:49Z</time>
					</trkpt>
					<trkpt lat="45.661260" lon="4.421950">
						<ele>651</ele>
						<time>2025-08-13T07:57:54Z</time>
					</trkpt>
					<trkpt lat="45.660770" lon="4.421610">
						<ele>651</ele>
						<time>2025-08-13T07:58:03Z</time>
					</trkpt>
					<trkpt lat="45.659800" lon="4.421500">
						<ele>656</ele>
						<time>2025-08-13T07:58:21Z</time>
					</trkpt>
					<trkpt lat="45.658360" lon="4.421290">
						<ele>658</ele>
						<time>2025-08-13T07:58:46Z</time>
					</trkpt>
					<trkpt lat="45.657780" lon="4.421310">
						<ele>661</ele>
						<time>2025-08-13T07:58:57Z</time>
					</trkpt>
					<trkpt lat="45.657360" lon="4.421480">
						<ele>664</ele>
						<time>2025-08-13T07:59:04Z</time>
					</trkpt>
					<trkpt lat="45.656970" lon="4.421590">
						<ele>665</ele>
						<time>2025-08-13T07:59:12Z</time>
					</trkpt>
					<trkpt lat="45.656860" lon="4.421650">
						<ele>665</ele>
						<time>2025-08-13T07:59:14Z</time>
					</trkpt>
					<trkpt lat="45.660380" lon="4.432340">
						<ele>688</ele>
						<time>2025-08-13T08:01:41Z</time>
					</trkpt>
					<trkpt lat="45.661050" lon="4.434490">
						<ele>694</ele>
						<time>2025-08-13T08:02:10Z</time>
					</trkpt>
					<trkpt lat="45.661280" lon="4.435390">
						<ele>694</ele>
						<time>2025-08-13T08:02:22Z</time>
					</trkpt>
					<trkpt lat="45.661520" lon="4.436850">
						<ele>695</ele>
						<time>2025-08-13T08:02:40Z</time>
					</trkpt>
					<trkpt lat="45.661710" lon="4.437660">
						<ele>694</ele>
						<time>2025-08-13T08:02:51Z</time>
					</trkpt>
					<trkpt lat="45.661880" lon="4.438030">
						<ele>693</ele>
						<time>2025-08-13T08:02:57Z</time>
					</trkpt>
					<trkpt lat="45.662030" lon="4.438220">
						<ele>693</ele>
						<time>2025-08-13T08:03:00Z</time>
					</trkpt>
					<trkpt lat="45.663040" lon="4.439310">
						<ele>693</ele>
						<time>2025-08-13T08:03:23Z</time>
					</trkpt>
					<trkpt lat="45.663360" lon="4.439810">
						<ele>694</ele>
						<time>2025-08-13T08:03:31Z</time>
					</trkpt>
					<trkpt lat="45.663510" lon="4.440210">
						<ele>695</ele>
						<time>2025-08-13T08:03:37Z</time>
					</trkpt>
					<trkpt lat="45.663790" lon="4.441520">
						<ele>700</ele>
						<time>2025-08-13T08:03:54Z</time>
					</trkpt>
					<trkpt lat="45.663940" lon="4.441850">
						<ele>701</ele>
						<time>2025-08-13T08:03:59Z</time>
					</trkpt>
					<trkpt lat="45.664070" lon="4.442040">
						<ele>702</ele>
						<time>2025-08-13T08:04:02Z</time>
					</trkpt>
					<trkpt lat="45.665700" lon="4.443730">
						<ele>711</ele>
						<time>2025-08-13T08:04:38Z</time>
					</trkpt>
					<trkpt lat="45.665810" lon="4.443950">
						<ele>712</ele>
						<time>2025-08-13T08:04:41Z</time>
					</trkpt>
					<trkpt lat="45.665940" lon="4.445020">
						<ele>713</ele>
						<time>2025-08-13T08:04:55Z</time>
					</trkpt>
					<trkpt lat="45.666070" lon="4.445390">
						<ele>713</ele>
						<time>2025-08-13T08:05:00Z</time>
					</trkpt>
					<trkpt lat="45.666240" lon="4.445640">
						<ele>713</ele>
						<time>2025-08-13T08:05:04Z</time>
					</trkpt>
					<trkpt lat="45.666600" lon="4.445970">
						<ele>715</ele>
						<time>2025-08-13T08:05:12Z</time>
					</trkpt>
					<trkpt lat="45.667400" lon="4.446780">
						<ele>713</ele>
						<time>2025-08-13T08:05:29Z</time>
					</trkpt>
					<trkpt lat="45.667530" lon="4.446950">
						<ele>713</ele>
						<time>2025-08-13T08:05:32Z</time>
					</trkpt>
					<trkpt lat="45.667760" lon="4.447510">
						<ele>710</ele>
						<time>2025-08-13T08:05:40Z</time>
					</trkpt>
					<trkpt lat="45.668210" lon="4.448330">
						<ele>711</ele>
						<time>2025-08-13T08:05:53Z</time>
					</trkpt>
					<trkpt lat="45.668470" lon="4.448690">
						<ele>711</ele>
						<time>2025-08-13T08:06:00Z</time>
					</trkpt>
					<trkpt lat="45.668620" lon="4.449060">
						<ele>711</ele>
						<time>2025-08-13T08:06:05Z</time>
					</trkpt>
					<trkpt lat="45.668640" lon="4.449330">
						<ele>711</ele>
						<time>2025-08-13T08:06:08Z</time>
					</trkpt>
					<trkpt lat="45.668620" lon="4.449810">
						<ele>711</ele>
						<time>2025-08-13T08:06:14Z</time>
					</trkpt>
					<trkpt lat="45.668390" lon="4.453950">
						<ele>726</ele>
						<time>2025-08-13T08:07:06Z</time>
					</trkpt>
					<trkpt lat="45.668360" lon="4.454100">
						<ele>727</ele>
						<time>2025-08-13T08:07:08Z</time>
					</trkpt>
					<trkpt lat="45.668360" lon="4.455190">
						<ele>729</ele>
						<time>2025-08-13T08:07:22Z</time>
					</trkpt>
					<trkpt lat="45.668340" lon="4.455470">
						<ele>731</ele>
						<time>2025-08-13T08:07:25Z</time>
					</trkpt>
					<trkpt lat="45.668230" lon="4.456050">
						<ele>731</ele>
						<time>2025-08-13T08:07:33Z</time>
					</trkpt>
					<trkpt lat="45.668230" lon="4.456350">
						<ele>732</ele>
						<time>2025-08-13T08:07:36Z</time>
					</trkpt>
					<trkpt lat="45.668320" lon="4.457020">
						<ele>734</ele>
						<time>2025-08-13T08:07:45Z</time>
					</trkpt>
					<trkpt lat="45.668490" lon="4.457490">
						<ele>737</ele>
						<time>2025-08-13T08:07:51Z</time>
					</trkpt>
					<trkpt lat="45.668690" lon="4.457900">
						<ele>740</ele>
						<time>2025-08-13T08:07:58Z</time>
					</trkpt>
					<trkpt lat="45.668770" lon="4.458130">
						<ele>741</ele>
						<time>2025-08-13T08:08:01Z</time>
					</trkpt>
					<trkpt lat="45.668840" lon="4.458900">
						<ele>739</ele>
						<time>2025-08-13T08:08:10Z</time>
					</trkpt>
					<trkpt lat="45.669010" lon="4.459380">
						<ele>740</ele>
						<time>2025-08-13T08:08:17Z</time>
					</trkpt>
					<trkpt lat="45.670470" lon="4.461200">
						<ele>752</ele>
						<time>2025-08-13T08:08:52Z</time>
					</trkpt>
					<trkpt lat="45.670640" lon="4.461460">
						<ele>752</ele>
						<time>2025-08-13T08:08:56Z</time>
					</trkpt>
					<trkpt lat="45.670830" lon="4.461870">
						<ele>750</ele>
						<time>2025-08-13T08:09:02Z</time>
					</trkpt>
					<trkpt lat="45.670980" lon="4.462040">
						<ele>750</ele>
						<time>2025-08-13T08:09:06Z</time>
					</trkpt>
					<trkpt lat="45.671110" lon="4.462170">
						<ele>750</ele>
						<time>2025-08-13T08:09:08Z</time>
					</trkpt>
					<trkpt lat="45.671500" lon="4.462340">
						<ele>753</ele>
						<time>2025-08-13T08:09:16Z</time>
					</trkpt>
					<trkpt lat="45.672200" lon="4.462490">
						<ele>761</ele>
						<time>2025-08-13T08:09:28Z</time>
					</trkpt>
					<trkpt lat="45.672420" lon="4.462620">
						<ele>761</ele>
						<time>2025-08-13T08:09:32Z</time>
					</trkpt>
					<trkpt lat="45.673490" lon="4.463750">
						<ele>761</ele>
						<time>2025-08-13T08:09:56Z</time>
					</trkpt>
					<trkpt lat="45.674370" lon="4.464810">
						<ele>760</ele>
						<time>2025-08-13T08:10:17Z</time>
					</trkpt>
					<trkpt lat="45.674740" lon="4.465320">
						<ele>762</ele>
						<time>2025-08-13T08:10:26Z</time>
					</trkpt>
					<trkpt lat="45.675550" lon="4.467340">
						<ele>762</ele>
						<time>2025-08-13T08:10:55Z</time>
					</trkpt>
					<trkpt lat="45.676410" lon="4.469010">
						<ele>762</ele>
						<time>2025-08-13T08:11:20Z</time>
					</trkpt>
					<trkpt lat="45.676820" lon="4.469630">
						<ele>762</ele>
						<time>2025-08-13T08:11:31Z</time>
					</trkpt>
					<trkpt lat="45.677120" lon="4.470210">
						<ele>764</ele>
						<time>2025-08-13T08:11:40Z</time>
					</trkpt>
					<trkpt lat="45.677230" lon="4.470530">
						<ele>764</ele>
						<time>2025-08-13T08:11:44Z</time>
					</trkpt>
					<trkpt lat="45.677680" lon="4.472770">
						<ele>766</ele>
						<time>2025-08-13T08:12:13Z</time>
					</trkpt>
					<trkpt lat="45.677910" lon="4.473770">
						<ele>767</ele>
						<time>2025-08-13T08:12:26Z</time>
					</trkpt>
					<trkpt lat="45.678260" lon="4.474480">
						<ele>767</ele>
						<time>2025-08-13T08:12:37Z</time>
					</trkpt>
					<trkpt lat="45.678620" lon="4.475060">
						<ele>765</ele>
						<time>2025-08-13T08:12:47Z</time>
					</trkpt>
					<trkpt lat="45.679760" lon="4.476710">
						<ele>766</ele>
						<time>2025-08-13T08:13:16Z</time>
					</trkpt>
					<trkpt lat="45.679820" lon="4.476890">
						<ele>767</ele>
						<time>2025-08-13T08:13:18Z</time>
					</trkpt>
					<trkpt lat="45.679840" lon="4.477080">
						<ele>767</ele>
						<time>2025-08-13T08:13:21Z</time>
					</trkpt>
					<trkpt lat="45.679800" lon="4.477270">
						<ele>767</ele>
						<time>2025-08-13T08:13:23Z</time>
					</trkpt>
					<trkpt lat="45.679290" lon="4.478410">
						<ele>772</ele>
						<time>2025-08-13T08:13:40Z</time>
					</trkpt>
					<trkpt lat="45.679240" lon="4.478750">
						<ele>773</ele>
						<time>2025-08-13T08:13:44Z</time>
					</trkpt>
					<trkpt lat="45.679240" lon="4.479440">
						<ele>777</ele>
						<time>2025-08-13T08:13:53Z</time>
					</trkpt>
					<trkpt lat="45.679540" lon="4.481890">
						<ele>785</ele>
						<time>2025-08-13T08:14:24Z</time>
					</trkpt>
					<trkpt lat="45.679630" lon="4.482210">
						<ele>785</ele>
						<time>2025-08-13T08:14:28Z</time>
					</trkpt>
					<trkpt lat="45.680210" lon="4.483430">
						<ele>789</ele>
						<time>2025-08-13T08:14:46Z</time>
					</trkpt>
					<trkpt lat="45.680360" lon="4.484870">
						<ele>793</ele>
						<time>2025-08-13T08:15:05Z</time>
					</trkpt>
					<trkpt lat="45.680810" lon="4.486200">
						<ele>798</ele>
						<time>2025-08-13T08:15:23Z</time>
					</trkpt>
					<trkpt lat="45.681500" lon="4.487570">
						<ele>800</ele>
						<time>2025-08-13T08:15:44Z</time>
					</trkpt>
					<trkpt lat="45.681690" lon="4.488260">
						<ele>799</ele>
						<time>2025-08-13T08:15:53Z</time>
					</trkpt>
					<trkpt lat="45.681770" lon="4.488750">
						<ele>799</ele>
						<time>2025-08-13T08:15:59Z</time>
					</trkpt>
					<trkpt lat="45.681800" lon="4.489520">
						<ele>799</ele>
						<time>2025-08-13T08:16:09Z</time>
					</trkpt>
					<trkpt lat="45.681770" lon="4.493560">
						<ele>804</ele>
						<time>2025-08-13T08:16:59Z</time>
					</trkpt>
					<trkpt lat="45.682030" lon="4.495730">
						<ele>810</ele>
						<time>2025-08-13T08:17:27Z</time>
					</trkpt>
					<trkpt lat="45.682180" lon="4.496690">
						<ele>812</ele>
						<time>2025-08-13T08:17:39Z</time>
					</trkpt>
					<trkpt lat="45.682270" lon="4.497080">
						<ele>813</ele>
						<time>2025-08-13T08:17:44Z</time>
					</trkpt>
					<trkpt lat="45.682830" lon="4.498490">
						<ele>812</ele>
						<time>2025-08-13T08:18:04Z</time>
					</trkpt>
					<trkpt lat="45.683170" lon="4.499120">
						<ele>812</ele>
						<time>2025-08-13T08:18:14Z</time>
					</trkpt>
					<trkpt lat="45.683470" lon="4.499740">
						<ele>811</ele>
						<time>2025-08-13T08:18:23Z</time>
					</trkpt>
					<trkpt lat="45.683790" lon="4.500580">
						<ele>812</ele>
						<time>2025-08-13T08:18:35Z</time>
					</trkpt>
					<trkpt lat="45.683980" lon="4.501300">
						<ele>812</ele>
						<time>2025-08-13T08:18:45Z</time>
					</trkpt>
					<trkpt lat="45.684010" lon="4.502230">
						<ele>816</ele>
						<time>2025-08-13T08:18:56Z</time>
					</trkpt>
					<trkpt lat="45.684070" lon="4.502760">
						<ele>814</ele>
						<time>2025-08-13T08:19:03Z</time>
					</trkpt>
					<trkpt lat="45.684070" lon="4.503640">
						<ele>814</ele>
						<time>2025-08-13T08:19:14Z</time>
					</trkpt>
					<trkpt lat="45.684010" lon="4.504140">
						<ele>815</ele>
						<time>2025-08-13T08:19:20Z</time>
					</trkpt>
					<trkpt lat="45.683710" lon="4.504850">
						<ele>820</ele>
						<time>2025-08-13T08:19:31Z</time>
					</trkpt>
					<trkpt lat="45.683600" lon="4.505210">
						<ele>822</ele>
						<time>2025-08-13T08:19:35Z</time>
					</trkpt>
					<trkpt lat="45.683560" lon="4.505490">
						<ele>822</ele>
						<time>2025-08-13T08:19:39Z</time>
					</trkpt>
					<trkpt lat="45.683530" lon="4.506090">
						<ele>823</ele>
						<time>2025-08-13T08:19:46Z</time>
					</trkpt>
					<trkpt lat="45.683600" lon="4.506390">
						<ele>823</ele>
						<time>2025-08-13T08:19:50Z</time>
					</trkpt>
					<trkpt lat="45.683680" lon="4.506580">
						<ele>821</ele>
						<time>2025-08-13T08:19:53Z</time>
					</trkpt>
					<trkpt lat="45.684090" lon="4.507160">
						<ele>814</ele>
						<time>2025-08-13T08:20:03Z</time>
					</trkpt>
					<trkpt lat="45.684200" lon="4.507380">
						<ele>814</ele>
						<time>2025-08-13T08:20:07Z</time>
					</trkpt>
					<trkpt lat="45.684390" lon="4.508040">
						<ele>814</ele>
						<time>2025-08-13T08:20:16Z</time>
					</trkpt>
					<trkpt lat="45.684610" lon="4.509090">
						<ele>812</ele>
						<time>2025-08-13T08:20:29Z</time>
					</trkpt>
					<trkpt lat="45.684560" lon="4.509970">
						<ele>817</ele>
						<time>2025-08-13T08:20:40Z</time>
					</trkpt>
					<trkpt lat="45.684590" lon="4.510210">
						<ele>818</ele>
						<time>2025-08-13T08:20:43Z</time>
					</trkpt>
					<trkpt lat="45.685080" lon="4.511260">
						<ele>812</ele>
						<time>2025-08-13T08:20:59Z</time>
					</trkpt>
					<trkpt lat="45.685290" lon="4.512050">
						<ele>813</ele>
						<time>2025-08-13T08:21:09Z</time>
					</trkpt>
					<trkpt lat="45.685340" lon="4.512610">
						<ele>815</ele>
						<time>2025-08-13T08:21:17Z</time>
					</trkpt>
					<trkpt lat="45.685320" lon="4.513450">
						<ele>816</ele>
						<time>2025-08-13T08:21:27Z</time>
					</trkpt>
					<trkpt lat="45.685440" lon="4.515140">
						<ele>815</ele>
						<time>2025-08-13T08:21:48Z</time>
					</trkpt>
					<trkpt lat="45.685530" lon="4.515400">
						<ele>815</ele>
						<time>2025-08-13T08:21:52Z</time>
					</trkpt>
					<trkpt lat="45.685870" lon="4.516050">
						<ele>814</ele>
						<time>2025-08-13T08:22:02Z</time>
					</trkpt>
					<trkpt lat="45.685980" lon="4.516350">
						<ele>813</ele>
						<time>2025-08-13T08:22:06Z</time>
					</trkpt>
					<trkpt lat="45.686280" lon="4.517890">
						<ele>814</ele>
						<time>2025-08-13T08:22:26Z</time>
					</trkpt>
					<trkpt lat="45.686300" lon="4.518260">
						<ele>814</ele>
						<time>2025-08-13T08:22:30Z</time>
					</trkpt>
					<trkpt lat="45.686220" lon="4.519050">
						<ele>815</ele>
						<time>2025-08-13T08:22:40Z</time>
					</trkpt>
					<trkpt lat="45.686110" lon="4.519540">
						<ele>815</ele>
						<time>2025-08-13T08:22:47Z</time>
					</trkpt>
					<trkpt lat="45.685680" lon="4.520750">
						<ele>820</ele>
						<time>2025-08-13T08:23:04Z</time>
					</trkpt>
					<trkpt lat="45.685680" lon="4.520980">
						<ele>819</ele>
						<time>2025-08-13T08:23:07Z</time>
					</trkpt>
					<trkpt lat="45.685920" lon="4.521560">
						<ele>810</ele>
						<time>2025-08-13T08:23:15Z</time>
					</trkpt>
					<trkpt lat="45.685980" lon="4.521880">
						<ele>807</ele>
						<time>2025-08-13T08:23:19Z</time>
					</trkpt>
					<trkpt lat="45.686000" lon="4.522500">
						<ele>804</ele>
						<time>2025-08-13T08:23:27Z</time>
					</trkpt>
					<trkpt lat="45.685940" lon="4.522760">
						<ele>805</ele>
						<time>2025-08-13T08:23:30Z</time>
					</trkpt>
					<trkpt lat="45.685830" lon="4.523040">
						<ele>806</ele>
						<time>2025-08-13T08:23:34Z</time>
					</trkpt>
					<trkpt lat="45.685720" lon="4.523230">
						<ele>807</ele>
						<time>2025-08-13T08:23:37Z</time>
					</trkpt>
					<trkpt lat="45.685360" lon="4.523710">
						<ele>809</ele>
						<time>2025-08-13T08:23:46Z</time>
					</trkpt>
					<trkpt lat="45.685250" lon="4.523960">
						<ele>809</ele>
						<time>2025-08-13T08:23:50Z</time>
					</trkpt>
					<trkpt lat="45.685040" lon="4.524630">
						<ele>810</ele>
						<time>2025-08-13T08:23:59Z</time>
					</trkpt>
					<trkpt lat="45.684590" lon="4.525530">
						<ele>806</ele>
						<time>2025-08-13T08:24:13Z</time>
					</trkpt>
					<trkpt lat="45.684520" lon="4.525740">
						<ele>805</ele>
						<time>2025-08-13T08:24:15Z</time>
					</trkpt>
					<trkpt lat="45.684350" lon="4.528380">
						<ele>796</ele>
						<time>2025-08-13T08:24:48Z</time>
					</trkpt>
					<trkpt lat="45.684370" lon="4.528510">
						<ele>796</ele>
						<time>2025-08-13T08:24:50Z</time>
					</trkpt>
					<trkpt lat="45.684480" lon="4.528810">
						<ele>795</ele>
						<time>2025-08-13T08:24:54Z</time>
					</trkpt>
					<trkpt lat="45.684820" lon="4.529630">
						<ele>792</ele>
						<time>2025-08-13T08:25:06Z</time>
					</trkpt>
					<trkpt lat="45.684890" lon="4.529740">
						<ele>791</ele>
						<time>2025-08-13T08:25:08Z</time>
					</trkpt>
					<trkpt lat="45.685100" lon="4.530230">
						<ele>790</ele>
						<time>2025-08-13T08:25:15Z</time>
					</trkpt>
					<trkpt lat="45.685160" lon="4.530470">
						<ele>790</ele>
						<time>2025-08-13T08:25:18Z</time>
					</trkpt>
					<trkpt lat="45.685270" lon="4.530550">
						<ele>790</ele>
						<time>2025-08-13T08:25:20Z</time>
					</trkpt>
					<trkpt lat="45.686000" lon="4.532180">
						<ele>795</ele>
						<time>2025-08-13T08:25:44Z</time>
					</trkpt>
					<trkpt lat="45.686190" lon="4.532500">
						<ele>796</ele>
						<time>2025-08-13T08:25:50Z</time>
					</trkpt>
					<trkpt lat="45.687650" lon="4.534350">
						<ele>790</ele>
						<time>2025-08-13T08:26:24Z</time>
					</trkpt>
					<trkpt lat="45.688040" lon="4.534650">
						<ele>789</ele>
						<time>2025-08-13T08:26:32Z</time>
					</trkpt>
					<trkpt lat="45.688750" lon="4.534930">
						<ele>786</ele>
						<time>2025-08-13T08:26:45Z</time>
					</trkpt>
					<trkpt lat="45.689010" lon="4.535060">
						<ele>784</ele>
						<time>2025-08-13T08:26:50Z</time>
					</trkpt>
					<trkpt lat="45.689670" lon="4.535680">
						<ele>781</ele>
						<time>2025-08-13T08:27:04Z</time>
					</trkpt>
					<trkpt lat="45.691750" lon="4.537830">
						<ele>785</ele>
						<time>2025-08-13T08:27:50Z</time>
					</trkpt>
					<trkpt lat="45.691990" lon="4.538020">
						<ele>786</ele>
						<time>2025-08-13T08:27:55Z</time>
					</trkpt>
					<trkpt lat="45.692180" lon="4.538130">
						<ele>787</ele>
						<time>2025-08-13T08:27:59Z</time>
					</trkpt>
					<trkpt lat="45.693430" lon="4.538450">
						<ele>790</ele>
						<time>2025-08-13T08:28:21Z</time>
					</trkpt>
					<trkpt lat="45.693750" lon="4.538680">
						<ele>791</ele>
						<time>2025-08-13T08:28:27Z</time>
					</trkpt>
					<trkpt lat="45.694010" lon="4.539010">
						<ele>792</ele>
						<time>2025-08-13T08:28:34Z</time>
					</trkpt>
					<trkpt lat="45.694110" lon="4.539200">
						<ele>793</ele>
						<time>2025-08-13T08:28:37Z</time>
					</trkpt>
					<trkpt lat="45.694220" lon="4.539630">
						<ele>795</ele>
						<time>2025-08-13T08:28:42Z</time>
					</trkpt>
					<trkpt lat="45.694240" lon="4.540740">
						<ele>802</ele>
						<time>2025-08-13T08:28:56Z</time>
					</trkpt>
					<trkpt lat="45.694350" lon="4.541390">
						<ele>804</ele>
						<time>2025-08-13T08:29:04Z</time>
					</trkpt>
					<trkpt lat="45.694500" lon="4.541950">
						<ele>806</ele>
						<time>2025-08-13T08:29:12Z</time>
					</trkpt>
					<trkpt lat="45.695060" lon="4.543550">
						<ele>809</ele>
						<time>2025-08-13T08:29:34Z</time>
					</trkpt>
					<trkpt lat="45.695230" lon="4.544540">
						<ele>814</ele>
						<time>2025-08-13T08:29:47Z</time>
					</trkpt>
					<trkpt lat="45.695380" lon="4.544950">
						<ele>815</ele>
						<time>2025-08-13T08:29:53Z</time>
					</trkpt>
					<trkpt lat="45.695590" lon="4.545270">
						<ele>815</ele>
						<time>2025-08-13T08:29:58Z</time>
					</trkpt>
					<trkpt lat="45.696670" lon="4.546040">
						<ele>816</ele>
						<time>2025-08-13T08:30:19Z</time>
					</trkpt>
					<trkpt lat="45.697290" lon="4.546970">
						<ele>820</ele>
						<time>2025-08-13T08:30:35Z</time>
					</trkpt>
					<trkpt lat="45.697630" lon="4.547330">
						<ele>819</ele>
						<time>2025-08-13T08:30:43Z</time>
					</trkpt>
					<trkpt lat="45.697980" lon="4.547550">
						<ele>819</ele>
						<time>2025-08-13T08:30:50Z</time>
					</trkpt>
					<trkpt lat="45.698490" lon="4.547650">
						<ele>819</ele>
						<time>2025-08-13T08:30:59Z</time>
					</trkpt>
					<trkpt lat="45.699200" lon="4.547870">
						<ele>822</ele>
						<time>2025-08-13T08:31:12Z</time>
					</trkpt>
					<trkpt lat="45.699560" lon="4.548100">
						<ele>822</ele>
						<time>2025-08-13T08:31:19Z</time>
					</trkpt>
					<trkpt lat="45.700060" lon="4.548620">
						<ele>824</ele>
						<time>2025-08-13T08:31:30Z</time>
					</trkpt>
					<trkpt lat="45.700360" lon="4.549130">
						<ele>824</ele>
						<time>2025-08-13T08:31:38Z</time>
					</trkpt>
					<trkpt lat="45.700700" lon="4.549860">
						<ele>829</ele>
						<time>2025-08-13T08:31:49Z</time>
					</trkpt>
					<trkpt lat="45.701090" lon="4.551040">
						<ele>836</ele>
						<time>2025-08-13T08:32:05Z</time>
					</trkpt>
					<trkpt lat="45.701170" lon="4.551430">
						<ele>838</ele>
						<time>2025-08-13T08:32:10Z</time>
					</trkpt>
					<trkpt lat="45.701190" lon="4.551730">
						<ele>840</ele>
						<time>2025-08-13T08:32:14Z</time>
					</trkpt>
					<trkpt lat="45.701130" lon="4.553000">
						<ele>841</ele>
						<time>2025-08-13T08:32:30Z</time>
					</trkpt>
					<trkpt lat="45.701190" lon="4.553450">
						<ele>841</ele>
						<time>2025-08-13T08:32:36Z</time>
					</trkpt>
					<trkpt lat="45.701340" lon="4.553810">
						<ele>841</ele>
						<time>2025-08-13T08:32:41Z</time>
					</trkpt>
					<trkpt lat="45.701670" lon="4.554310">
						<ele>841</ele>
						<time>2025-08-13T08:32:49Z</time>
					</trkpt>
					<trkpt lat="45.701840" lon="4.554650">
						<ele>842</ele>
						<time>2025-08-13T08:32:55Z</time>
					</trkpt>
					<trkpt lat="45.701920" lon="4.555010">
						<ele>844</ele>
						<time>2025-08-13T08:32:59Z</time>
					</trkpt>
					<trkpt lat="45.702050" lon="4.556040">
						<ele>853</ele>
						<time>2025-08-13T08:33:12Z</time>
					</trkpt>
					<trkpt lat="45.702200" lon="4.556370">
						<ele>852</ele>
						<time>2025-08-13T08:33:17Z</time>
					</trkpt>
					<trkpt lat="45.702330" lon="4.556520">
						<ele>851</ele>
						<time>2025-08-13T08:33:20Z</time>
					</trkpt>
					<trkpt lat="45.703170" lon="4.556840">
						<ele>850</ele>
						<time>2025-08-13T08:33:36Z</time>
					</trkpt>
					<trkpt lat="45.703530" lon="4.556880">
						<ele>853</ele>
						<time>2025-08-13T08:33:42Z</time>
					</trkpt>
					<trkpt lat="45.704030" lon="4.556730">
						<ele>856</ele>
						<time>2025-08-13T08:33:51Z</time>
					</trkpt>
					<trkpt lat="45.704560" lon="4.556430">
						<ele>859</ele>
						<time>2025-08-13T08:34:01Z</time>
					</trkpt>
					<trkpt lat="45.704780" lon="4.556280">
						<ele>861</ele>
						<time>2025-08-13T08:34:06Z</time>
					</trkpt>
					<trkpt lat="45.704910" lon="4.556130">
						<ele>862</ele>
						<time>2025-08-13T08:34:09Z</time>
					</trkpt>
					<trkpt lat="45.705250" lon="4.555460">
						<ele>862</ele>
						<time>2025-08-13T08:34:19Z</time>
					</trkpt>
					<trkpt lat="45.705490" lon="4.555140">
						<ele>863</ele>
						<time>2025-08-13T08:34:25Z</time>
					</trkpt>
					<trkpt lat="45.705980" lon="4.554800">
						<ele>867</ele>
						<time>2025-08-13T08:34:34Z</time>
					</trkpt>
					<trkpt lat="45.706170" lon="4.554730">
						<ele>867</ele>
						<time>2025-08-13T08:34:38Z</time>
					</trkpt>
					<trkpt lat="45.710870" lon="4.554410">
						<ele>861</ele>
						<time>2025-08-13T08:36:02Z</time>
					</trkpt>
					<trkpt lat="45.711110" lon="4.554430">
						<ele>860</ele>
						<time>2025-08-13T08:36:06Z</time>
					</trkpt>
					<trkpt lat="45.711450" lon="4.554560">
						<ele>858</ele>
						<time>2025-08-13T08:36:12Z</time>
					</trkpt>
					<trkpt lat="45.711900" lon="4.554800">
						<ele>858</ele>
						<time>2025-08-13T08:36:21Z</time>
					</trkpt>
					<trkpt lat="45.712070" lon="4.554970">
						<ele>858</ele>
						<time>2025-08-13T08:36:24Z</time>
					</trkpt>
					<trkpt lat="45.713320" lon="4.557480">
						<ele>846</ele>
						<time>2025-08-13T08:37:03Z</time>
					</trkpt>
					<trkpt lat="45.713550" lon="4.557870">
						<ele>844</ele>
						<time>2025-08-13T08:37:09Z</time>
					</trkpt>
					<trkpt lat="45.714240" lon="4.558880">
						<ele>840</ele>
						<time>2025-08-13T08:37:27Z</time>
					</trkpt>
					<trkpt lat="45.714430" lon="4.559410">
						<ele>839</ele>
						<time>2025-08-13T08:37:34Z</time>
					</trkpt>
					<trkpt lat="45.714500" lon="4.559840">
						<ele>838</ele>
						<time>2025-08-13T08:37:39Z</time>
					</trkpt>
					<trkpt lat="45.714540" lon="4.560660">
						<ele>835</ele>
						<time>2025-08-13T08:37:50Z</time>
					</trkpt>
					<trkpt lat="45.714780" lon="4.561690">
						<ele>835</ele>
						<time>2025-08-13T08:38:03Z</time>
					</trkpt>
					<trkpt lat="45.714840" lon="4.562070">
						<ele>834</ele>
						<time>2025-08-13T08:38:08Z</time>
					</trkpt>
					<trkpt lat="45.714840" lon="4.562670">
						<ele>831</ele>
						<time>2025-08-13T08:38:15Z</time>
					</trkpt>
					<trkpt lat="45.714600" lon="4.564200">
						<ele>825</ele>
						<time>2025-08-13T08:38:35Z</time>
					</trkpt>
					<trkpt lat="45.714630" lon="4.564970">
						<ele>825</ele>
						<time>2025-08-13T08:38:44Z</time>
					</trkpt>
					<trkpt lat="45.714910" lon="4.567010">
						<ele>815</ele>
						<time>2025-08-13T08:39:10Z</time>
					</trkpt>
					<trkpt lat="45.714840" lon="4.567540">
						<ele>810</ele>
						<time>2025-08-13T08:39:17Z</time>
					</trkpt>
					<trkpt lat="45.714670" lon="4.568170">
						<ele>805</ele>
						<time>2025-08-13T08:39:25Z</time>
					</trkpt>
					<trkpt lat="45.714630" lon="4.569050">
						<ele>798</ele>
						<time>2025-08-13T08:39:36Z</time>
					</trkpt>
					<trkpt lat="45.714710" lon="4.569390">
						<ele>797</ele>
						<time>2025-08-13T08:39:41Z</time>
					</trkpt>
					<trkpt lat="45.715120" lon="4.570530">
						<ele>792</ele>
						<time>2025-08-13T08:39:57Z</time>
					</trkpt>
					<trkpt lat="45.715310" lon="4.571490">
						<ele>785</ele>
						<time>2025-08-13T08:40:09Z</time>
					</trkpt>
					<trkpt lat="45.715420" lon="4.571920">
						<ele>781</ele>
						<time>2025-08-13T08:40:15Z</time>
					</trkpt>
					<trkpt lat="45.715610" lon="4.572160">
						<ele>780</ele>
						<time>2025-08-13T08:40:19Z</time>
					</trkpt>
					<trkpt lat="45.715720" lon="4.572180">
						<ele>781</ele>
						<time>2025-08-13T08:40:21Z</time>
					</trkpt>
					<trkpt lat="45.715890" lon="4.572160">
						<ele>781</ele>
						<time>2025-08-13T08:40:24Z</time>
					</trkpt>
					<trkpt lat="45.717420" lon="4.571450">
						<ele>774</ele>
						<time>2025-08-13T08:40:53Z</time>
					</trkpt>
					<trkpt lat="45.717720" lon="4.571280">
						<ele>772</ele>
						<time>2025-08-13T08:40:59Z</time>
					</trkpt>
					<trkpt lat="45.717890" lon="4.571130">
						<ele>772</ele>
						<time>2025-08-13T08:41:02Z</time>
					</trkpt>
					<trkpt lat="45.718150" lon="4.570830">
						<ele>771</ele>
						<time>2025-08-13T08:41:08Z</time>
					</trkpt>
					<trkpt lat="45.718340" lon="4.570700">
						<ele>769</ele>
						<time>2025-08-13T08:41:12Z</time>
					</trkpt>
					<trkpt lat="45.718490" lon="4.570720">
						<ele>770</ele>
						<time>2025-08-13T08:41:15Z</time>
					</trkpt>
					<trkpt lat="45.718620" lon="4.570780">
						<ele>770</ele>
						<time>2025-08-13T08:41:17Z</time>
					</trkpt>
					<trkpt lat="45.718700" lon="4.570890">
						<ele>769</ele>
						<time>2025-08-13T08:41:19Z</time>
					</trkpt>
					<trkpt lat="45.718750" lon="4.571020">
						<ele>769</ele>
						<time>2025-08-13T08:41:21Z</time>
					</trkpt>
					<trkpt lat="45.718770" lon="4.571240">
						<ele>769</ele>
						<time>2025-08-13T08:41:24Z</time>
					</trkpt>
					<trkpt lat="45.718600" lon="4.571730">
						<ele>766</ele>
						<time>2025-08-13T08:41:30Z</time>
					</trkpt>
					<trkpt lat="45.718270" lon="4.572440">
						<ele>763</ele>
						<time>2025-08-13T08:41:41Z</time>
					</trkpt>
					<trkpt lat="45.718150" lon="4.572650">
						<ele>763</ele>
						<time>2025-08-13T08:41:44Z</time>
					</trkpt>
					<trkpt lat="45.718020" lon="4.572780">
						<ele>763</ele>
						<time>2025-08-13T08:41:47Z</time>
					</trkpt>
					<trkpt lat="45.717070" lon="4.573230">
						<ele>759</ele>
						<time>2025-08-13T08:42:05Z</time>
					</trkpt>
					<trkpt lat="45.715720" lon="4.574520">
						<ele>752</ele>
						<time>2025-08-13T08:42:34Z</time>
					</trkpt>
					<trkpt lat="45.715310" lon="4.575010">
						<ele>747</ele>
						<time>2025-08-13T08:42:43Z</time>
					</trkpt>
					<trkpt lat="45.715160" lon="4.575250">
						<ele>746</ele>
						<time>2025-08-13T08:42:47Z</time>
					</trkpt>
					<trkpt lat="45.714990" lon="4.575680">
						<ele>745</ele>
						<time>2025-08-13T08:42:54Z</time>
					</trkpt>
					<trkpt lat="45.714760" lon="4.576490">
						<ele>745</ele>
						<time>2025-08-13T08:43:04Z</time>
					</trkpt>
					<trkpt lat="45.714730" lon="4.576880">
						<ele>746</ele>
						<time>2025-08-13T08:43:09Z</time>
					</trkpt>
					<trkpt lat="45.714910" lon="4.577570">
						<ele>751</ele>
						<time>2025-08-13T08:43:18Z</time>
					</trkpt>
					<trkpt lat="45.714880" lon="4.577890">
						<ele>753</ele>
						<time>2025-08-13T08:43:22Z</time>
					</trkpt>
					<trkpt lat="45.714760" lon="4.578020">
						<ele>754</ele>
						<time>2025-08-13T08:43:25Z</time>
					</trkpt>
					<trkpt lat="45.714670" lon="4.578040">
						<ele>754</ele>
						<time>2025-08-13T08:43:27Z</time>
					</trkpt>
					<trkpt lat="45.714410" lon="4.577910">
						<ele>753</ele>
						<time>2025-08-13T08:43:32Z</time>
					</trkpt>
					<trkpt lat="45.713980" lon="4.577410">
						<ele>743</ele>
						<time>2025-08-13T08:43:41Z</time>
					</trkpt>
					<trkpt lat="45.713810" lon="4.577350">
						<ele>742</ele>
						<time>2025-08-13T08:43:45Z</time>
					</trkpt>
					<trkpt lat="45.713210" lon="4.577390">
						<ele>740</ele>
						<time>2025-08-13T08:43:55Z</time>
					</trkpt>
					<trkpt lat="45.712740" lon="4.577630">
						<ele>738</ele>
						<time>2025-08-13T08:44:04Z</time>
					</trkpt>
					<trkpt lat="45.712370" lon="4.577990">
						<ele>738</ele>
						<time>2025-08-13T08:44:12Z</time>
					</trkpt>
					<trkpt lat="45.711510" lon="4.579050">
						<ele>732</ele>
						<time>2025-08-13T08:44:32Z</time>
					</trkpt>
					<trkpt lat="45.710940" lon="4.579600">
						<ele>728</ele>
						<time>2025-08-13T08:44:45Z</time>
					</trkpt>
					<trkpt lat="45.710360" lon="4.580100">
						<ele>724</ele>
						<time>2025-08-13T08:44:57Z</time>
					</trkpt>
					<trkpt lat="45.709990" lon="4.580550">
						<ele>721</ele>
						<time>2025-08-13T08:45:05Z</time>
					</trkpt>
					<trkpt lat="45.709580" lon="4.581340">
						<ele>720</ele>
						<time>2025-08-13T08:45:17Z</time>
					</trkpt>
					<trkpt lat="45.709430" lon="4.581790">
						<ele>719</ele>
						<time>2025-08-13T08:45:24Z</time>
					</trkpt>
					<trkpt lat="45.708850" lon="4.583720">
						<ele>712</ele>
						<time>2025-08-13T08:45:50Z</time>
					</trkpt>
					<trkpt lat="45.708400" lon="4.585480">
						<ele>705</ele>
						<time>2025-08-13T08:46:13Z</time>
					</trkpt>
					<trkpt lat="45.708320" lon="4.585980">
						<ele>704</ele>
						<time>2025-08-13T08:46:19Z</time>
					</trkpt>
					<trkpt lat="45.708150" lon="4.587540">
						<ele>705</ele>
						<time>2025-08-13T08:46:39Z</time>
					</trkpt>
					<trkpt lat="45.708040" lon="4.588830">
						<ele>703</ele>
						<time>2025-08-13T08:46:55Z</time>
					</trkpt>
					<trkpt lat="45.708060" lon="4.589090">
						<ele>702</ele>
						<time>2025-08-13T08:46:58Z</time>
					</trkpt>
					<trkpt lat="45.708120" lon="4.589240">
						<ele>702</ele>
						<time>2025-08-13T08:47:01Z</time>
					</trkpt>
					<trkpt lat="45.708810" lon="4.589900">
						<ele>702</ele>
						<time>2025-08-13T08:47:15Z</time>
					</trkpt>
					<trkpt lat="45.709580" lon="4.590870">
						<ele>695</ele>
						<time>2025-08-13T08:47:34Z</time>
					</trkpt>
					<trkpt lat="45.710160" lon="4.591510">
						<ele>682</ele>
						<time>2025-08-13T08:47:47Z</time>
					</trkpt>
					<trkpt lat="45.710460" lon="4.591940">
						<ele>677</ele>
						<time>2025-08-13T08:47:54Z</time>
					</trkpt>
					<trkpt lat="45.710720" lon="4.592410">
						<ele>671</ele>
						<time>2025-08-13T08:48:02Z</time>
					</trkpt>
					<trkpt lat="45.710850" lon="4.592840">
						<ele>661</ele>
						<time>2025-08-13T08:48:07Z</time>
					</trkpt>
					<trkpt lat="45.711040" lon="4.593160">
						<ele>654</ele>
						<time>2025-08-13T08:48:13Z</time>
					</trkpt>
					<trkpt lat="45.711210" lon="4.593290">
						<ele>652</ele>
						<time>2025-08-13T08:48:16Z</time>
					</trkpt>
					<trkpt lat="45.711320" lon="4.593290">
						<ele>653</ele>
						<time>2025-08-13T08:48:18Z</time>
					</trkpt>
					<trkpt lat="45.711450" lon="4.593230">
						<ele>656</ele>
						<time>2025-08-13T08:48:20Z</time>
					</trkpt>
					<trkpt lat="45.711990" lon="4.592630">
						<ele>670</ele>
						<time>2025-08-13T08:48:33Z</time>
					</trkpt>
					<trkpt lat="45.712390" lon="4.592390">
						<ele>669</ele>
						<time>2025-08-13T08:48:40Z</time>
					</trkpt>
					<trkpt lat="45.712760" lon="4.592330">
						<ele>667</ele>
						<time>2025-08-13T08:48:47Z</time>
					</trkpt>
					<trkpt lat="45.713060" lon="4.592370">
						<ele>664</ele>
						<time>2025-08-13T08:48:52Z</time>
					</trkpt>
					<trkpt lat="45.713210" lon="4.592460">
						<ele>661</ele>
						<time>2025-08-13T08:48:55Z</time>
					</trkpt>
					<trkpt lat="45.713320" lon="4.592610">
						<ele>658</ele>
						<time>2025-08-13T08:48:58Z</time>
					</trkpt>
					<trkpt lat="45.713400" lon="4.592800">
						<ele>658</ele>
						<time>2025-08-13T08:49:01Z</time>
					</trkpt>
					<trkpt lat="45.713450" lon="4.593120">
						<ele>657</ele>
						<time>2025-08-13T08:49:05Z</time>
					</trkpt>
					<trkpt lat="45.713490" lon="4.594520">
						<ele>651</ele>
						<time>2025-08-13T08:49:22Z</time>
					</trkpt>
					<trkpt lat="45.713360" lon="4.595440">
						<ele>645</ele>
						<time>2025-08-13T08:49:34Z</time>
					</trkpt>
					<trkpt lat="45.713150" lon="4.596380">
						<ele>637</ele>
						<time>2025-08-13T08:49:46Z</time>
					</trkpt>
					<trkpt lat="45.713150" lon="4.596920">
						<ele>635</ele>
						<time>2025-08-13T08:49:53Z</time>
					</trkpt>
					<trkpt lat="45.713250" lon="4.597310">
						<ele>634</ele>
						<time>2025-08-13T08:49:58Z</time>
					</trkpt>
					<trkpt lat="45.713400" lon="4.597650">
						<ele>633</ele>
						<time>2025-08-13T08:50:03Z</time>
					</trkpt>
					<trkpt lat="45.714050" lon="4.598460">
						<ele>636</ele>
						<time>2025-08-13T08:50:18Z</time>
					</trkpt>
					<trkpt lat="45.714180" lon="4.598810">
						<ele>631</ele>
						<time>2025-08-13T08:50:23Z</time>
					</trkpt>
					<trkpt lat="45.714860" lon="4.600350">
						<ele>614</ele>
						<time>2025-08-13T08:50:46Z</time>
					</trkpt>
					<trkpt lat="45.714970" lon="4.600520">
						<ele>614</ele>
						<time>2025-08-13T08:50:49Z</time>
					</trkpt>
					<trkpt lat="45.715120" lon="4.600570">
						<ele>612</ele>
						<time>2025-08-13T08:50:51Z</time>
					</trkpt>
					<trkpt lat="45.715250" lon="4.600520">
						<ele>613</ele>
						<time>2025-08-13T08:50:54Z</time>
					</trkpt>
					<trkpt lat="45.716020" lon="4.599730">
						<ele>626</ele>
						<time>2025-08-13T08:51:11Z</time>
					</trkpt>
					<trkpt lat="45.716240" lon="4.599560">
						<ele>627</ele>
						<time>2025-08-13T08:51:15Z</time>
					</trkpt>
					<trkpt lat="45.716920" lon="4.599390">
						<ele>623</ele>
						<time>2025-08-13T08:51:27Z</time>
					</trkpt>
					<trkpt lat="45.717350" lon="4.599410">
						<ele>622</ele>
						<time>2025-08-13T08:51:35Z</time>
					</trkpt>
					<trkpt lat="45.717460" lon="4.599490">
						<ele>621</ele>
						<time>2025-08-13T08:51:37Z</time>
					</trkpt>
					<trkpt lat="45.717500" lon="4.599750">
						<ele>616</ele>
						<time>2025-08-13T08:51:41Z</time>
					</trkpt>
					<trkpt lat="45.717500" lon="4.600140">
						<ele>610</ele>
						<time>2025-08-13T08:51:45Z</time>
					</trkpt>
					<trkpt lat="45.717440" lon="4.600870">
						<ele>602</ele>
						<time>2025-08-13T08:51:55Z</time>
					</trkpt>
					<trkpt lat="45.717480" lon="4.601380">
						<ele>602</ele>
						<time>2025-08-13T08:52:01Z</time>
					</trkpt>
					<trkpt lat="45.717480" lon="4.602280">
						<ele>595</ele>
						<time>2025-08-13T08:52:12Z</time>
					</trkpt>
					<trkpt lat="45.717540" lon="4.602650">
						<ele>592</ele>
						<time>2025-08-13T08:52:17Z</time>
					</trkpt>
					<trkpt lat="45.717760" lon="4.603080">
						<ele>590</ele>
						<time>2025-08-13T08:52:23Z</time>
					</trkpt>
					<trkpt lat="45.717950" lon="4.603340">
						<ele>588</ele>
						<time>2025-08-13T08:52:28Z</time>
					</trkpt>
					<trkpt lat="45.718380" lon="4.603720">
						<ele>589</ele>
						<time>2025-08-13T08:52:37Z</time>
					</trkpt>
					<trkpt lat="45.718920" lon="4.603870">
						<ele>595</ele>
						<time>2025-08-13T08:52:47Z</time>
					</trkpt>
					<trkpt lat="45.719050" lon="4.603980">
						<ele>596</ele>
						<time>2025-08-13T08:52:50Z</time>
					</trkpt>
					<trkpt lat="45.719090" lon="4.604190">
						<ele>593</ele>
						<time>2025-08-13T08:52:52Z</time>
					</trkpt>
					<trkpt lat="45.719090" lon="4.604580">
						<ele>593</ele>
						<time>2025-08-13T08:52:57Z</time>
					</trkpt>
					<trkpt lat="45.719050" lon="4.604840">
						<ele>592</ele>
						<time>2025-08-13T08:53:00Z</time>
					</trkpt>
					<trkpt lat="45.718900" lon="4.605010">
						<ele>588</ele>
						<time>2025-08-13T08:53:04Z</time>
					</trkpt>
					<trkpt lat="45.718250" lon="4.605290">
						<ele>576</ele>
						<time>2025-08-13T08:53:16Z</time>
					</trkpt>
					<trkpt lat="45.718040" lon="4.605460">
						<ele>575</ele>
						<time>2025-08-13T08:53:20Z</time>
					</trkpt>
					<trkpt lat="45.717910" lon="4.605780">
						<ele>574</ele>
						<time>2025-08-13T08:53:25Z</time>
					</trkpt>
					<trkpt lat="45.717970" lon="4.606130">
						<ele>571</ele>
						<time>2025-08-13T08:53:29Z</time>
					</trkpt>
					<trkpt lat="45.718080" lon="4.606340">
						<ele>571</ele>
						<time>2025-08-13T08:53:33Z</time>
					</trkpt>
					<trkpt lat="45.718340" lon="4.606660">
						<ele>573</ele>
						<time>2025-08-13T08:53:39Z</time>
					</trkpt>
					<trkpt lat="45.718830" lon="4.607130">
						<ele>579</ele>
						<time>2025-08-13T08:53:49Z</time>
					</trkpt>
					<trkpt lat="45.719480" lon="4.608100">
						<ele>577</ele>
						<time>2025-08-13T08:54:06Z</time>
					</trkpt>
					<trkpt lat="45.720230" lon="4.609070">
						<ele>572</ele>
						<time>2025-08-13T08:54:24Z</time>
					</trkpt>
					<trkpt lat="45.720480" lon="4.609540">
						<ele>572</ele>
						<time>2025-08-13T08:54:31Z</time>
					</trkpt>
					<trkpt lat="45.720630" lon="4.609990">
						<ele>570</ele>
						<time>2025-08-13T08:54:37Z</time>
					</trkpt>
					<trkpt lat="45.720590" lon="4.610160">
						<ele>571</ele>
						<time>2025-08-13T08:54:40Z</time>
					</trkpt>
					<trkpt lat="45.720480" lon="4.610290">
						<ele>572</ele>
						<time>2025-08-13T08:54:42Z</time>
					</trkpt>
					<trkpt lat="45.720290" lon="4.610310">
						<ele>571</ele>
						<time>2025-08-13T08:54:46Z</time>
					</trkpt>
					<trkpt lat="45.720080" lon="4.610270">
						<ele>570</ele>
						<time>2025-08-13T08:54:49Z</time>
					</trkpt>
					<trkpt lat="45.719600" lon="4.609970">
						<ele>569</ele>
						<time>2025-08-13T08:54:59Z</time>
					</trkpt>
					<trkpt lat="45.719070" lon="4.609490">
						<ele>565</ele>
						<time>2025-08-13T08:55:10Z</time>
					</trkpt>
					<trkpt lat="45.718450" lon="4.609090">
						<ele>561</ele>
						<time>2025-08-13T08:55:22Z</time>
					</trkpt>
					<trkpt lat="45.718120" lon="4.608960">
						<ele>559</ele>
						<time>2025-08-13T08:55:28Z</time>
					</trkpt>
					<trkpt lat="45.717120" lon="4.608760">
						<ele>557</ele>
						<time>2025-08-13T08:55:46Z</time>
					</trkpt>
					<trkpt lat="45.716260" lon="4.608550">
						<ele>550</ele>
						<time>2025-08-13T08:56:01Z</time>
					</trkpt>
					<trkpt lat="45.715910" lon="4.608660">
						<ele>550</ele>
						<time>2025-08-13T08:56:08Z</time>
					</trkpt>
					<trkpt lat="45.715760" lon="4.608830">
						<ele>549</ele>
						<time>2025-08-13T08:56:11Z</time>
					</trkpt>
					<trkpt lat="45.715630" lon="4.609580">
						<ele>551</ele>
						<time>2025-08-13T08:56:21Z</time>
					</trkpt>
					<trkpt lat="45.715630" lon="4.611280">
						<ele>556</ele>
						<time>2025-08-13T08:56:42Z</time>
					</trkpt>
					<trkpt lat="45.715570" lon="4.612350">
						<ele>559</ele>
						<time>2025-08-13T08:56:55Z</time>
					</trkpt>
					<trkpt lat="45.715480" lon="4.612670">
						<ele>559</ele>
						<time>2025-08-13T08:57:00Z</time>
					</trkpt>
					<trkpt lat="45.715360" lon="4.612840">
						<ele>557</ele>
						<time>2025-08-13T08:57:03Z</time>
					</trkpt>
					<trkpt lat="45.714950" lon="4.613180">
						<ele>548</ele>
						<time>2025-08-13T08:57:11Z</time>
					</trkpt>
					<trkpt lat="45.714840" lon="4.613380">
						<ele>546</ele>
						<time>2025-08-13T08:57:14Z</time>
					</trkpt>
					<trkpt lat="45.714800" lon="4.613610">
						<ele>545</ele>
						<time>2025-08-13T08:57:17Z</time>
					</trkpt>
					<trkpt lat="45.714860" lon="4.615670">
						<ele>544</ele>
						<time>2025-08-13T08:57:43Z</time>
					</trkpt>
					<trkpt lat="45.715010" lon="4.616620">
						<ele>543</ele>
						<time>2025-08-13T08:57:55Z</time>
					</trkpt>
					<trkpt lat="45.715590" lon="4.617460">
						<ele>539</ele>
						<time>2025-08-13T08:58:10Z</time>
					</trkpt>
					<trkpt lat="45.716580" lon="4.618310">
						<ele>537</ele>
						<time>2025-08-13T08:58:30Z</time>
					</trkpt>
					<trkpt lat="45.716770" lon="4.618420">
						<ele>536</ele>
						<time>2025-08-13T08:58:34Z</time>
					</trkpt>
					<trkpt lat="45.717030" lon="4.618400">
						<ele>535</ele>
						<time>2025-08-13T08:58:38Z</time>
					</trkpt>
					<trkpt lat="45.718120" lon="4.618140">
						<ele>535</ele>
						<time>2025-08-13T08:58:58Z</time>
					</trkpt>
					<trkpt lat="45.718620" lon="4.617880">
						<ele>541</ele>
						<time>2025-08-13T08:59:07Z</time>
					</trkpt>
					<trkpt lat="45.718700" lon="4.617910">
						<ele>541</ele>
						<time>2025-08-13T08:59:09Z</time>
					</trkpt>
					<trkpt lat="45.718830" lon="4.618080">
						<ele>540</ele>
						<time>2025-08-13T08:59:12Z</time>
					</trkpt>
					<trkpt lat="45.718850" lon="4.618440">
						<ele>537</ele>
						<time>2025-08-13T08:59:17Z</time>
					</trkpt>
					<trkpt lat="45.718790" lon="4.619790">
						<ele>529</ele>
						<time>2025-08-13T08:59:33Z</time>
					</trkpt>
					<trkpt lat="45.718790" lon="4.620480">
						<ele>527</ele>
						<time>2025-08-13T08:59:42Z</time>
					</trkpt>
					<trkpt lat="45.718830" lon="4.620700">
						<ele>526</ele>
						<time>2025-08-13T08:59:45Z</time>
					</trkpt>
					<trkpt lat="45.718900" lon="4.620820">
						<ele>527</ele>
						<time>2025-08-13T08:59:47Z</time>
					</trkpt>
					<trkpt lat="45.719030" lon="4.620950">
						<ele>527</ele>
						<time>2025-08-13T08:59:50Z</time>
					</trkpt>
					<trkpt lat="45.720180" lon="4.620870">
						<ele>523</ele>
						<time>2025-08-13T09:00:10Z</time>
					</trkpt>
					<trkpt lat="45.720380" lon="4.620780">
						<ele>523</ele>
						<time>2025-08-13T09:00:14Z</time>
					</trkpt>
					<trkpt lat="45.720570" lon="4.620630">
						<ele>524</ele>
						<time>2025-08-13T09:00:18Z</time>
					</trkpt>
					<trkpt lat="45.720720" lon="4.620440">
						<ele>527</ele>
						<time>2025-08-13T09:00:21Z</time>
					</trkpt>
					<trkpt lat="45.720910" lon="4.619970">
						<ele>539</ele>
						<time>2025-08-13T09:00:28Z</time>
					</trkpt>
					<trkpt lat="45.721020" lon="4.619900">
						<ele>540</ele>
						<time>2025-08-13T09:00:30Z</time>
					</trkpt>
					<trkpt lat="45.721240" lon="4.619860">
						<ele>539</ele>
						<time>2025-08-13T09:00:34Z</time>
					</trkpt>
					<trkpt lat="45.721770" lon="4.619940">
						<ele>528</ele>
						<time>2025-08-13T09:00:43Z</time>
					</trkpt>
					<trkpt lat="45.721990" lon="4.619860">
						<ele>529</ele>
						<time>2025-08-13T09:00:48Z</time>
					</trkpt>
					<trkpt lat="45.722500" lon="4.619470">
						<ele>535</ele>
						<time>2025-08-13T09:00:58Z</time>
					</trkpt>
					<trkpt lat="45.722740" lon="4.619490">
						<ele>539</ele>
						<time>2025-08-13T09:01:02Z</time>
					</trkpt>
					<trkpt lat="45.722910" lon="4.619790">
						<ele>535</ele>
						<time>2025-08-13T09:01:07Z</time>
					</trkpt>
					<trkpt lat="45.722910" lon="4.620740">
						<ele>520</ele>
						<time>2025-08-13T09:01:19Z</time>
					</trkpt>
					<trkpt lat="45.723250" lon="4.622090">
						<ele>518</ele>
						<time>2025-08-13T09:01:36Z</time>
					</trkpt>
					<trkpt lat="45.723660" lon="4.622800">
						<ele>518</ele>
						<time>2025-08-13T09:01:48Z</time>
					</trkpt>
					<trkpt lat="45.723920" lon="4.623380">
						<ele>512</ele>
						<time>2025-08-13T09:01:57Z</time>
					</trkpt>
					<trkpt lat="45.724350" lon="4.624810">
						<ele>506</ele>
						<time>2025-08-13T09:02:16Z</time>
					</trkpt>
					<trkpt lat="45.724410" lon="4.624900">
						<ele>505</ele>
						<time>2025-08-13T09:02:17Z</time>
					</trkpt>
					<trkpt lat="45.724600" lon="4.624990">
						<ele>505</ele>
						<time>2025-08-13T09:02:21Z</time>
					</trkpt>
					<trkpt lat="45.724750" lon="4.624920">
						<ele>506</ele>
						<time>2025-08-13T09:02:24Z</time>
					</trkpt>
					<trkpt lat="45.724860" lon="4.624810">
						<ele>507</ele>
						<time>2025-08-13T09:02:26Z</time>
					</trkpt>
					<trkpt lat="45.724930" lon="4.624660">
						<ele>508</ele>
						<time>2025-08-13T09:02:28Z</time>
					</trkpt>
					<trkpt lat="45.725290" lon="4.623420">
						<ele>513</ele>
						<time>2025-08-13T09:02:45Z</time>
					</trkpt>
					<trkpt lat="45.725530" lon="4.622950">
						<ele>518</ele>
						<time>2025-08-13T09:02:52Z</time>
					</trkpt>
					<trkpt lat="45.725720" lon="4.622800">
						<ele>517</ele>
						<time>2025-08-13T09:02:56Z</time>
					</trkpt>
					<trkpt lat="45.725890" lon="4.622880">
						<ele>514</ele>
						<time>2025-08-13T09:02:59Z</time>
					</trkpt>
					<trkpt lat="45.726190" lon="4.623360">
						<ele>507</ele>
						<time>2025-08-13T09:03:07Z</time>
					</trkpt>
					<trkpt lat="45.726320" lon="4.623420">
						<ele>507</ele>
						<time>2025-08-13T09:03:10Z</time>
					</trkpt>
					<trkpt lat="45.726660" lon="4.623440">
						<ele>509</ele>
						<time>2025-08-13T09:03:16Z</time>
					</trkpt>
					<trkpt lat="45.726840" lon="4.623660">
						<ele>510</ele>
						<time>2025-08-13T09:03:20Z</time>
					</trkpt>
					<trkpt lat="45.726920" lon="4.623850">
						<ele>509</ele>
						<time>2025-08-13T09:03:23Z</time>
					</trkpt>
					<trkpt lat="45.727030" lon="4.624300">
						<ele>505</ele>
						<time>2025-08-13T09:03:29Z</time>
					</trkpt>
					<trkpt lat="45.727160" lon="4.625140">
						<ele>495</ele>
						<time>2025-08-13T09:03:39Z</time>
					</trkpt>
					<trkpt lat="45.727260" lon="4.625330">
						<ele>494</ele>
						<time>2025-08-13T09:03:42Z</time>
					</trkpt>
					<trkpt lat="45.727420" lon="4.625390">
						<ele>495</ele>
						<time>2025-08-13T09:03:45Z</time>
					</trkpt>
					<trkpt lat="45.727610" lon="4.625390">
						<ele>495</ele>
						<time>2025-08-13T09:03:49Z</time>
					</trkpt>
					<trkpt lat="45.727890" lon="4.625240">
						<ele>496</ele>
						<time>2025-08-13T09:03:54Z</time>
					</trkpt>
					<trkpt lat="45.728230" lon="4.625010">
						<ele>497</ele>
						<time>2025-08-13T09:04:01Z</time>
					</trkpt>
					<trkpt lat="45.728720" lon="4.624470">
						<ele>509</ele>
						<time>2025-08-13T09:04:12Z</time>
					</trkpt>
					<trkpt lat="45.729480" lon="4.624020">
						<ele>512</ele>
						<time>2025-08-13T09:04:26Z</time>
					</trkpt>
					<trkpt lat="45.729710" lon="4.623910">
						<ele>513</ele>
						<time>2025-08-13T09:04:31Z</time>
					</trkpt>
					<trkpt lat="45.729800" lon="4.623910">
						<ele>512</ele>
						<time>2025-08-13T09:04:32Z</time>
					</trkpt>
					<trkpt lat="45.729880" lon="4.624060">
						<ele>508</ele>
						<time>2025-08-13T09:04:35Z</time>
					</trkpt>
					<trkpt lat="45.729860" lon="4.624210">
						<ele>507</ele>
						<time>2025-08-13T09:04:36Z</time>
					</trkpt>
					<trkpt lat="45.729710" lon="4.624640">
						<ele>506</ele>
						<time>2025-08-13T09:04:42Z</time>
					</trkpt>
					<trkpt lat="45.729170" lon="4.625760">
						<ele>499</ele>
						<time>2025-08-13T09:04:59Z</time>
					</trkpt>
					<trkpt lat="45.727610" lon="4.627390">
						<ele>488</ele>
						<time>2025-08-13T09:05:34Z</time>
					</trkpt>
					<trkpt lat="45.726360" lon="4.629040">
						<ele>481</ele>
						<time>2025-08-13T09:06:04Z</time>
					</trkpt>
					<trkpt lat="45.725960" lon="4.629620">
						<ele>481</ele>
						<time>2025-08-13T09:06:14Z</time>
					</trkpt>
					<trkpt lat="45.725250" lon="4.630480">
						<ele>476</ele>
						<time>2025-08-13T09:06:31Z</time>
					</trkpt>
					<trkpt lat="45.725010" lon="4.630950">
						<ele>477</ele>
						<time>2025-08-13T09:06:38Z</time>
					</trkpt>
					<trkpt lat="45.724840" lon="4.631600">
						<ele>482</ele>
						<time>2025-08-13T09:06:46Z</time>
					</trkpt>
					<trkpt lat="45.724690" lon="4.631790">
						<ele>481</ele>
						<time>2025-08-13T09:06:50Z</time>
					</trkpt>
					<trkpt lat="45.724410" lon="4.631940">
						<ele>476</ele>
						<time>2025-08-13T09:06:55Z</time>
					</trkpt>
					<trkpt lat="45.723660" lon="4.632970">
						<ele>477</ele>
						<time>2025-08-13T09:07:14Z</time>
					</trkpt>
					<trkpt lat="45.723230" lon="4.633360">
						<ele>475</ele>
						<time>2025-08-13T09:07:23Z</time>
					</trkpt>
					<trkpt lat="45.722890" lon="4.633720">
						<ele>474</ele>
						<time>2025-08-13T09:07:30Z</time>
					</trkpt>
					<trkpt lat="45.722740" lon="4.634020">
						<ele>474</ele>
						<time>2025-08-13T09:07:35Z</time>
					</trkpt>
					<trkpt lat="45.722690" lon="4.634470">
						<ele>473</ele>
						<time>2025-08-13T09:07:41Z</time>
					</trkpt>
					<trkpt lat="45.722740" lon="4.634860">
						<ele>473</ele>
						<time>2025-08-13T09:07:46Z</time>
					</trkpt>
					<trkpt lat="45.722870" lon="4.635180">
						<ele>471</ele>
						<time>2025-08-13T09:07:50Z</time>
					</trkpt>
					<trkpt lat="45.723060" lon="4.635460">
						<ele>469</ele>
						<time>2025-08-13T09:07:55Z</time>
					</trkpt>
					<trkpt lat="45.723680" lon="4.636080">
						<ele>468</ele>
						<time>2025-08-13T09:08:09Z</time>
					</trkpt>
					<trkpt lat="45.724000" lon="4.636600">
						<ele>464</ele>
						<time>2025-08-13T09:08:17Z</time>
					</trkpt>
					<trkpt lat="45.724170" lon="4.636830">
						<ele>463</ele>
						<time>2025-08-13T09:08:21Z</time>
					</trkpt>
					<trkpt lat="45.724370" lon="4.636980">
						<ele>462</ele>
						<time>2025-08-13T09:08:25Z</time>
					</trkpt>
					<trkpt lat="45.724840" lon="4.637110">
						<ele>464</ele>
						<time>2025-08-13T09:08:34Z</time>
					</trkpt>
					<trkpt lat="45.725230" lon="4.637000">
						<ele>471</ele>
						<time>2025-08-13T09:08:41Z</time>
					</trkpt>
					<trkpt lat="45.725380" lon="4.637050">
						<ele>472</ele>
						<time>2025-08-13T09:08:44Z</time>
					</trkpt>
					<trkpt lat="45.725420" lon="4.637150">
						<ele>471</ele>
						<time>2025-08-13T09:08:45Z</time>
					</trkpt>
					<trkpt lat="45.725440" lon="4.637410">
						<ele>467</ele>
						<time>2025-08-13T09:08:48Z</time>
					</trkpt>
					<trkpt lat="45.725140" lon="4.638100">
						<ele>457</ele>
						<time>2025-08-13T09:08:58Z</time>
					</trkpt>
					<trkpt lat="45.725100" lon="4.638530">
						<ele>454</ele>
						<time>2025-08-13T09:09:04Z</time>
					</trkpt>
					<trkpt lat="45.725140" lon="4.638740">
						<ele>453</ele>
						<time>2025-08-13T09:09:06Z</time>
					</trkpt>
					<trkpt lat="45.725460" lon="4.639470">
						<ele>450</ele>
						<time>2025-08-13T09:09:17Z</time>
					</trkpt>
					<trkpt lat="45.725550" lon="4.639620">
						<ele>451</ele>
						<time>2025-08-13T09:09:20Z</time>
					</trkpt>
					<trkpt lat="45.725890" lon="4.639940">
						<ele>454</ele>
						<time>2025-08-13T09:09:27Z</time>
					</trkpt>
					<trkpt lat="45.725930" lon="4.640090">
						<ele>454</ele>
						<time>2025-08-13T09:09:29Z</time>
					</trkpt>
					<trkpt lat="45.725930" lon="4.640290">
						<ele>453</ele>
						<time>2025-08-13T09:09:31Z</time>
					</trkpt>
					<trkpt lat="45.725870" lon="4.640590">
						<ele>451</ele>
						<time>2025-08-13T09:09:35Z</time>
					</trkpt>
					<trkpt lat="45.725740" lon="4.640890">
						<ele>449</ele>
						<time>2025-08-13T09:09:40Z</time>
					</trkpt>
					<trkpt lat="45.725610" lon="4.641120">
						<ele>448</ele>
						<time>2025-08-13T09:09:43Z</time>
					</trkpt>
					<trkpt lat="45.725290" lon="4.641440">
						<ele>446</ele>
						<time>2025-08-13T09:09:50Z</time>
					</trkpt>
					<trkpt lat="45.725120" lon="4.641510">
						<ele>445</ele>
						<time>2025-08-13T09:09:53Z</time>
					</trkpt>
					<trkpt lat="45.724690" lon="4.641530">
						<ele>442</ele>
						<time>2025-08-13T09:10:01Z</time>
					</trkpt>
					<trkpt lat="45.724520" lon="4.641620">
						<ele>442</ele>
						<time>2025-08-13T09:10:04Z</time>
					</trkpt>
					<trkpt lat="45.724370" lon="4.641830">
						<ele>441</ele>
						<time>2025-08-13T09:10:08Z</time>
					</trkpt>
					<trkpt lat="45.724240" lon="4.642220">
						<ele>439</ele>
						<time>2025-08-13T09:10:13Z</time>
					</trkpt>
					<trkpt lat="45.724130" lon="4.642820">
						<ele>437</ele>
						<time>2025-08-13T09:10:21Z</time>
					</trkpt>
					<trkpt lat="45.724130" lon="4.643180">
						<ele>436</ele>
						<time>2025-08-13T09:10:26Z</time>
					</trkpt>
					<trkpt lat="45.724220" lon="4.643930">
						<ele>435</ele>
						<time>2025-08-13T09:10:35Z</time>
					</trkpt>
					<trkpt lat="45.724300" lon="4.645050">
						<ele>432</ele>
						<time>2025-08-13T09:10:49Z</time>
					</trkpt>
					<trkpt lat="45.724410" lon="4.645520">
						<ele>429</ele>
						<time>2025-08-13T09:10:55Z</time>
					</trkpt>
					<trkpt lat="45.724540" lon="4.645710">
						<ele>429</ele>
						<time>2025-08-13T09:10:58Z</time>
					</trkpt>
					<trkpt lat="45.724860" lon="4.646080">
						<ele>428</ele>
						<time>2025-08-13T09:11:06Z</time>
					</trkpt>
					<trkpt lat="45.725660" lon="4.646510">
						<ele>426</ele>
						<time>2025-08-13T09:11:21Z</time>
					</trkpt>
					<trkpt lat="45.726540" lon="4.646590">
						<ele>428</ele>
						<time>2025-08-13T09:11:37Z</time>
					</trkpt>
					<trkpt lat="45.726660" lon="4.646570">
						<ele>428</ele>
						<time>2025-08-13T09:11:39Z</time>
					</trkpt>
					<trkpt lat="45.726790" lon="4.646510">
						<ele>428</ele>
						<time>2025-08-13T09:11:41Z</time>
					</trkpt>
					<trkpt lat="45.727160" lon="4.646170">
						<ele>430</ele>
						<time>2025-08-13T09:11:49Z</time>
					</trkpt>
					<trkpt lat="45.727330" lon="4.646230">
						<ele>429</ele>
						<time>2025-08-13T09:11:52Z</time>
					</trkpt>
					<trkpt lat="45.727390" lon="4.646380">
						<ele>428</ele>
						<time>2025-08-13T09:11:54Z</time>
					</trkpt>
					<trkpt lat="45.727350" lon="4.646850">
						<ele>425</ele>
						<time>2025-08-13T09:12:00Z</time>
					</trkpt>
					<trkpt lat="45.727240" lon="4.647410">
						<ele>422</ele>
						<time>2025-08-13T09:12:07Z</time>
					</trkpt>
					<trkpt lat="45.726900" lon="4.648440">
						<ele>416</ele>
						<time>2025-08-13T09:12:22Z</time>
					</trkpt>
					<trkpt lat="45.726660" lon="4.648830">
						<ele>413</ele>
						<time>2025-08-13T09:12:28Z</time>
					</trkpt>
					<trkpt lat="45.725610" lon="4.650260">
						<ele>403</ele>
						<time>2025-08-13T09:12:54Z</time>
					</trkpt>
					<trkpt lat="45.725290" lon="4.650970">
						<ele>400</ele>
						<time>2025-08-13T09:13:04Z</time>
					</trkpt>
					<trkpt lat="45.725200" lon="4.651550">
						<ele>400</ele>
						<time>2025-08-13T09:13:12Z</time>
					</trkpt>
					<trkpt lat="45.725250" lon="4.652000">
						<ele>399</ele>
						<time>2025-08-13T09:13:17Z</time>
					</trkpt>
					<trkpt lat="45.725420" lon="4.652540">
						<ele>397</ele>
						<time>2025-08-13T09:13:25Z</time>
					</trkpt>
					<trkpt lat="45.725530" lon="4.652770">
						<ele>395</ele>
						<time>2025-08-13T09:13:28Z</time>
					</trkpt>
					<trkpt lat="45.725660" lon="4.652950">
						<ele>394</ele>
						<time>2025-08-13T09:13:31Z</time>
					</trkpt>
					<trkpt lat="45.726320" lon="4.653630">
						<ele>392</ele>
						<time>2025-08-13T09:13:46Z</time>
					</trkpt>
					<trkpt lat="45.726470" lon="4.653850">
						<ele>392</ele>
						<time>2025-08-13T09:13:50Z</time>
					</trkpt>
					<trkpt lat="45.726540" lon="4.654040">
						<ele>391</ele>
						<time>2025-08-13T09:13:52Z</time>
					</trkpt>
					<trkpt lat="45.726600" lon="4.654750">
						<ele>386</ele>
						<time>2025-08-13T09:14:01Z</time>
					</trkpt>
					<trkpt lat="45.726660" lon="4.655030">
						<ele>385</ele>
						<time>2025-08-13T09:14:05Z</time>
					</trkpt>
					<trkpt lat="45.726900" lon="4.655480">
						<ele>384</ele>
						<time>2025-08-13T09:14:12Z</time>
					</trkpt>
					<trkpt lat="45.728250" lon="4.656620">
						<ele>377</ele>
						<time>2025-08-13T09:14:40Z</time>
					</trkpt>
					<trkpt lat="45.728810" lon="4.656960">
						<ele>374</ele>
						<time>2025-08-13T09:14:51Z</time>
					</trkpt>
					<trkpt lat="45.729520" lon="4.657320">
						<ele>370</ele>
						<time>2025-08-13T09:15:04Z</time>
					</trkpt>
					<trkpt lat="45.730080" lon="4.657710">
						<ele>365</ele>
						<time>2025-08-13T09:15:15Z</time>
					</trkpt>
					<trkpt lat="45.730230" lon="4.657750">
						<ele>364</ele>
						<time>2025-08-13T09:15:18Z</time>
					</trkpt>
					<trkpt lat="45.730530" lon="4.657770">
						<ele>362</ele>
						<time>2025-08-13T09:15:23Z</time>
					</trkpt>
					<trkpt lat="45.730890" lon="4.657690">
						<ele>362</ele>
						<time>2025-08-13T09:15:30Z</time>
					</trkpt>
					<trkpt lat="45.731320" lon="4.657540">
						<ele>360</ele>
						<time>2025-08-13T09:15:38Z</time>
					</trkpt>
					<trkpt lat="45.732050" lon="4.657020">
						<ele>360</ele>
						<time>2025-08-13T09:15:52Z</time>
					</trkpt>
					<trkpt lat="45.732180" lon="4.657110">
						<ele>359</ele>
						<time>2025-08-13T09:15:55Z</time>
					</trkpt>
					<trkpt lat="45.732220" lon="4.657410">
						<ele>358</ele>
						<time>2025-08-13T09:15:58Z</time>
					</trkpt>
					<trkpt lat="45.732160" lon="4.657820">
						<ele>359</ele>
						<time>2025-08-13T09:16:04Z</time>
					</trkpt>
					<trkpt lat="45.731940" lon="4.658370">
						<ele>358</ele>
						<time>2025-08-13T09:16:11Z</time>
					</trkpt>
					<trkpt lat="45.731660" lon="4.658850">
						<ele>358</ele>
						<time>2025-08-13T09:16:19Z</time>
					</trkpt>
					<trkpt lat="45.731530" lon="4.659150">
						<ele>358</ele>
						<time>2025-08-13T09:16:24Z</time>
					</trkpt>
					<trkpt lat="45.731430" lon="4.659790">
						<ele>359</ele>
						<time>2025-08-13T09:16:32Z</time>
					</trkpt>
					<trkpt lat="45.731430" lon="4.660260">
						<ele>360</ele>
						<time>2025-08-13T09:16:38Z</time>
					</trkpt>
					<trkpt lat="45.731320" lon="4.660560">
						<ele>360</ele>
						<time>2025-08-13T09:16:42Z</time>
					</trkpt>
					<trkpt lat="45.730830" lon="4.661400">
						<ele>360</ele>
						<time>2025-08-13T09:16:55Z</time>
					</trkpt>
					<trkpt lat="45.730590" lon="4.662300">
						<ele>363</ele>
						<time>2025-08-13T09:17:07Z</time>
					</trkpt>
					<trkpt lat="45.730180" lon="4.663070">
						<ele>363</ele>
						<time>2025-08-13T09:17:19Z</time>
					</trkpt>
					<trkpt lat="45.730050" lon="4.663670">
						<ele>363</ele>
						<time>2025-08-13T09:17:27Z</time>
					</trkpt>
					<trkpt lat="45.730380" lon="4.666270">
						<ele>365</ele>
						<time>2025-08-13T09:18:00Z</time>
					</trkpt>
					<trkpt lat="45.730530" lon="4.666740">
						<ele>364</ele>
						<time>2025-08-13T09:18:06Z</time>
					</trkpt>
					<trkpt lat="45.731810" lon="4.669430">
						<ele>363</ele>
						<time>2025-08-13T09:18:47Z</time>
					</trkpt>
					<trkpt lat="45.731860" lon="4.669490">
						<ele>363</ele>
						<time>2025-08-13T09:18:48Z</time>
					</trkpt>
					<trkpt lat="45.732070" lon="4.669980">
						<ele>363</ele>
						<time>2025-08-13T09:18:55Z</time>
					</trkpt>
					<trkpt lat="45.732140" lon="4.670090">
						<ele>362</ele>
						<time>2025-08-13T09:18:57Z</time>
					</trkpt>
					<trkpt lat="45.732670" lon="4.671400">
						<ele>362</ele>
						<time>2025-08-13T09:19:16Z</time>
					</trkpt>
					<trkpt lat="45.732720" lon="4.671790">
						<ele>362</ele>
						<time>2025-08-13T09:19:21Z</time>
					</trkpt>
					<trkpt lat="45.732690" lon="4.672280">
						<ele>362</ele>
						<time>2025-08-13T09:19:27Z</time>
					</trkpt>
					<trkpt lat="45.735140" lon="4.669680">
						<ele>379</ele>
						<time>2025-08-13T09:20:21Z</time>
					</trkpt>
					<trkpt lat="45.735330" lon="4.669340">
						<ele>382</ele>
						<time>2025-08-13T09:20:27Z</time>
					</trkpt>
					<trkpt lat="45.735400" lon="4.669100">
						<ele>382</ele>
						<time>2025-08-13T09:20:30Z</time>
					</trkpt>
					<trkpt lat="45.735480" lon="4.668460">
						<ele>385</ele>
						<time>2025-08-13T09:20:38Z</time>
					</trkpt>
					<trkpt lat="45.735440" lon="4.668140">
						<ele>387</ele>
						<time>2025-08-13T09:20:42Z</time>
					</trkpt>
					<trkpt lat="45.735270" lon="4.667900">
						<ele>387</ele>
						<time>2025-08-13T09:20:46Z</time>
					</trkpt>
					<trkpt lat="45.734750" lon="4.667560">
						<ele>389</ele>
						<time>2025-08-13T09:20:56Z</time>
					</trkpt>
					<trkpt lat="45.734580" lon="4.667410">
						<ele>390</ele>
						<time>2025-08-13T09:21:00Z</time>
					</trkpt>
					<trkpt lat="45.733870" lon="4.666360">
						<ele>395</ele>
						<time>2025-08-13T09:21:18Z</time>
					</trkpt>
					<trkpt lat="45.733750" lon="4.665880">
						<ele>397</ele>
						<time>2025-08-13T09:21:24Z</time>
					</trkpt>
					<trkpt lat="45.733750" lon="4.665560">
						<ele>398</ele>
						<time>2025-08-13T09:21:28Z</time>
					</trkpt>
					<trkpt lat="45.733790" lon="4.665240">
						<ele>399</ele>
						<time>2025-08-13T09:21:32Z</time>
					</trkpt>
					<trkpt lat="45.734000" lon="4.664860">
						<ele>401</ele>
						<time>2025-08-13T09:21:38Z</time>
					</trkpt>
					<trkpt lat="45.734470" lon="4.664280">
						<ele>405</ele>
						<time>2025-08-13T09:21:49Z</time>
					</trkpt>
					<trkpt lat="45.734520" lon="4.664190">
						<ele>405</ele>
						<time>2025-08-13T09:21:51Z</time>
					</trkpt>
					<trkpt lat="45.734750" lon="4.664620">
						<ele>408</ele>
						<time>2025-08-13T09:21:58Z</time>
					</trkpt>
					<trkpt lat="45.735030" lon="4.664960">
						<ele>411</ele>
						<time>2025-08-13T09:22:04Z</time>
					</trkpt>
					<trkpt lat="45.735330" lon="4.665240">
						<ele>412</ele>
						<time>2025-08-13T09:22:10Z</time>
					</trkpt>
					<trkpt lat="45.735590" lon="4.665330">
						<ele>413</ele>
						<time>2025-08-13T09:22:15Z</time>
					</trkpt>
					<trkpt lat="45.735780" lon="4.665330">
						<ele>415</ele>
						<time>2025-08-13T09:22:19Z</time>
					</trkpt>
					<trkpt lat="45.736260" lon="4.665160">
						<ele>420</ele>
						<time>2025-08-13T09:22:27Z</time>
					</trkpt>
					<trkpt lat="45.736560" lon="4.665160">
						<ele>423</ele>
						<time>2025-08-13T09:22:33Z</time>
					</trkpt>
					<trkpt lat="45.736750" lon="4.665260">
						<ele>424</ele>
						<time>2025-08-13T09:22:36Z</time>
					</trkpt>
					<trkpt lat="45.737160" lon="4.665610">
						<ele>426</ele>
						<time>2025-08-13T09:22:45Z</time>
					</trkpt>
					<trkpt lat="45.737820" lon="4.666340">
						<ele>429</ele>
						<time>2025-08-13T09:23:00Z</time>
					</trkpt>
					<trkpt lat="45.737890" lon="4.666550">
						<ele>428</ele>
						<time>2025-08-13T09:23:03Z</time>
					</trkpt>
					<trkpt lat="45.738080" lon="4.666960">
						<ele>427</ele>
						<time>2025-08-13T09:23:09Z</time>
					</trkpt>
					<trkpt lat="45.738230" lon="4.667130">
						<ele>427</ele>
						<time>2025-08-13T09:23:12Z</time>
					</trkpt>
					<trkpt lat="45.738870" lon="4.667560">
						<ele>429</ele>
						<time>2025-08-13T09:23:25Z</time>
					</trkpt>
					<trkpt lat="45.739150" lon="4.667620">
						<ele>430</ele>
						<time>2025-08-13T09:23:30Z</time>
					</trkpt>
					<trkpt lat="45.739520" lon="4.667540">
						<ele>427</ele>
						<time>2025-08-13T09:23:36Z</time>
					</trkpt>
					<trkpt lat="45.739800" lon="4.667320">
						<ele>426</ele>
						<time>2025-08-13T09:23:42Z</time>
					</trkpt>
					<trkpt lat="45.741300" lon="4.665460">
						<ele>429</ele>
						<time>2025-08-13T09:24:17Z</time>
					</trkpt>
					<trkpt lat="45.741470" lon="4.664620">
						<ele>432</ele>
						<time>2025-08-13T09:24:28Z</time>
					</trkpt>
					<trkpt lat="45.741580" lon="4.664400">
						<ele>433</ele>
						<time>2025-08-13T09:24:32Z</time>
					</trkpt>
					<trkpt lat="45.741660" lon="4.664300">
						<ele>432</ele>
						<time>2025-08-13T09:24:33Z</time>
					</trkpt>
					<trkpt lat="45.741830" lon="4.664170">
						<ele>432</ele>
						<time>2025-08-13T09:24:37Z</time>
					</trkpt>
					<trkpt lat="45.741980" lon="4.664150">
						<ele>430</ele>
						<time>2025-08-13T09:24:40Z</time>
					</trkpt>
					<trkpt lat="45.742410" lon="4.664170">
						<ele>424</ele>
						<time>2025-08-13T09:24:47Z</time>
					</trkpt>
					<trkpt lat="45.742910" lon="4.664100">
						<ele>422</ele>
						<time>2025-08-13T09:24:56Z</time>
					</trkpt>
					<trkpt lat="45.743320" lon="4.664230">
						<ele>419</ele>
						<time>2025-08-13T09:25:04Z</time>
					</trkpt>
					<trkpt lat="45.744110" lon="4.664550">
						<ele>416</ele>
						<time>2025-08-13T09:25:18Z</time>
					</trkpt>
					<trkpt lat="45.745180" lon="4.664750">
						<ele>416</ele>
						<time>2025-08-13T09:25:37Z</time>
					</trkpt>
					<trkpt lat="45.745480" lon="4.664730">
						<ele>416</ele>
						<time>2025-08-13T09:25:43Z</time>
					</trkpt>
					<trkpt lat="45.745930" lon="4.664550">
						<ele>418</ele>
						<time>2025-08-13T09:25:51Z</time>
					</trkpt>
					<trkpt lat="45.746190" lon="4.664380">
						<ele>418</ele>
						<time>2025-08-13T09:25:56Z</time>
					</trkpt>
					<trkpt lat="45.746580" lon="4.664100">
						<ele>417</ele>
						<time>2025-08-13T09:26:04Z</time>
					</trkpt>
					<trkpt lat="45.746960" lon="4.663670">
						<ele>417</ele>
						<time>2025-08-13T09:26:13Z</time>
					</trkpt>
					<trkpt lat="45.747050" lon="4.663500">
						<ele>418</ele>
						<time>2025-08-13T09:26:15Z</time>
					</trkpt>
					<trkpt lat="45.747160" lon="4.663140">
						<ele>418</ele>
						<time>2025-08-13T09:26:20Z</time>
					</trkpt>
					<trkpt lat="45.747220" lon="4.661870">
						<ele>421</ele>
						<time>2025-08-13T09:26:36Z</time>
					</trkpt>
					<trkpt lat="45.747310" lon="4.661770">
						<ele>420</ele>
						<time>2025-08-13T09:26:38Z</time>
					</trkpt>
					<trkpt lat="45.747370" lon="4.661770">
						<ele>419</ele>
						<time>2025-08-13T09:26:39Z</time>
					</trkpt>
					<trkpt lat="45.747520" lon="4.661830">
						<ele>417</ele>
						<time>2025-08-13T09:26:42Z</time>
					</trkpt>
					<trkpt lat="45.748360" lon="4.663250">
						<ele>419</ele>
						<time>2025-08-13T09:27:05Z</time>
					</trkpt>
					<trkpt lat="45.748830" lon="4.663870">
						<ele>421</ele>
						<time>2025-08-13T09:27:16Z</time>
					</trkpt>
					<trkpt lat="45.749320" lon="4.664450">
						<ele>422</ele>
						<time>2025-08-13T09:27:27Z</time>
					</trkpt>
					<trkpt lat="45.749430" lon="4.664510">
						<ele>422</ele>
						<time>2025-08-13T09:27:30Z</time>
					</trkpt>
					<trkpt lat="45.749710" lon="4.664530">
						<ele>423</ele>
						<time>2025-08-13T09:27:35Z</time>
					</trkpt>
					<trkpt lat="45.750160" lon="4.664340">
						<ele>423</ele>
						<time>2025-08-13T09:27:43Z</time>
					</trkpt>
					<trkpt lat="45.750440" lon="4.664170">
						<ele>422</ele>
						<time>2025-08-13T09:27:48Z</time>
					</trkpt>
					<trkpt lat="45.751510" lon="4.663330">
						<ele>421</ele>
						<time>2025-08-13T09:28:10Z</time>
					</trkpt>
					<trkpt lat="45.751830" lon="4.662920">
						<ele>419</ele>
						<time>2025-08-13T09:28:18Z</time>
					</trkpt>
					<trkpt lat="45.752180" lon="4.662240">
						<ele>416</ele>
						<time>2025-08-13T09:28:28Z</time>
					</trkpt>
					<trkpt lat="45.752580" lon="4.661380">
						<ele>411</ele>
						<time>2025-08-13T09:28:41Z</time>
					</trkpt>
					<trkpt lat="45.752630" lon="4.661160">
						<ele>409</ele>
						<time>2025-08-13T09:28:44Z</time>
					</trkpt>
					<trkpt lat="45.752610" lon="4.660840">
						<ele>408</ele>
						<time>2025-08-13T09:28:48Z</time>
					</trkpt>
					<trkpt lat="45.752500" lon="4.660580">
						<ele>407</ele>
						<time>2025-08-13T09:28:52Z</time>
					</trkpt>
					<trkpt lat="45.752390" lon="4.660460">
						<ele>407</ele>
						<time>2025-08-13T09:28:54Z</time>
					</trkpt>
					<trkpt lat="45.752010" lon="4.660260">
						<ele>407</ele>
						<time>2025-08-13T09:29:01Z</time>
					</trkpt>
					<trkpt lat="45.751810" lon="4.660070">
						<ele>407</ele>
						<time>2025-08-13T09:29:06Z</time>
					</trkpt>
					<trkpt lat="45.751730" lon="4.659920">
						<ele>406</ele>
						<time>2025-08-13T09:29:08Z</time>
					</trkpt>
					<trkpt lat="45.751660" lon="4.659530">
						<ele>403</ele>
						<time>2025-08-13T09:29:13Z</time>
					</trkpt>
					<trkpt lat="45.751680" lon="4.659380">
						<ele>402</ele>
						<time>2025-08-13T09:29:15Z</time>
					</trkpt>
					<trkpt lat="45.751750" lon="4.659150">
						<ele>400</ele>
						<time>2025-08-13T09:29:18Z</time>
					</trkpt>
					<trkpt lat="45.752390" lon="4.658480">
						<ele>398</ele>
						<time>2025-08-13T09:29:32Z</time>
					</trkpt>
					<trkpt lat="45.752650" lon="4.658140">
						<ele>395</ele>
						<time>2025-08-13T09:29:38Z</time>
					</trkpt>
					<trkpt lat="45.752890" lon="4.657900">
						<ele>392</ele>
						<time>2025-08-13T09:29:43Z</time>
					</trkpt>
					<trkpt lat="45.753080" lon="4.657950">
						<ele>390</ele>
						<time>2025-08-13T09:29:47Z</time>
					</trkpt>
					<trkpt lat="45.754880" lon="4.659730">
						<ele>383</ele>
						<time>2025-08-13T09:30:26Z</time>
					</trkpt>
					<trkpt lat="45.755590" lon="4.660130">
						<ele>387</ele>
						<time>2025-08-13T09:30:39Z</time>
					</trkpt>
					<trkpt lat="45.756640" lon="4.660260">
						<ele>394</ele>
						<time>2025-08-13T09:30:58Z</time>
					</trkpt>
					<trkpt lat="45.757520" lon="4.660460">
						<ele>395</ele>
						<time>2025-08-13T09:31:14Z</time>
					</trkpt>
					<trkpt lat="45.758080" lon="4.660480">
						<ele>393</ele>
						<time>2025-08-13T09:31:24Z</time>
					</trkpt>
					<trkpt lat="45.759040" lon="4.660180">
						<ele>390</ele>
						<time>2025-08-13T09:31:41Z</time>
					</trkpt>
					<trkpt lat="45.759300" lon="4.660030">
						<ele>390</ele>
						<time>2025-08-13T09:31:46Z</time>
					</trkpt>
					<trkpt lat="45.759600" lon="4.659600">
						<ele>392</ele>
						<time>2025-08-13T09:31:54Z</time>
					</trkpt>
					<trkpt lat="45.759880" lon="4.659020">
						<ele>395</ele>
						<time>2025-08-13T09:32:03Z</time>
					</trkpt>
					<trkpt lat="45.759990" lon="4.658870">
						<ele>396</ele>
						<time>2025-08-13T09:32:05Z</time>
					</trkpt>
					<trkpt lat="45.760270" lon="4.658740">
						<ele>397</ele>
						<time>2025-08-13T09:32:11Z</time>
					</trkpt>
					<trkpt lat="45.760570" lon="4.658760">
						<ele>397</ele>
						<time>2025-08-13T09:32:16Z</time>
					</trkpt>
					<trkpt lat="45.760700" lon="4.658850">
						<ele>397</ele>
						<time>2025-08-13T09:32:19Z</time>
					</trkpt>
					<trkpt lat="45.760850" lon="4.659000">
						<ele>396</ele>
						<time>2025-08-13T09:32:22Z</time>
					</trkpt>
					<trkpt lat="45.761360" lon="4.660280">
						<ele>402</ele>
						<time>2025-08-13T09:32:40Z</time>
					</trkpt>
					<trkpt lat="45.761490" lon="4.660500">
						<ele>404</ele>
						<time>2025-08-13T09:32:44Z</time>
					</trkpt>
					<trkpt lat="45.761660" lon="4.660670">
						<ele>406</ele>
						<time>2025-08-13T09:32:47Z</time>
					</trkpt>
					<trkpt lat="45.762390" lon="4.660970">
						<ele>413</ele>
						<time>2025-08-13T09:33:01Z</time>
					</trkpt>
					<trkpt lat="45.762690" lon="4.661060">
						<ele>415</ele>
						<time>2025-08-13T09:33:06Z</time>
					</trkpt>
					<trkpt lat="45.762820" lon="4.661060">
						<ele>416</ele>
						<time>2025-08-13T09:33:09Z</time>
					</trkpt>
					<trkpt lat="45.763140" lon="4.660930">
						<ele>419</ele>
						<time>2025-08-13T09:33:15Z</time>
					</trkpt>
					<trkpt lat="45.763980" lon="4.660350">
						<ele>428</ele>
						<time>2025-08-13T09:33:31Z</time>
					</trkpt>
					<trkpt lat="45.764090" lon="4.660330">
						<ele>429</ele>
						<time>2025-08-13T09:33:33Z</time>
					</trkpt>
					<trkpt lat="45.764190" lon="4.660350">
						<ele>429</ele>
						<time>2025-08-13T09:33:35Z</time>
					</trkpt>
					<trkpt lat="45.764940" lon="4.660760">
						<ele>427</ele>
						<time>2025-08-13T09:33:49Z</time>
					</trkpt>
					<trkpt lat="45.765010" lon="4.661010">
						<ele>426</ele>
						<time>2025-08-13T09:33:53Z</time>
					</trkpt>
					<trkpt lat="45.765160" lon="4.661120">
						<ele>425</ele>
						<time>2025-08-13T09:33:56Z</time>
					</trkpt>
					<trkpt lat="45.765400" lon="4.661190">
						<ele>423</ele>
						<time>2025-08-13T09:34:00Z</time>
					</trkpt>
					<trkpt lat="45.766040" lon="4.660970">
						<ele>423</ele>
						<time>2025-08-13T09:34:12Z</time>
					</trkpt>
					<trkpt lat="45.766280" lon="4.660970">
						<ele>423</ele>
						<time>2025-08-13T09:34:16Z</time>
					</trkpt>
					<trkpt lat="45.766680" lon="4.661120">
						<ele>422</ele>
						<time>2025-08-13T09:34:23Z</time>
					</trkpt>
					<trkpt lat="45.766830" lon="4.661250">
						<ele>423</ele>
						<time>2025-08-13T09:34:26Z</time>
					</trkpt>
					<trkpt lat="45.767280" lon="4.662040">
						<ele>420</ele>
						<time>2025-08-13T09:34:39Z</time>
					</trkpt>
					<trkpt lat="45.767430" lon="4.662170">
						<ele>421</ele>
						<time>2025-08-13T09:34:42Z</time>
					</trkpt>
					<trkpt lat="45.767610" lon="4.662170">
						<ele>422</ele>
						<time>2025-08-13T09:34:45Z</time>
					</trkpt>
					<trkpt lat="45.768140" lon="4.662040">
						<ele>425</ele>
						<time>2025-08-13T09:34:55Z</time>
					</trkpt>
					<trkpt lat="45.768490" lon="4.661810">
						<ele>428</ele>
						<time>2025-08-13T09:35:02Z</time>
					</trkpt>
					<trkpt lat="45.768890" lon="4.661680">
						<ele>426</ele>
						<time>2025-08-13T09:35:09Z</time>
					</trkpt>
					<trkpt lat="45.769150" lon="4.661810">
						<ele>423</ele>
						<time>2025-08-13T09:35:14Z</time>
					</trkpt>
					<trkpt lat="45.769390" lon="4.662070">
						<ele>420</ele>
						<time>2025-08-13T09:35:19Z</time>
					</trkpt>
					<trkpt lat="45.769620" lon="4.662240">
						<ele>419</ele>
						<time>2025-08-13T09:35:24Z</time>
					</trkpt>
					<trkpt lat="45.769820" lon="4.662300">
						<ele>419</ele>
						<time>2025-08-13T09:35:28Z</time>
					</trkpt>
					<trkpt lat="45.770050" lon="4.662260">
						<ele>419</ele>
						<time>2025-08-13T09:35:32Z</time>
					</trkpt>
					<trkpt lat="45.770240" lon="4.662170">
						<ele>418</ele>
						<time>2025-08-13T09:35:35Z</time>
					</trkpt>
					<trkpt lat="45.770370" lon="4.662070">
						<ele>417</ele>
						<time>2025-08-13T09:35:38Z</time>
					</trkpt>
					<trkpt lat="45.770590" lon="4.661720">
						<ele>415</ele>
						<time>2025-08-13T09:35:44Z</time>
					</trkpt>
					<trkpt lat="45.770700" lon="4.661340">
						<ele>412</ele>
						<time>2025-08-13T09:35:49Z</time>
					</trkpt>
					<trkpt lat="45.770760" lon="4.660330">
						<ele>409</ele>
						<time>2025-08-13T09:36:01Z</time>
					</trkpt>
					<trkpt lat="45.770720" lon="4.659430">
						<ele>410</ele>
						<time>2025-08-13T09:36:13Z</time>
					</trkpt>
					<trkpt lat="45.770740" lon="4.659020">
						<ele>409</ele>
						<time>2025-08-13T09:36:18Z</time>
					</trkpt>
					<trkpt lat="45.770850" lon="4.658290">
						<ele>408</ele>
						<time>2025-08-13T09:36:27Z</time>
					</trkpt>
					<trkpt lat="45.770970" lon="4.657990">
						<ele>411</ele>
						<time>2025-08-13T09:36:31Z</time>
					</trkpt>
					<trkpt lat="45.771100" lon="4.657900">
						<ele>412</ele>
						<time>2025-08-13T09:36:34Z</time>
					</trkpt>
					<trkpt lat="45.771250" lon="4.657970">
						<ele>413</ele>
						<time>2025-08-13T09:36:37Z</time>
					</trkpt>
					<trkpt lat="45.771320" lon="4.658030">
						<ele>413</ele>
						<time>2025-08-13T09:36:38Z</time>
					</trkpt>
					<trkpt lat="45.771550" lon="4.659040">
						<ele>413</ele>
						<time>2025-08-13T09:36:51Z</time>
					</trkpt>
					<trkpt lat="45.771730" lon="4.659530">
						<ele>412</ele>
						<time>2025-08-13T09:36:58Z</time>
					</trkpt>
					<trkpt lat="45.772050" lon="4.660030">
						<ele>413</ele>
						<time>2025-08-13T09:37:07Z</time>
					</trkpt>
					<trkpt lat="45.772130" lon="4.660070">
						<ele>413</ele>
						<time>2025-08-13T09:37:08Z</time>
					</trkpt>
					<trkpt lat="45.772220" lon="4.660070">
						<ele>415</ele>
						<time>2025-08-13T09:37:10Z</time>
					</trkpt>
					<trkpt lat="45.773120" lon="4.659710">
						<ele>427</ele>
						<time>2025-08-13T09:37:26Z</time>
					</trkpt>
					<trkpt lat="45.773360" lon="4.659810">
						<ele>427</ele>
						<time>2025-08-13T09:37:31Z</time>
					</trkpt>
					<trkpt lat="45.773530" lon="4.660310">
						<ele>427</ele>
						<time>2025-08-13T09:37:38Z</time>
					</trkpt>
					<trkpt lat="45.773960" lon="4.661940">
						<ele>430</ele>
						<time>2025-08-13T09:37:59Z</time>
					</trkpt>
					<trkpt lat="45.774150" lon="4.662490">
						<ele>430</ele>
						<time>2025-08-13T09:38:07Z</time>
					</trkpt>
					<trkpt lat="45.774360" lon="4.662770">
						<ele>430</ele>
						<time>2025-08-13T09:38:12Z</time>
					</trkpt>
					<trkpt lat="45.774640" lon="4.662990">
						<ele>431</ele>
						<time>2025-08-13T09:38:18Z</time>
					</trkpt>
					<trkpt lat="45.774880" lon="4.663120">
						<ele>432</ele>
						<time>2025-08-13T09:38:22Z</time>
					</trkpt>
					<trkpt lat="45.775030" lon="4.663160">
						<ele>433</ele>
						<time>2025-08-13T09:38:25Z</time>
					</trkpt>
					<trkpt lat="45.775180" lon="4.663120">
						<ele>433</ele>
						<time>2025-08-13T09:38:28Z</time>
					</trkpt>
					<trkpt lat="45.775950" lon="4.662800">
						<ele>438</ele>
						<time>2025-08-13T09:38:42Z</time>
					</trkpt>
					<trkpt lat="45.776420" lon="4.662730">
						<ele>439</ele>
						<time>2025-08-13T09:38:50Z</time>
					</trkpt>
					<trkpt lat="45.776640" lon="4.662800">
						<ele>437</ele>
						<time>2025-08-13T09:38:54Z</time>
					</trkpt>
					<trkpt lat="45.776770" lon="4.662990">
						<ele>438</ele>
						<time>2025-08-13T09:38:58Z</time>
					</trkpt>
					<trkpt lat="45.776790" lon="4.663270">
						<ele>435</ele>
						<time>2025-08-13T09:39:01Z</time>
					</trkpt>
					<trkpt lat="45.776720" lon="4.664060">
						<ele>434</ele>
						<time>2025-08-13T09:39:11Z</time>
					</trkpt>
					<trkpt lat="45.776750" lon="4.664430">
						<ele>435</ele>
						<time>2025-08-13T09:39:16Z</time>
					</trkpt>
					<trkpt lat="45.777450" lon="4.667130">
						<ele>436</ele>
						<time>2025-08-13T09:39:51Z</time>
					</trkpt>
					<trkpt lat="45.777860" lon="4.668140">
						<ele>430</ele>
						<time>2025-08-13T09:40:06Z</time>
					</trkpt>
					<trkpt lat="45.778010" lon="4.668570">
						<ele>427</ele>
						<time>2025-08-13T09:40:12Z</time>
					</trkpt>
					<trkpt lat="45.778850" lon="4.668400">
						<ele>425</ele>
						<time>2025-08-13T09:40:27Z</time>
					</trkpt>
					<trkpt lat="45.779510" lon="4.668400">
						<ele>423</ele>
						<time>2025-08-13T09:40:39Z</time>
					</trkpt>
					<trkpt lat="45.780540" lon="4.668700">
						<ele>420</ele>
						<time>2025-08-13T09:40:57Z</time>
					</trkpt>
					<trkpt lat="45.780800" lon="4.668740">
						<ele>420</ele>
						<time>2025-08-13T09:41:02Z</time>
					</trkpt>
					<trkpt lat="45.781100" lon="4.668500">
						<ele>418</ele>
						<time>2025-08-13T09:41:08Z</time>
					</trkpt>
					<trkpt lat="45.781270" lon="4.668200">
						<ele>417</ele>
						<time>2025-08-13T09:41:13Z</time>
					</trkpt>
					<trkpt lat="45.781360" lon="4.667840">
						<ele>417</ele>
						<time>2025-08-13T09:41:18Z</time>
					</trkpt>
					<trkpt lat="45.781490" lon="4.666720">
						<ele>417</ele>
						<time>2025-08-13T09:41:32Z</time>
					</trkpt>
					<trkpt lat="45.781640" lon="4.666010">
						<ele>414</ele>
						<time>2025-08-13T09:41:41Z</time>
					</trkpt>
					<trkpt lat="45.781790" lon="4.665730">
						<ele>414</ele>
						<time>2025-08-13T09:41:45Z</time>
					</trkpt>
					<trkpt lat="45.781920" lon="4.665650">
						<ele>413</ele>
						<time>2025-08-13T09:41:48Z</time>
					</trkpt>
					<trkpt lat="45.781980" lon="4.665650">
						<ele>413</ele>
						<time>2025-08-13T09:41:49Z</time>
					</trkpt>
					<trkpt lat="45.782180" lon="4.665820">
						<ele>412</ele>
						<time>2025-08-13T09:41:53Z</time>
					</trkpt>
					<trkpt lat="45.782650" lon="4.666680">
						<ele>402</ele>
						<time>2025-08-13T09:42:07Z</time>
					</trkpt>
					<trkpt lat="45.782730" lon="4.666720">
						<ele>402</ele>
						<time>2025-08-13T09:42:08Z</time>
					</trkpt>
					<trkpt lat="45.782950" lon="4.666680">
						<ele>403</ele>
						<time>2025-08-13T09:42:12Z</time>
					</trkpt>
					<trkpt lat="45.783140" lon="4.666610">
						<ele>404</ele>
						<time>2025-08-13T09:42:16Z</time>
					</trkpt>
					<trkpt lat="45.783270" lon="4.666530">
						<ele>405</ele>
						<time>2025-08-13T09:42:18Z</time>
					</trkpt>
					<trkpt lat="45.783810" lon="4.665540">
						<ele>406</ele>
						<time>2025-08-13T09:42:34Z</time>
					</trkpt>
					<trkpt lat="45.784150" lon="4.665110">
						<ele>404</ele>
						<time>2025-08-13T09:42:42Z</time>
					</trkpt>
					<trkpt lat="45.785050" lon="4.664320">
						<ele>406</ele>
						<time>2025-08-13T09:43:01Z</time>
					</trkpt>
					<trkpt lat="45.785110" lon="4.664360">
						<ele>406</ele>
						<time>2025-08-13T09:43:02Z</time>
					</trkpt>
					<trkpt lat="45.785160" lon="4.664530">
						<ele>405</ele>
						<time>2025-08-13T09:43:04Z</time>
					</trkpt>
					<trkpt lat="45.785310" lon="4.665650">
						<ele>401</ele>
						<time>2025-08-13T09:43:18Z</time>
					</trkpt>
					<trkpt lat="45.785540" lon="4.666440">
						<ele>405</ele>
						<time>2025-08-13T09:43:29Z</time>
					</trkpt>
					<trkpt lat="45.785800" lon="4.667520">
						<ele>409</ele>
						<time>2025-08-13T09:43:43Z</time>
					</trkpt>
					<trkpt lat="45.786020" lon="4.668100">
						<ele>409</ele>
						<time>2025-08-13T09:43:51Z</time>
					</trkpt>
					<trkpt lat="45.786250" lon="4.668200">
						<ele>409</ele>
						<time>2025-08-13T09:43:56Z</time>
					</trkpt>
					<trkpt lat="45.786530" lon="4.668160">
						<ele>411</ele>
						<time>2025-08-13T09:44:01Z</time>
					</trkpt>
					<trkpt lat="45.787090" lon="4.667640">
						<ele>418</ele>
						<time>2025-08-13T09:44:12Z</time>
					</trkpt>
					<trkpt lat="45.787410" lon="4.667490">
						<ele>420</ele>
						<time>2025-08-13T09:44:18Z</time>
					</trkpt>
					<trkpt lat="45.787600" lon="4.667540">
						<ele>421</ele>
						<time>2025-08-13T09:44:22Z</time>
					</trkpt>
					<trkpt lat="45.787750" lon="4.667670">
						<ele>422</ele>
						<time>2025-08-13T09:44:25Z</time>
					</trkpt>
					<trkpt lat="45.788550" lon="4.668930">
						<ele>422</ele>
						<time>2025-08-13T09:44:46Z</time>
					</trkpt>
					<trkpt lat="45.788780" lon="4.669170">
						<ele>423</ele>
						<time>2025-08-13T09:44:51Z</time>
					</trkpt>
					<trkpt lat="45.788910" lon="4.669250">
						<ele>423</ele>
						<time>2025-08-13T09:44:54Z</time>
					</trkpt>
					<trkpt lat="45.789060" lon="4.669280">
						<ele>424</ele>
						<time>2025-08-13T09:44:56Z</time>
					</trkpt>
					<trkpt lat="45.789300" lon="4.669170">
						<ele>426</ele>
						<time>2025-08-13T09:45:01Z</time>
					</trkpt>
					<trkpt lat="45.789490" lon="4.668950">
						<ele>429</ele>
						<time>2025-08-13T09:45:05Z</time>
					</trkpt>
					<trkpt lat="45.789660" lon="4.668550">
						<ele>434</ele>
						<time>2025-08-13T09:45:11Z</time>
					</trkpt>
					<trkpt lat="45.789730" lon="4.668460">
						<ele>435</ele>
						<time>2025-08-13T09:45:13Z</time>
					</trkpt>
					<trkpt lat="45.789840" lon="4.668400">
						<ele>436</ele>
						<time>2025-08-13T09:45:15Z</time>
					</trkpt>
					<trkpt lat="45.789960" lon="4.668400">
						<ele>437</ele>
						<time>2025-08-13T09:45:17Z</time>
					</trkpt>
					<trkpt lat="45.790110" lon="4.668460">
						<ele>437</ele>
						<time>2025-08-13T09:45:20Z</time>
					</trkpt>
					<trkpt lat="45.790590" lon="4.669080">
						<ele>432</ele>
						<time>2025-08-13T09:45:31Z</time>
					</trkpt>
					<trkpt lat="45.790990" lon="4.669550">
						<ele>429</ele>
						<time>2025-08-13T09:45:40Z</time>
					</trkpt>
					<trkpt lat="45.791140" lon="4.669660">
						<ele>429</ele>
						<time>2025-08-13T09:45:43Z</time>
					</trkpt>
					<trkpt lat="45.791270" lon="4.669700">
						<ele>429</ele>
						<time>2025-08-13T09:45:46Z</time>
					</trkpt>
					<trkpt lat="45.791510" lon="4.669700">
						<ele>431</ele>
						<time>2025-08-13T09:45:50Z</time>
					</trkpt>
					<trkpt lat="45.791920" lon="4.669600">
						<ele>433</ele>
						<time>2025-08-13T09:45:57Z</time>
					</trkpt>
					<trkpt lat="45.792280" lon="4.669360">
						<ele>435</ele>
						<time>2025-08-13T09:46:04Z</time>
					</trkpt>
					<trkpt lat="45.792470" lon="4.669130">
						<ele>438</ele>
						<time>2025-08-13T09:46:09Z</time>
					</trkpt>
					<trkpt lat="45.792540" lon="4.668950">
						<ele>440</ele>
						<time>2025-08-13T09:46:11Z</time>
					</trkpt>
					<trkpt lat="45.792710" lon="4.667900">
						<ele>451</ele>
						<time>2025-08-13T09:46:25Z</time>
					</trkpt>
					<trkpt lat="45.792800" lon="4.667690">
						<ele>452</ele>
						<time>2025-08-13T09:46:28Z</time>
					</trkpt>
					<trkpt lat="45.792860" lon="4.667620">
						<ele>453</ele>
						<time>2025-08-13T09:46:29Z</time>
					</trkpt>
					<trkpt lat="45.792970" lon="4.667600">
						<ele>453</ele>
						<time>2025-08-13T09:46:31Z</time>
					</trkpt>
					<trkpt lat="45.793100" lon="4.667620">
						<ele>452</ele>
						<time>2025-08-13T09:46:34Z</time>
					</trkpt>
					<trkpt lat="45.793550" lon="4.667880">
						<ele>447</ele>
						<time>2025-08-13T09:46:42Z</time>
					</trkpt>
					<trkpt lat="45.793910" lon="4.667920">
						<ele>446</ele>
						<time>2025-08-13T09:46:49Z</time>
					</trkpt>
					<trkpt lat="45.794280" lon="4.667770">
						<ele>445</ele>
						<time>2025-08-13T09:46:55Z</time>
					</trkpt>
					<trkpt lat="45.794450" lon="4.667620">
						<ele>444</ele>
						<time>2025-08-13T09:46:59Z</time>
					</trkpt>
					<trkpt lat="45.794510" lon="4.667520">
						<ele>444</ele>
						<time>2025-08-13T09:47:01Z</time>
					</trkpt>
					<trkpt lat="45.794580" lon="4.667170">
						<ele>444</ele>
						<time>2025-08-13T09:47:05Z</time>
					</trkpt>
					<trkpt lat="45.794600" lon="4.666550">
						<ele>447</ele>
						<time>2025-08-13T09:47:13Z</time>
					</trkpt>
					<trkpt lat="45.794730" lon="4.666060">
						<ele>449</ele>
						<time>2025-08-13T09:47:19Z</time>
					</trkpt>
					<trkpt lat="45.794960" lon="4.665610">
						<ele>449</ele>
						<time>2025-08-13T09:47:26Z</time>
					</trkpt>
					<trkpt lat="45.795200" lon="4.665330">
						<ele>448</ele>
						<time>2025-08-13T09:47:32Z</time>
					</trkpt>
					<trkpt lat="45.795610" lon="4.665310">
						<ele>440</ele>
						<time>2025-08-13T09:47:39Z</time>
					</trkpt>
					<trkpt lat="45.795780" lon="4.665130">
						<ele>439</ele>
						<time>2025-08-13T09:47:43Z</time>
					</trkpt>
					<trkpt lat="45.796120" lon="4.664880">
						<ele>435</ele>
						<time>2025-08-13T09:47:50Z</time>
					</trkpt>
					<trkpt lat="45.796320" lon="4.664530">
						<ele>434</ele>
						<time>2025-08-13T09:47:55Z</time>
					</trkpt>
					<trkpt lat="45.796400" lon="4.664130">
						<ele>435</ele>
						<time>2025-08-13T09:48:00Z</time>
					</trkpt>
					<trkpt lat="45.796470" lon="4.663500">
						<ele>437</ele>
						<time>2025-08-13T09:48:08Z</time>
					</trkpt>
					<trkpt lat="45.796530" lon="4.663330">
						<ele>437</ele>
						<time>2025-08-13T09:48:11Z</time>
					</trkpt>
					<trkpt lat="45.796680" lon="4.663250">
						<ele>435</ele>
						<time>2025-08-13T09:48:14Z</time>
					</trkpt>
					<trkpt lat="45.796920" lon="4.663310">
						<ele>432</ele>
						<time>2025-08-13T09:48:18Z</time>
					</trkpt>
					<trkpt lat="45.797130" lon="4.663460">
						<ele>429</ele>
						<time>2025-08-13T09:48:22Z</time>
					</trkpt>
					<trkpt lat="45.797280" lon="4.663480">
						<ele>427</ele>
						<time>2025-08-13T09:48:25Z</time>
					</trkpt>
					<trkpt lat="45.797430" lon="4.663370">
						<ele>427</ele>
						<time>2025-08-13T09:48:28Z</time>
					</trkpt>
					<trkpt lat="45.797840" lon="4.662560">
						<ele>432</ele>
						<time>2025-08-13T09:48:40Z</time>
					</trkpt>
					<trkpt lat="45.797970" lon="4.662370">
						<ele>432</ele>
						<time>2025-08-13T09:48:43Z</time>
					</trkpt>
					<trkpt lat="45.798330" lon="4.661960">
						<ele>429</ele>
						<time>2025-08-13T09:48:52Z</time>
					</trkpt>
					<trkpt lat="45.798570" lon="4.661740">
						<ele>427</ele>
						<time>2025-08-13T09:48:57Z</time>
					</trkpt>
					<trkpt lat="45.799040" lon="4.661380">
						<ele>423</ele>
						<time>2025-08-13T09:49:06Z</time>
					</trkpt>
					<trkpt lat="45.799230" lon="4.661140">
						<ele>423</ele>
						<time>2025-08-13T09:49:11Z</time>
					</trkpt>
					<trkpt lat="45.799410" lon="4.660520">
						<ele>425</ele>
						<time>2025-08-13T09:49:19Z</time>
					</trkpt>
					<trkpt lat="45.799490" lon="4.660410">
						<ele>425</ele>
						<time>2025-08-13T09:49:21Z</time>
					</trkpt>
					<trkpt lat="45.799640" lon="4.660410">
						<ele>424</ele>
						<time>2025-08-13T09:49:24Z</time>
					</trkpt>
					<trkpt lat="45.800050" lon="4.660760">
						<ele>419</ele>
						<time>2025-08-13T09:49:32Z</time>
					</trkpt>
					<trkpt lat="45.800290" lon="4.660910">
						<ele>415</ele>
						<time>2025-08-13T09:49:37Z</time>
					</trkpt>
					<trkpt lat="45.800590" lon="4.660840">
						<ele>412</ele>
						<time>2025-08-13T09:49:42Z</time>
					</trkpt>
					<trkpt lat="45.801010" lon="4.660560">
						<ele>408</ele>
						<time>2025-08-13T09:49:50Z</time>
					</trkpt>
					<trkpt lat="45.801210" lon="4.660240">
						<ele>408</ele>
						<time>2025-08-13T09:49:56Z</time>
					</trkpt>
					<trkpt lat="45.801400" lon="4.659830">
						<ele>411</ele>
						<time>2025-08-13T09:50:02Z</time>
					</trkpt>
					<trkpt lat="45.801550" lon="4.659640">
						<ele>412</ele>
						<time>2025-08-13T09:50:05Z</time>
					</trkpt>
					<trkpt lat="45.801700" lon="4.659600">
						<ele>412</ele>
						<time>2025-08-13T09:50:08Z</time>
					</trkpt>
					<trkpt lat="45.801940" lon="4.659750">
						<ele>411</ele>
						<time>2025-08-13T09:50:13Z</time>
					</trkpt>
					<trkpt lat="45.802450" lon="4.660760">
						<ele>399</ele>
						<time>2025-08-13T09:50:28Z</time>
					</trkpt>
					<trkpt lat="45.803030" lon="4.661340">
						<ele>395</ele>
						<time>2025-08-13T09:50:41Z</time>
					</trkpt>
					<trkpt lat="45.803440" lon="4.661890">
						<ele>390</ele>
						<time>2025-08-13T09:50:51Z</time>
					</trkpt>
					<trkpt lat="45.803590" lon="4.662220">
						<ele>387</ele>
						<time>2025-08-13T09:50:56Z</time>
					</trkpt>
					<trkpt lat="45.803700" lon="4.662560">
						<ele>385</ele>
						<time>2025-08-13T09:51:00Z</time>
					</trkpt>
					<trkpt lat="45.803720" lon="4.663050">
						<ele>383</ele>
						<time>2025-08-13T09:51:06Z</time>
					</trkpt>
					<trkpt lat="45.803800" lon="4.663480">
						<ele>381</ele>
						<time>2025-08-13T09:51:12Z</time>
					</trkpt>
					<trkpt lat="45.803870" lon="4.663700">
						<ele>380</ele>
						<time>2025-08-13T09:51:15Z</time>
					</trkpt>
					<trkpt lat="45.804040" lon="4.663980">
						<ele>380</ele>
						<time>2025-08-13T09:51:20Z</time>
					</trkpt>
					<trkpt lat="45.804130" lon="4.664060">
						<ele>380</ele>
						<time>2025-08-13T09:51:21Z</time>
					</trkpt>
					<trkpt lat="45.805240" lon="4.664620">
						<ele>377</ele>
						<time>2025-08-13T09:51:42Z</time>
					</trkpt>
					<trkpt lat="45.806290" lon="4.664620">
						<ele>374</ele>
						<time>2025-08-13T09:52:01Z</time>
					</trkpt>
					<trkpt lat="45.806510" lon="4.664700">
						<ele>374</ele>
						<time>2025-08-13T09:52:05Z</time>
					</trkpt>
					<trkpt lat="45.806620" lon="4.664810">
						<ele>373</ele>
						<time>2025-08-13T09:52:08Z</time>
					</trkpt>
					<trkpt lat="45.806720" lon="4.664770">
						<ele>373</ele>
						<time>2025-08-13T09:52:09Z</time>
					</trkpt>
					<trkpt lat="45.806770" lon="4.664660">
						<ele>373</ele>
						<time>2025-08-13T09:52:11Z</time>
					</trkpt>
					<trkpt lat="45.806740" lon="4.664530">
						<ele>374</ele>
						<time>2025-08-13T09:52:13Z</time>
					</trkpt>
					<trkpt lat="45.806680" lon="4.664450">
						<ele>374</ele>
						<time>2025-08-13T09:52:14Z</time>
					</trkpt>
					<trkpt lat="45.806080" lon="4.662430">
						<ele>382</ele>
						<time>2025-08-13T09:52:41Z</time>
					</trkpt>
					<trkpt lat="45.805540" lon="4.660480">
						<ele>386</ele>
						<time>2025-08-13T09:53:07Z</time>
					</trkpt>
					<trkpt lat="45.805440" lon="4.660010">
						<ele>386</ele>
						<time>2025-08-13T09:53:14Z</time>
					</trkpt>
					<trkpt lat="45.805310" lon="4.658310">
						<ele>390</ele>
						<time>2025-08-13T09:53:35Z</time>
					</trkpt>
					<trkpt lat="45.805030" lon="4.656620">
						<ele>387</ele>
						<time>2025-08-13T09:53:56Z</time>
					</trkpt>
					<trkpt lat="45.805010" lon="4.656040">
						<ele>387</ele>
						<time>2025-08-13T09:54:03Z</time>
					</trkpt>
					<trkpt lat="45.805030" lon="4.655350">
						<ele>387</ele>
						<time>2025-08-13T09:54:12Z</time>
					</trkpt>
					<trkpt lat="45.805290" lon="4.653830">
						<ele>392</ele>
						<time>2025-08-13T09:54:31Z</time>
					</trkpt>
					<trkpt lat="45.805330" lon="4.652900">
						<ele>394</ele>
						<time>2025-08-13T09:54:43Z</time>
					</trkpt>
					<trkpt lat="45.805330" lon="4.652430">
						<ele>394</ele>
						<time>2025-08-13T09:54:49Z</time>
					</trkpt>
					<trkpt lat="45.804980" lon="4.646640">
						<ele>405</ele>
						<time>2025-08-13T09:56:01Z</time>
					</trkpt>
					<trkpt lat="45.805010" lon="4.646230">
						<ele>404</ele>
						<time>2025-08-13T09:56:06Z</time>
					</trkpt>
					<trkpt lat="45.805110" lon="4.645740">
						<ele>402</ele>
						<time>2025-08-13T09:56:12Z</time>
					</trkpt>
					<trkpt lat="45.805460" lon="4.644560">
						<ele>400</ele>
						<time>2025-08-13T09:56:28Z</time>
					</trkpt>
					<trkpt lat="45.805710" lon="4.643910">
						<ele>398</ele>
						<time>2025-08-13T09:56:37Z</time>
					</trkpt>
					<trkpt lat="45.806140" lon="4.642990">
						<ele>396</ele>
						<time>2025-08-13T09:56:51Z</time>
					</trkpt>
					<trkpt lat="45.806290" lon="4.642580">
						<ele>396</ele>
						<time>2025-08-13T09:56:57Z</time>
					</trkpt>
					<trkpt lat="45.806360" lon="4.642240">
						<ele>396</ele>
						<time>2025-08-13T09:57:01Z</time>
					</trkpt>
					<trkpt lat="45.806380" lon="4.641830">
						<ele>395</ele>
						<time>2025-08-13T09:57:06Z</time>
					</trkpt>
					<trkpt lat="45.806340" lon="4.641530">
						<ele>395</ele>
						<time>2025-08-13T09:57:10Z</time>
					</trkpt>
					<trkpt lat="45.806620" lon="4.641440">
						<ele>395</ele>
						<time>2025-08-13T09:57:15Z</time>
					</trkpt>
					<trkpt lat="45.806850" lon="4.641570">
						<ele>395</ele>
						<time>2025-08-13T09:57:20Z</time>
					</trkpt>
					<trkpt lat="45.807000" lon="4.641900">
						<ele>394</ele>
						<time>2025-08-13T09:57:25Z</time>
					</trkpt>
					<trkpt lat="45.807070" lon="4.641980">
						<ele>393</ele>
						<time>2025-08-13T09:57:26Z</time>
					</trkpt>
					<trkpt lat="45.807240" lon="4.642050">
						<ele>393</ele>
						<time>2025-08-13T09:57:29Z</time>
					</trkpt>
					<trkpt lat="45.808530" lon="4.642110">
						<ele>389</ele>
						<time>2025-08-13T09:57:52Z</time>
					</trkpt>
					<trkpt lat="45.809210" lon="4.641900">
						<ele>389</ele>
						<time>2025-08-13T09:58:05Z</time>
					</trkpt>
					<trkpt lat="45.809430" lon="4.641770">
						<ele>390</ele>
						<time>2025-08-13T09:58:09Z</time>
					</trkpt>
					<trkpt lat="45.809730" lon="4.641470">
						<ele>392</ele>
						<time>2025-08-13T09:58:15Z</time>
					</trkpt>
					<trkpt lat="45.809940" lon="4.641190">
						<ele>394</ele>
						<time>2025-08-13T09:58:21Z</time>
					</trkpt>
					<trkpt lat="45.810240" lon="4.640480">
						<ele>395</ele>
						<time>2025-08-13T09:58:31Z</time>
					</trkpt>
					<trkpt lat="45.810930" lon="4.639020">
						<ele>389</ele>
						<time>2025-08-13T09:58:53Z</time>
					</trkpt>
					<trkpt lat="45.811360" lon="4.638660">
						<ele>389</ele>
						<time>2025-08-13T09:59:02Z</time>
					</trkpt>
					<trkpt lat="45.811640" lon="4.638530">
						<ele>389</ele>
						<time>2025-08-13T09:59:07Z</time>
					</trkpt>
					<trkpt lat="45.811830" lon="4.638590">
						<ele>390</ele>
						<time>2025-08-13T09:59:10Z</time>
					</trkpt>
					<trkpt lat="45.813050" lon="4.639660">
						<ele>388</ele>
						<time>2025-08-13T09:59:36Z</time>
					</trkpt>
					<trkpt lat="45.813440" lon="4.639900">
						<ele>389</ele>
						<time>2025-08-13T09:59:43Z</time>
					</trkpt>
					<trkpt lat="45.814250" lon="4.640290">
						<ele>385</ele>
						<time>2025-08-13T09:59:58Z</time>
					</trkpt>
					<trkpt lat="45.814680" lon="4.640350">
						<ele>382</ele>
						<time>2025-08-13T10:00:06Z</time>
					</trkpt>
					<trkpt lat="45.815180" lon="4.640260">
						<ele>385</ele>
						<time>2025-08-13T10:00:15Z</time>
					</trkpt>
					<trkpt lat="45.815430" lon="4.640410">
						<ele>388</ele>
						<time>2025-08-13T10:00:20Z</time>
					</trkpt>
					<trkpt lat="45.815560" lon="4.640610">
						<ele>389</ele>
						<time>2025-08-13T10:00:23Z</time>
					</trkpt>
					<trkpt lat="45.815910" lon="4.642280">
						<ele>389</ele>
						<time>2025-08-13T10:00:45Z</time>
					</trkpt>
					<trkpt lat="45.816010" lon="4.642500">
						<ele>390</ele>
						<time>2025-08-13T10:00:48Z</time>
					</trkpt>
					<trkpt lat="45.816160" lon="4.642690">
						<ele>389</ele>
						<time>2025-08-13T10:00:52Z</time>
					</trkpt>
					<trkpt lat="45.816570" lon="4.642990">
						<ele>390</ele>
						<time>2025-08-13T10:01:00Z</time>
					</trkpt>
					<trkpt lat="45.816740" lon="4.643050">
						<ele>390</ele>
						<time>2025-08-13T10:01:03Z</time>
					</trkpt>
					<trkpt lat="45.818500" lon="4.642860">
						<ele>394</ele>
						<time>2025-08-13T10:01:34Z</time>
					</trkpt>
					<trkpt lat="45.818800" lon="4.642710">
						<ele>394</ele>
						<time>2025-08-13T10:01:40Z</time>
					</trkpt>
					<trkpt lat="45.819060" lon="4.642450">
						<ele>395</ele>
						<time>2025-08-13T10:01:46Z</time>
					</trkpt>
					<trkpt lat="45.819400" lon="4.641620">
						<ele>398</ele>
						<time>2025-08-13T10:01:58Z</time>
					</trkpt>
					<trkpt lat="45.820200" lon="4.640410">
						<ele>398</ele>
						<time>2025-08-13T10:02:18Z</time>
					</trkpt>
					<trkpt lat="45.820520" lon="4.639710">
						<ele>398</ele>
						<time>2025-08-13T10:02:29Z</time>
					</trkpt>
					<trkpt lat="45.820690" lon="4.638740">
						<ele>396</ele>
						<time>2025-08-13T10:02:41Z</time>
					</trkpt>
					<trkpt lat="45.820690" lon="4.638290">
						<ele>395</ele>
						<time>2025-08-13T10:02:47Z</time>
					</trkpt>
					<trkpt lat="45.820460" lon="4.637350">
						<ele>392</ele>
						<time>2025-08-13T10:02:59Z</time>
					</trkpt>
					<trkpt lat="45.820310" lon="4.635930">
						<ele>383</ele>
						<time>2025-08-13T10:03:17Z</time>
					</trkpt>
					<trkpt lat="45.820070" lon="4.634730">
						<ele>377</ele>
						<time>2025-08-13T10:03:32Z</time>
					</trkpt>
					<trkpt lat="45.820090" lon="4.634280">
						<ele>375</ele>
						<time>2025-08-13T10:03:38Z</time>
					</trkpt>
					<trkpt lat="45.820180" lon="4.633660">
						<ele>376</ele>
						<time>2025-08-13T10:03:46Z</time>
					</trkpt>
					<trkpt lat="45.820310" lon="4.633290">
						<ele>378</ele>
						<time>2025-08-13T10:03:51Z</time>
					</trkpt>
					<trkpt lat="45.820390" lon="4.633160">
						<ele>379</ele>
						<time>2025-08-13T10:03:53Z</time>
					</trkpt>
					<trkpt lat="45.820610" lon="4.632990">
						<ele>379</ele>
						<time>2025-08-13T10:03:58Z</time>
					</trkpt>
					<trkpt lat="45.821080" lon="4.632820">
						<ele>377</ele>
						<time>2025-08-13T10:04:06Z</time>
					</trkpt>
					<trkpt lat="45.821440" lon="4.632630">
						<ele>377</ele>
						<time>2025-08-13T10:04:13Z</time>
					</trkpt>
					<trkpt lat="45.821660" lon="4.632430">
						<ele>376</ele>
						<time>2025-08-13T10:04:18Z</time>
					</trkpt>
					<trkpt lat="45.821870" lon="4.632090">
						<ele>376</ele>
						<time>2025-08-13T10:04:23Z</time>
					</trkpt>
					<trkpt lat="45.821960" lon="4.631770">
						<ele>376</ele>
						<time>2025-08-13T10:04:28Z</time>
					</trkpt>
					<trkpt lat="45.822060" lon="4.630990">
						<ele>376</ele>
						<time>2025-08-13T10:04:37Z</time>
					</trkpt>
					<trkpt lat="45.822130" lon="4.630760">
						<ele>376</ele>
						<time>2025-08-13T10:04:41Z</time>
					</trkpt>
					<trkpt lat="45.822560" lon="4.630070">
						<ele>376</ele>
						<time>2025-08-13T10:04:52Z</time>
					</trkpt>
					<trkpt lat="45.822690" lon="4.629940">
						<ele>374</ele>
						<time>2025-08-13T10:04:55Z</time>
					</trkpt>
					<trkpt lat="45.823590" lon="4.629560">
						<ele>358</ele>
						<time>2025-08-13T10:05:12Z</time>
					</trkpt>
					<trkpt lat="45.824230" lon="4.629150">
						<ele>349</ele>
						<time>2025-08-13T10:05:24Z</time>
					</trkpt>
					<trkpt lat="45.824400" lon="4.628930">
						<ele>347</ele>
						<time>2025-08-13T10:05:28Z</time>
					</trkpt>
					<trkpt lat="45.825300" lon="4.627180">
						<ele>334</ele>
						<time>2025-08-13T10:05:55Z</time>
					</trkpt>
					<trkpt lat="45.825970" lon="4.625500">
						<ele>322</ele>
						<time>2025-08-13T10:06:19Z</time>
					</trkpt>
					<trkpt lat="45.826380" lon="4.624730">
						<ele>315</ele>
						<time>2025-08-13T10:06:31Z</time>
					</trkpt>
					<trkpt lat="45.826870" lon="4.622880">
						<ele>309</ele>
						<time>2025-08-13T10:06:56Z</time>
					</trkpt>
					<trkpt lat="45.827000" lon="4.622520">
						<ele>308</ele>
						<time>2025-08-13T10:07:01Z</time>
					</trkpt>
					<trkpt lat="45.827600" lon="4.621660">
						<ele>301</ele>
						<time>2025-08-13T10:07:16Z</time>
					</trkpt>
					<trkpt lat="45.827940" lon="4.621230">
						<ele>297</ele>
						<time>2025-08-13T10:07:24Z</time>
					</trkpt>
					<trkpt lat="45.828670" lon="4.620220">
						<ele>287</ele>
						<time>2025-08-13T10:07:42Z</time>
					</trkpt>
					<trkpt lat="45.829170" lon="4.619620">
						<ele>281</ele>
						<time>2025-08-13T10:07:53Z</time>
					</trkpt>
					<trkpt lat="45.829790" lon="4.618760">
						<ele>272</ele>
						<time>2025-08-13T10:08:09Z</time>
					</trkpt>
					<trkpt lat="45.829850" lon="4.618530">
						<ele>271</ele>
						<time>2025-08-13T10:08:12Z</time>
					</trkpt>
					<trkpt lat="45.829830" lon="4.618160">
						<ele>269</ele>
						<time>2025-08-13T10:08:16Z</time>
					</trkpt>
					<trkpt lat="45.829770" lon="4.617950">
						<ele>266</ele>
						<time>2025-08-13T10:08:19Z</time>
					</trkpt>
					<trkpt lat="45.829580" lon="4.617630">
						<ele>263</ele>
						<time>2025-08-13T10:08:24Z</time>
					</trkpt>
					<trkpt lat="45.829490" lon="4.617540">
						<ele>262</ele>
						<time>2025-08-13T10:08:26Z</time>
					</trkpt>
					<trkpt lat="45.829210" lon="4.617370">
						<ele>259</ele>
						<time>2025-08-13T10:08:32Z</time>
					</trkpt>
					<trkpt lat="45.828720" lon="4.617220">
						<ele>256</ele>
						<time>2025-08-13T10:08:41Z</time>
					</trkpt>
					<trkpt lat="45.828550" lon="4.617030">
						<ele>254</ele>
						<time>2025-08-13T10:08:45Z</time>
					</trkpt>
					<trkpt lat="45.828460" lon="4.616880">
						<ele>253</ele>
						<time>2025-08-13T10:08:47Z</time>
					</trkpt>
					<trkpt lat="45.828220" lon="4.616100">
						<ele>246</ele>
						<time>2025-08-13T10:08:58Z</time>
					</trkpt>
					<trkpt lat="45.828070" lon="4.615820">
						<ele>244</ele>
						<time>2025-08-13T10:09:02Z</time>
					</trkpt>
					<trkpt lat="45.827490" lon="4.615350">
						<ele>244</ele>
						<time>2025-08-13T10:09:14Z</time>
					</trkpt>
					<trkpt lat="45.827170" lon="4.614860">
						<ele>241</ele>
						<time>2025-08-13T10:09:22Z</time>
					</trkpt>
					<trkpt lat="45.827060" lon="4.614490">
						<ele>239</ele>
						<time>2025-08-13T10:09:27Z</time>
					</trkpt>
					<trkpt lat="45.827040" lon="4.613960">
						<ele>236</ele>
						<time>2025-08-13T10:09:34Z</time>
					</trkpt>
					<trkpt lat="45.827090" lon="4.613360">
						<ele>233</ele>
						<time>2025-08-13T10:09:41Z</time>
					</trkpt>
					<trkpt lat="45.827090" lon="4.613080">
						<ele>231</ele>
						<time>2025-08-13T10:09:45Z</time>
					</trkpt>
					<trkpt lat="45.826760" lon="4.612240">
						<ele>230</ele>
						<time>2025-08-13T10:09:57Z</time>
					</trkpt>
					<trkpt lat="45.826700" lon="4.611880">
						<ele>229</ele>
						<time>2025-08-13T10:10:01Z</time>
					</trkpt>
					<trkpt lat="45.826740" lon="4.611640">
						<ele>229</ele>
						<time>2025-08-13T10:10:04Z</time>
					</trkpt>
					<trkpt lat="45.827020" lon="4.610870">
						<ele>228</ele>
						<time>2025-08-13T10:10:15Z</time>
					</trkpt>
					<trkpt lat="45.826510" lon="4.610420">
						<ele>228</ele>
						<time>2025-08-13T10:10:26Z</time>
					</trkpt>
					<trkpt lat="45.826330" lon="4.610220">
						<ele>228</ele>
						<time>2025-08-13T10:10:30Z</time>
					</trkpt>
					<trkpt lat="45.825520" lon="4.608610">
						<ele>229</ele>
						<time>2025-08-13T10:10:54Z</time>
					</trkpt>
					<trkpt lat="45.825520" lon="4.608510">
						<ele>229</ele>
						<time>2025-08-13T10:10:56Z</time>
					</trkpt>
					<trkpt lat="45.825480" lon="4.608420">
						<ele>229</ele>
						<time>2025-08-13T10:10:57Z</time>
					</trkpt>
					<trkpt lat="45.825370" lon="4.608340">
						<ele>230</ele>
						<time>2025-08-13T10:10:59Z</time>
					</trkpt>
					<trkpt lat="45.825310" lon="4.608380">
						<ele>230</ele>
						<time>2025-08-13T10:11:00Z</time>
					</trkpt>
					<trkpt lat="45.825280" lon="4.608440">
						<ele>230</ele>
						<time>2025-08-13T10:11:01Z</time>
					</trkpt>
					<trkpt lat="45.825430" lon="4.608640">
						<ele>229</ele>
						<time>2025-08-13T10:11:05Z</time>
					</trkpt>
					<trkpt lat="45.825500" lon="4.608620">
						<ele>229</ele>
						<time>2025-08-13T10:11:06Z</time>
					</trkpt>
					</trkseg>
				</trk>
			</gpx>